<?xml version="1.0" encoding="UTF-8" standalone="no" ?>
<gpx xmlns="http://www.topografix.com/GPX/1/1" xmlns:xsi="http://www.w3.org/2001/XMLSchema-instance" xsi:schemaLocation="http://www.topografix.com/GPX/1/1 http://www.topografix.com/GPX/1/1/gpx.xsd" version="1.1" creator="VisuGPX - https://www.visugpx.com">
  <metadata>
    <name>Roche beranger-Lac achard-croix de Chamrousse-roche beranger</name>
    <desc><![CDATA[File with points/tracks from Locus Map/3.48.2]]></desc>
  </metadata>
  <trk>
    <name><![CDATA[2020-09-28 10:52:39]]></name>
    <desc><![CDATA[Col botte]]></desc>
    <extensions>
      <line xmlns="http://www.topografix.com/GPX/gpx_style/0/2">
        <color>0000FF</color>
        <opacity>0.59</opacity>
        <width>6.0</width>
      </line>
    </extensions>
    <trkseg>
      <trkpt lat="45.10957" lon="5.87793">
        <ele>1761.04</ele>
        <time>2020-09-28T08:53:28.000Z</time>
      </trkpt>
      <trkpt lat="45.10959" lon="5.87794">
        <ele>1758.64</ele>
        <time>2020-09-28T08:53:38.000Z</time>
      </trkpt>
      <trkpt lat="45.10958" lon="5.87798">
        <ele>1758.17</ele>
        <time>2020-09-28T08:54:00.000Z</time>
      </trkpt>
      <trkpt lat="45.10959" lon="5.87817">
        <ele>1754.11</ele>
        <time>2020-09-28T08:54:10.000Z</time>
      </trkpt>
      <trkpt lat="45.10959" lon="5.87824">
        <ele>1757.5</ele>
        <time>2020-09-28T08:54:20.000Z</time>
      </trkpt>
      <trkpt lat="45.10958" lon="5.87833">
        <ele>1759.9</ele>
        <time>2020-09-28T08:54:30.000Z</time>
      </trkpt>
      <trkpt lat="45.10962" lon="5.87842">
        <ele>1764.33</ele>
        <time>2020-09-28T08:54:40.000Z</time>
      </trkpt>
      <trkpt lat="45.10962" lon="5.87856">
        <ele>1764.62</ele>
        <time>2020-09-28T08:54:50.000Z</time>
      </trkpt>
      <trkpt lat="45.1096" lon="5.87861">
        <ele>1766.64</ele>
        <time>2020-09-28T08:55:00.000Z</time>
      </trkpt>
      <trkpt lat="45.10958" lon="5.87864">
        <ele>1771.8</ele>
        <time>2020-09-28T08:55:10.000Z</time>
      </trkpt>
      <trkpt lat="45.10956" lon="5.87869">
        <ele>1769.24</ele>
        <time>2020-09-28T08:55:20.000Z</time>
      </trkpt>
      <trkpt lat="45.10957" lon="5.87871">
        <ele>1768.28</ele>
        <time>2020-09-28T08:55:30.000Z</time>
      </trkpt>
      <trkpt lat="45.10957" lon="5.87872">
        <ele>1768.38</ele>
        <time>2020-09-28T08:55:41.000Z</time>
      </trkpt>
      <trkpt lat="45.10957" lon="5.87874">
        <ele>1769.58</ele>
        <time>2020-09-28T08:55:58.000Z</time>
      </trkpt>
      <trkpt lat="45.10954" lon="5.87888">
        <ele>1771.93</ele>
        <time>2020-09-28T08:56:08.000Z</time>
      </trkpt>
      <trkpt lat="45.10954" lon="5.879">
        <ele>1774.06</ele>
        <time>2020-09-28T08:56:18.000Z</time>
      </trkpt>
      <trkpt lat="45.10954" lon="5.87911">
        <ele>1775.2</ele>
        <time>2020-09-28T08:56:28.000Z</time>
      </trkpt>
      <trkpt lat="45.10953" lon="5.87912">
        <ele>1775.26</ele>
        <time>2020-09-28T08:56:38.000Z</time>
      </trkpt>
      <trkpt lat="45.10952" lon="5.87916">
        <ele>1777.72</ele>
        <time>2020-09-28T08:56:48.000Z</time>
      </trkpt>
      <trkpt lat="45.1095" lon="5.87927">
        <ele>1784.66</ele>
        <time>2020-09-28T08:56:58.000Z</time>
      </trkpt>
      <trkpt lat="45.10947" lon="5.87934">
        <ele>1787.7</ele>
        <time>2020-09-28T08:57:08.000Z</time>
      </trkpt>
      <trkpt lat="45.10947" lon="5.87937">
        <ele>1787.46</ele>
        <time>2020-09-28T08:57:18.000Z</time>
      </trkpt>
      <trkpt lat="45.10947" lon="5.87939">
        <ele>1785.95</ele>
        <time>2020-09-28T08:57:28.000Z</time>
      </trkpt>
      <trkpt lat="45.10945" lon="5.87947">
        <ele>1789.26</ele>
        <time>2020-09-28T08:57:38.000Z</time>
      </trkpt>
      <trkpt lat="45.10945" lon="5.8795">
        <ele>1789.66</ele>
        <time>2020-09-28T08:57:48.000Z</time>
      </trkpt>
      <trkpt lat="45.10941" lon="5.8796">
        <ele>1791.25</ele>
        <time>2020-09-28T08:57:58.000Z</time>
      </trkpt>
      <trkpt lat="45.10934" lon="5.87969">
        <ele>1794.46</ele>
        <time>2020-09-28T08:58:08.000Z</time>
      </trkpt>
      <trkpt lat="45.10927" lon="5.87978">
        <ele>1794.95</ele>
        <time>2020-09-28T08:58:18.000Z</time>
      </trkpt>
      <trkpt lat="45.10923" lon="5.87986">
        <ele>1793.5</ele>
        <time>2020-09-28T08:58:28.000Z</time>
      </trkpt>
      <trkpt lat="45.10922" lon="5.87988">
        <ele>1792.41</ele>
        <time>2020-09-28T08:58:46.000Z</time>
      </trkpt>
      <trkpt lat="45.10921" lon="5.87995">
        <ele>1793.77</ele>
        <time>2020-09-28T08:58:56.000Z</time>
      </trkpt>
      <trkpt lat="45.10922" lon="5.87995">
        <ele>1794.83</ele>
        <time>2020-09-28T08:59:06.000Z</time>
      </trkpt>
      <trkpt lat="45.10922" lon="5.87997">
        <ele>1795.23</ele>
        <time>2020-09-28T09:01:50.000Z</time>
      </trkpt>
      <trkpt lat="45.10919" lon="5.88018">
        <ele>1796.16</ele>
        <time>2020-09-28T09:02:00.000Z</time>
      </trkpt>
      <trkpt lat="45.10919" lon="5.88028">
        <ele>1794.34</ele>
        <time>2020-09-28T09:02:10.000Z</time>
      </trkpt>
      <trkpt lat="45.10919" lon="5.88033">
        <ele>1798.83</ele>
        <time>2020-09-28T09:02:20.000Z</time>
      </trkpt>
      <trkpt lat="45.1092" lon="5.88035">
        <ele>1798.43</ele>
        <time>2020-09-28T09:02:30.000Z</time>
      </trkpt>
      <trkpt lat="45.10923" lon="5.8804">
        <ele>1797.78</ele>
        <time>2020-09-28T09:02:40.000Z</time>
      </trkpt>
      <trkpt lat="45.10928" lon="5.88046">
        <ele>1797.06</ele>
        <time>2020-09-28T09:02:50.000Z</time>
      </trkpt>
      <trkpt lat="45.10928" lon="5.88054">
        <ele>1798.33</ele>
        <time>2020-09-28T09:03:00.000Z</time>
      </trkpt>
      <trkpt lat="45.10927" lon="5.88056">
        <ele>1798.23</ele>
        <time>2020-09-28T09:03:10.000Z</time>
      </trkpt>
      <trkpt lat="45.1093" lon="5.88059">
        <ele>1801.42</ele>
        <time>2020-09-28T09:03:20.000Z</time>
      </trkpt>
      <trkpt lat="45.10932" lon="5.88061">
        <ele>1801.54</ele>
        <time>2020-09-28T09:03:30.000Z</time>
      </trkpt>
      <trkpt lat="45.10934" lon="5.88068">
        <ele>1799.94</ele>
        <time>2020-09-28T09:03:40.000Z</time>
      </trkpt>
      <trkpt lat="45.10939" lon="5.88073">
        <ele>1802.12</ele>
        <time>2020-09-28T09:03:50.000Z</time>
      </trkpt>
      <trkpt lat="45.10945" lon="5.88082">
        <ele>1801.44</ele>
        <time>2020-09-28T09:04:00.000Z</time>
      </trkpt>
      <trkpt lat="45.10949" lon="5.88095">
        <ele>1802.17</ele>
        <time>2020-09-28T09:04:10.000Z</time>
      </trkpt>
      <trkpt lat="45.1095" lon="5.88096">
        <ele>1802.63</ele>
        <time>2020-09-28T09:04:20.000Z</time>
      </trkpt>
      <trkpt lat="45.1095" lon="5.88098">
        <ele>1802.66</ele>
        <time>2020-09-28T09:04:34.000Z</time>
      </trkpt>
      <trkpt lat="45.10949" lon="5.8811">
        <ele>1802.65</ele>
        <time>2020-09-28T09:04:44.000Z</time>
      </trkpt>
      <trkpt lat="45.10957" lon="5.88124">
        <ele>1809.78</ele>
        <time>2020-09-28T09:04:54.000Z</time>
      </trkpt>
      <trkpt lat="45.10958" lon="5.88133">
        <ele>1807.19</ele>
        <time>2020-09-28T09:05:04.000Z</time>
      </trkpt>
      <trkpt lat="45.10956" lon="5.88142">
        <ele>1805.82</ele>
        <time>2020-09-28T09:05:14.000Z</time>
      </trkpt>
      <trkpt lat="45.10957" lon="5.88146">
        <ele>1807.1</ele>
        <time>2020-09-28T09:05:24.000Z</time>
      </trkpt>
      <trkpt lat="45.10957" lon="5.88151">
        <ele>1810.4</ele>
        <time>2020-09-28T09:05:34.000Z</time>
      </trkpt>
      <trkpt lat="45.10957" lon="5.88153">
        <ele>1810.46</ele>
        <time>2020-09-28T09:05:44.000Z</time>
      </trkpt>
      <trkpt lat="45.10956" lon="5.88167">
        <ele>1813.37</ele>
        <time>2020-09-28T09:05:54.000Z</time>
      </trkpt>
      <trkpt lat="45.10952" lon="5.8818">
        <ele>1814.32</ele>
        <time>2020-09-28T09:06:04.000Z</time>
      </trkpt>
      <trkpt lat="45.10948" lon="5.88193">
        <ele>1812.31</ele>
        <time>2020-09-28T09:06:14.000Z</time>
      </trkpt>
      <trkpt lat="45.1095" lon="5.88197">
        <ele>1813.25</ele>
        <time>2020-09-28T09:06:24.000Z</time>
      </trkpt>
      <trkpt lat="45.1095" lon="5.88208">
        <ele>1813.74</ele>
        <time>2020-09-28T09:06:34.000Z</time>
      </trkpt>
      <trkpt lat="45.10951" lon="5.88221">
        <ele>1817.74</ele>
        <time>2020-09-28T09:06:44.000Z</time>
      </trkpt>
      <trkpt lat="45.10947" lon="5.88232">
        <ele>1818.19</ele>
        <time>2020-09-28T09:06:54.000Z</time>
      </trkpt>
      <trkpt lat="45.10943" lon="5.8824">
        <ele>1821.52</ele>
        <time>2020-09-28T09:07:04.000Z</time>
      </trkpt>
      <trkpt lat="45.10938" lon="5.88247">
        <ele>1821.42</ele>
        <time>2020-09-28T09:07:14.000Z</time>
      </trkpt>
      <trkpt lat="45.10935" lon="5.88254">
        <ele>1821.4</ele>
        <time>2020-09-28T09:07:24.000Z</time>
      </trkpt>
      <trkpt lat="45.10933" lon="5.88266">
        <ele>1822.94</ele>
        <time>2020-09-28T09:07:34.000Z</time>
      </trkpt>
      <trkpt lat="45.10934" lon="5.88274">
        <ele>1823.97</ele>
        <time>2020-09-28T09:07:44.000Z</time>
      </trkpt>
      <trkpt lat="45.10935" lon="5.8828">
        <ele>1821.3</ele>
        <time>2020-09-28T09:07:54.000Z</time>
      </trkpt>
      <trkpt lat="45.10929" lon="5.88284">
        <ele>1819.62</ele>
        <time>2020-09-28T09:08:04.000Z</time>
      </trkpt>
      <trkpt lat="45.10932" lon="5.88293">
        <ele>1821.14</ele>
        <time>2020-09-28T09:08:14.000Z</time>
      </trkpt>
      <trkpt lat="45.10936" lon="5.88298">
        <ele>1824.22</ele>
        <time>2020-09-28T09:08:24.000Z</time>
      </trkpt>
      <trkpt lat="45.1094" lon="5.883">
        <ele>1826.16</ele>
        <time>2020-09-28T09:08:34.000Z</time>
      </trkpt>
      <trkpt lat="45.1094" lon="5.88302">
        <ele>1825.71</ele>
        <time>2020-09-28T09:08:52.000Z</time>
      </trkpt>
      <trkpt lat="45.10938" lon="5.88313">
        <ele>1829.48</ele>
        <time>2020-09-28T09:09:02.000Z</time>
      </trkpt>
      <trkpt lat="45.1094" lon="5.88318">
        <ele>1831.49</ele>
        <time>2020-09-28T09:09:12.000Z</time>
      </trkpt>
      <trkpt lat="45.10942" lon="5.8832">
        <ele>1831.45</ele>
        <time>2020-09-28T09:09:22.000Z</time>
      </trkpt>
      <trkpt lat="45.10943" lon="5.88323">
        <ele>1832.33</ele>
        <time>2020-09-28T09:09:32.000Z</time>
      </trkpt>
      <trkpt lat="45.10946" lon="5.88325">
        <ele>1833.02</ele>
        <time>2020-09-28T09:09:42.000Z</time>
      </trkpt>
      <trkpt lat="45.10947" lon="5.88327">
        <ele>1832.14</ele>
        <time>2020-09-28T09:10:04.000Z</time>
      </trkpt>
      <trkpt lat="45.10949" lon="5.88342">
        <ele>1829.92</ele>
        <time>2020-09-28T09:10:14.000Z</time>
      </trkpt>
      <trkpt lat="45.10953" lon="5.88346">
        <ele>1829.91</ele>
        <time>2020-09-28T09:10:24.000Z</time>
      </trkpt>
      <trkpt lat="45.10954" lon="5.88347">
        <ele>1828.82</ele>
        <time>2020-09-28T09:10:37.000Z</time>
      </trkpt>
      <trkpt lat="45.10961" lon="5.88353">
        <ele>1831.52</ele>
        <time>2020-09-28T09:10:47.000Z</time>
      </trkpt>
      <trkpt lat="45.10968" lon="5.88361">
        <ele>1837.36</ele>
        <time>2020-09-28T09:10:57.000Z</time>
      </trkpt>
      <trkpt lat="45.1097" lon="5.88364">
        <ele>1837.55</ele>
        <time>2020-09-28T09:11:07.000Z</time>
      </trkpt>
      <trkpt lat="45.10971" lon="5.88366">
        <ele>1838.29</ele>
        <time>2020-09-28T09:11:23.000Z</time>
      </trkpt>
      <trkpt lat="45.1098" lon="5.88382">
        <ele>1840.98</ele>
        <time>2020-09-28T09:11:33.000Z</time>
      </trkpt>
      <trkpt lat="45.10984" lon="5.88397">
        <ele>1839.82</ele>
        <time>2020-09-28T09:11:43.000Z</time>
      </trkpt>
      <trkpt lat="45.10982" lon="5.88409">
        <ele>1840.44</ele>
        <time>2020-09-28T09:11:53.000Z</time>
      </trkpt>
      <trkpt lat="45.10983" lon="5.88419">
        <ele>1839.05</ele>
        <time>2020-09-28T09:12:03.000Z</time>
      </trkpt>
      <trkpt lat="45.10982" lon="5.88435">
        <ele>1837.42</ele>
        <time>2020-09-28T09:12:13.000Z</time>
      </trkpt>
      <trkpt lat="45.10985" lon="5.88442">
        <ele>1840.54</ele>
        <time>2020-09-28T09:12:23.000Z</time>
      </trkpt>
      <trkpt lat="45.10991" lon="5.88452">
        <ele>1841.78</ele>
        <time>2020-09-28T09:12:33.000Z</time>
      </trkpt>
      <trkpt lat="45.10997" lon="5.88459">
        <ele>1840.69</ele>
        <time>2020-09-28T09:12:43.000Z</time>
      </trkpt>
      <trkpt lat="45.10997" lon="5.88465">
        <ele>1843.27</ele>
        <time>2020-09-28T09:12:53.000Z</time>
      </trkpt>
      <trkpt lat="45.10998" lon="5.88475">
        <ele>1840.34</ele>
        <time>2020-09-28T09:13:03.000Z</time>
      </trkpt>
      <trkpt lat="45.11005" lon="5.88481">
        <ele>1840.76</ele>
        <time>2020-09-28T09:13:13.000Z</time>
      </trkpt>
      <trkpt lat="45.11005" lon="5.88488">
        <ele>1838.93</ele>
        <time>2020-09-28T09:13:23.000Z</time>
      </trkpt>
      <trkpt lat="45.11" lon="5.88493">
        <ele>1841.71</ele>
        <time>2020-09-28T09:13:33.000Z</time>
      </trkpt>
      <trkpt lat="45.10989" lon="5.88499">
        <ele>1846.66</ele>
        <time>2020-09-28T09:13:43.000Z</time>
      </trkpt>
      <trkpt lat="45.10986" lon="5.88512">
        <ele>1844.72</ele>
        <time>2020-09-28T09:13:53.000Z</time>
      </trkpt>
      <trkpt lat="45.10982" lon="5.88519">
        <ele>1841.87</ele>
        <time>2020-09-28T09:14:03.000Z</time>
      </trkpt>
      <trkpt lat="45.10982" lon="5.88525">
        <ele>1840.56</ele>
        <time>2020-09-28T09:14:13.000Z</time>
      </trkpt>
      <trkpt lat="45.10983" lon="5.88538">
        <ele>1840.42</ele>
        <time>2020-09-28T09:14:23.000Z</time>
      </trkpt>
      <trkpt lat="45.10985" lon="5.88541">
        <ele>1845.93</ele>
        <time>2020-09-28T09:14:33.000Z</time>
      </trkpt>
      <trkpt lat="45.10983" lon="5.8854">
        <ele>1844.82</ele>
        <time>2020-09-28T09:14:43.000Z</time>
      </trkpt>
      <trkpt lat="45.10982" lon="5.88541">
        <ele>1846.35</ele>
        <time>2020-09-28T09:15:23.000Z</time>
      </trkpt>
      <trkpt lat="45.1098" lon="5.88544">
        <ele>1849.19</ele>
        <time>2020-09-28T09:15:33.000Z</time>
      </trkpt>
      <trkpt lat="45.1098" lon="5.88545">
        <ele>1848.14</ele>
        <time>2020-09-28T09:15:45.000Z</time>
      </trkpt>
      <trkpt lat="45.10976" lon="5.88544">
        <ele>1851.4</ele>
        <time>2020-09-28T09:15:55.000Z</time>
      </trkpt>
      <trkpt lat="45.10978" lon="5.88546">
        <ele>1848.98</ele>
        <time>2020-09-28T09:16:05.000Z</time>
      </trkpt>
      <trkpt lat="45.10978" lon="5.88547">
        <ele>1851.44</ele>
        <time>2020-09-28T09:17:00.000Z</time>
      </trkpt>
      <trkpt lat="45.10979" lon="5.88551">
        <ele>1850.93</ele>
        <time>2020-09-28T09:17:10.000Z</time>
      </trkpt>
      <trkpt lat="45.1098" lon="5.88554">
        <ele>1852.52</ele>
        <time>2020-09-28T09:17:20.000Z</time>
      </trkpt>
      <trkpt lat="45.10979" lon="5.88566">
        <ele>1850.01</ele>
        <time>2020-09-28T09:17:30.000Z</time>
      </trkpt>
      <trkpt lat="45.10978" lon="5.8859">
        <ele>1848.53</ele>
        <time>2020-09-28T09:17:40.000Z</time>
      </trkpt>
      <trkpt lat="45.10981" lon="5.88602">
        <ele>1847.21</ele>
        <time>2020-09-28T09:17:50.000Z</time>
      </trkpt>
      <trkpt lat="45.10979" lon="5.8861">
        <ele>1849.69</ele>
        <time>2020-09-28T09:18:00.000Z</time>
      </trkpt>
      <trkpt lat="45.10979" lon="5.88613">
        <ele>1850.24</ele>
        <time>2020-09-28T09:18:10.000Z</time>
      </trkpt>
      <trkpt lat="45.10978" lon="5.88615">
        <ele>1849.92</ele>
        <time>2020-09-28T09:18:24.000Z</time>
      </trkpt>
      <trkpt lat="45.10974" lon="5.8864">
        <ele>1850.36</ele>
        <time>2020-09-28T09:18:34.000Z</time>
      </trkpt>
      <trkpt lat="45.10971" lon="5.88655">
        <ele>1857.35</ele>
        <time>2020-09-28T09:18:44.000Z</time>
      </trkpt>
      <trkpt lat="45.1097" lon="5.88666">
        <ele>1855.05</ele>
        <time>2020-09-28T09:18:54.000Z</time>
      </trkpt>
      <trkpt lat="45.1097" lon="5.88677">
        <ele>1855.02</ele>
        <time>2020-09-28T09:19:04.000Z</time>
      </trkpt>
      <trkpt lat="45.10975" lon="5.88689">
        <ele>1849.97</ele>
        <time>2020-09-28T09:19:14.000Z</time>
      </trkpt>
      <trkpt lat="45.10973" lon="5.88706">
        <ele>1851.63</ele>
        <time>2020-09-28T09:19:24.000Z</time>
      </trkpt>
      <trkpt lat="45.10977" lon="5.88715">
        <ele>1849.85</ele>
        <time>2020-09-28T09:19:34.000Z</time>
      </trkpt>
      <trkpt lat="45.1097" lon="5.88726">
        <ele>1852.57</ele>
        <time>2020-09-28T09:19:44.000Z</time>
      </trkpt>
      <trkpt lat="45.10972" lon="5.88733">
        <ele>1854.18</ele>
        <time>2020-09-28T09:19:54.000Z</time>
      </trkpt>
      <trkpt lat="45.10969" lon="5.88747">
        <ele>1855.64</ele>
        <time>2020-09-28T09:20:04.000Z</time>
      </trkpt>
      <trkpt lat="45.1097" lon="5.88755">
        <ele>1861.49</ele>
        <time>2020-09-28T09:20:14.000Z</time>
      </trkpt>
      <trkpt lat="45.10971" lon="5.88757">
        <ele>1862.26</ele>
        <time>2020-09-28T09:20:24.000Z</time>
      </trkpt>
      <trkpt lat="45.10979" lon="5.88759">
        <ele>1863.65</ele>
        <time>2020-09-28T09:20:34.000Z</time>
      </trkpt>
      <trkpt lat="45.1098" lon="5.88759">
        <ele>1864.58</ele>
        <time>2020-09-28T09:20:55.000Z</time>
      </trkpt>
      <trkpt lat="45.1098" lon="5.88761">
        <ele>1863.62</ele>
        <time>2020-09-28T09:21:11.000Z</time>
      </trkpt>
      <trkpt lat="45.10978" lon="5.88785">
        <ele>1867.82</ele>
        <time>2020-09-28T09:21:21.000Z</time>
      </trkpt>
      <trkpt lat="45.10986" lon="5.88805">
        <ele>1884.19</ele>
        <time>2020-09-28T09:21:31.000Z</time>
      </trkpt>
      <trkpt lat="45.11002" lon="5.88816">
        <ele>1885.06</ele>
        <time>2020-09-28T09:21:41.000Z</time>
      </trkpt>
      <trkpt lat="45.11003" lon="5.88817">
        <ele>1884.27</ele>
        <time>2020-09-28T09:21:51.000Z</time>
      </trkpt>
      <trkpt lat="45.11004" lon="5.88819">
        <ele>1887.61</ele>
        <time>2020-09-28T09:22:01.000Z</time>
      </trkpt>
      <trkpt lat="45.11004" lon="5.8882">
        <ele>1887.58</ele>
        <time>2020-09-28T09:22:15.000Z</time>
      </trkpt>
      <trkpt lat="45.11011" lon="5.88831">
        <ele>1890.02</ele>
        <time>2020-09-28T09:22:25.000Z</time>
      </trkpt>
      <trkpt lat="45.11015" lon="5.88841">
        <ele>1898.19</ele>
        <time>2020-09-28T09:22:35.000Z</time>
      </trkpt>
      <trkpt lat="45.1102" lon="5.88845">
        <ele>1899.72</ele>
        <time>2020-09-28T09:22:45.000Z</time>
      </trkpt>
      <trkpt lat="45.11021" lon="5.88847">
        <ele>1903.19</ele>
        <time>2020-09-28T09:22:55.000Z</time>
      </trkpt>
      <trkpt lat="45.11023" lon="5.88863">
        <ele>1899.97</ele>
        <time>2020-09-28T09:23:05.000Z</time>
      </trkpt>
      <trkpt lat="45.11019" lon="5.88869">
        <ele>1899.76</ele>
        <time>2020-09-28T09:23:15.000Z</time>
      </trkpt>
      <trkpt lat="45.1102" lon="5.88871">
        <ele>1901.76</ele>
        <time>2020-09-28T09:23:25.000Z</time>
      </trkpt>
      <trkpt lat="45.11021" lon="5.88872">
        <ele>1901.5</ele>
        <time>2020-09-28T09:24:04.000Z</time>
      </trkpt>
      <trkpt lat="45.11029" lon="5.88887">
        <ele>1900.69</ele>
        <time>2020-09-28T09:24:14.000Z</time>
      </trkpt>
      <trkpt lat="45.11037" lon="5.88898">
        <ele>1903.05</ele>
        <time>2020-09-28T09:24:24.000Z</time>
      </trkpt>
      <trkpt lat="45.11037" lon="5.88902">
        <ele>1904.07</ele>
        <time>2020-09-28T09:24:34.000Z</time>
      </trkpt>
      <trkpt lat="45.11037" lon="5.88905">
        <ele>1904.51</ele>
        <time>2020-09-28T09:25:02.000Z</time>
      </trkpt>
      <trkpt lat="45.11045" lon="5.88917">
        <ele>1901.29</ele>
        <time>2020-09-28T09:25:12.000Z</time>
      </trkpt>
      <trkpt lat="45.1105" lon="5.88929">
        <ele>1902.46</ele>
        <time>2020-09-28T09:25:22.000Z</time>
      </trkpt>
      <trkpt lat="45.11053" lon="5.8894">
        <ele>1900.41</ele>
        <time>2020-09-28T09:25:32.000Z</time>
      </trkpt>
      <trkpt lat="45.11051" lon="5.88951">
        <ele>1904.98</ele>
        <time>2020-09-28T09:25:42.000Z</time>
      </trkpt>
      <trkpt lat="45.1105" lon="5.8896">
        <ele>1906.5</ele>
        <time>2020-09-28T09:25:52.000Z</time>
      </trkpt>
      <trkpt lat="45.11052" lon="5.88966">
        <ele>1908.99</ele>
        <time>2020-09-28T09:26:02.000Z</time>
      </trkpt>
      <trkpt lat="45.11052" lon="5.88967">
        <ele>1910.4</ele>
        <time>2020-09-28T09:26:40.000Z</time>
      </trkpt>
      <trkpt lat="45.11054" lon="5.88971">
        <ele>1910.08</ele>
        <time>2020-09-28T09:26:50.000Z</time>
      </trkpt>
      <trkpt lat="45.11054" lon="5.88978">
        <ele>1913.29</ele>
        <time>2020-09-28T09:27:00.000Z</time>
      </trkpt>
      <trkpt lat="45.11055" lon="5.88991">
        <ele>1912.64</ele>
        <time>2020-09-28T09:27:10.000Z</time>
      </trkpt>
      <trkpt lat="45.11056" lon="5.88992">
        <ele>1911.1</ele>
        <time>2020-09-28T09:27:20.000Z</time>
      </trkpt>
      <trkpt lat="45.11056" lon="5.88994">
        <ele>1911.24</ele>
        <time>2020-09-28T09:28:01.000Z</time>
      </trkpt>
      <trkpt lat="45.11057" lon="5.88996">
        <ele>1912.48</ele>
        <time>2020-09-28T09:28:11.000Z</time>
      </trkpt>
      <trkpt lat="45.11059" lon="5.88999">
        <ele>1921.3</ele>
        <time>2020-09-28T09:28:21.000Z</time>
      </trkpt>
      <trkpt lat="45.11067" lon="5.89001">
        <ele>1921.33</ele>
        <time>2020-09-28T09:28:31.000Z</time>
      </trkpt>
      <trkpt lat="45.11065" lon="5.89002">
        <ele>1920.79</ele>
        <time>2020-09-28T09:28:41.000Z</time>
      </trkpt>
      <trkpt lat="45.11076" lon="5.89001">
        <ele>1921.06</ele>
        <time>2020-09-28T09:28:51.000Z</time>
      </trkpt>
      <trkpt lat="45.11079" lon="5.89008">
        <ele>1920.62</ele>
        <time>2020-09-28T09:29:01.000Z</time>
      </trkpt>
      <trkpt lat="45.11076" lon="5.89007">
        <ele>1920.54</ele>
        <time>2020-09-28T09:29:11.000Z</time>
      </trkpt>
      <trkpt lat="45.11077" lon="5.89008">
        <ele>1923.57</ele>
        <time>2020-09-28T09:29:54.000Z</time>
      </trkpt>
      <trkpt lat="45.11081" lon="5.89018">
        <ele>1919.5</ele>
        <time>2020-09-28T09:30:04.000Z</time>
      </trkpt>
      <trkpt lat="45.1108" lon="5.89018">
        <ele>1920.03</ele>
        <time>2020-09-28T09:30:14.000Z</time>
      </trkpt>
      <trkpt lat="45.11084" lon="5.89024">
        <ele>1922.37</ele>
        <time>2020-09-28T09:30:24.000Z</time>
      </trkpt>
      <trkpt lat="45.11098" lon="5.89037">
        <ele>1919.72</ele>
        <time>2020-09-28T09:30:34.000Z</time>
      </trkpt>
      <trkpt lat="45.11104" lon="5.89046">
        <ele>1923.39</ele>
        <time>2020-09-28T09:30:44.000Z</time>
      </trkpt>
      <trkpt lat="45.11109" lon="5.89052">
        <ele>1920.54</ele>
        <time>2020-09-28T09:30:54.000Z</time>
      </trkpt>
      <trkpt lat="45.11118" lon="5.89053">
        <ele>1922.04</ele>
        <time>2020-09-28T09:31:04.000Z</time>
      </trkpt>
      <trkpt lat="45.11128" lon="5.89062">
        <ele>1918.71</ele>
        <time>2020-09-28T09:31:14.000Z</time>
      </trkpt>
      <trkpt lat="45.11136" lon="5.8907">
        <ele>1919.59</ele>
        <time>2020-09-28T09:31:24.000Z</time>
      </trkpt>
      <trkpt lat="45.1114" lon="5.89079">
        <ele>1920.02</ele>
        <time>2020-09-28T09:31:34.000Z</time>
      </trkpt>
      <trkpt lat="45.11143" lon="5.89094">
        <ele>1917.63</ele>
        <time>2020-09-28T09:31:44.000Z</time>
      </trkpt>
      <trkpt lat="45.11147" lon="5.89101">
        <ele>1919.28</ele>
        <time>2020-09-28T09:31:54.000Z</time>
      </trkpt>
      <trkpt lat="45.11152" lon="5.89111">
        <ele>1920.34</ele>
        <time>2020-09-28T09:32:04.000Z</time>
      </trkpt>
      <trkpt lat="45.1115" lon="5.89114">
        <ele>1926.61</ele>
        <time>2020-09-28T09:32:14.000Z</time>
      </trkpt>
      <trkpt lat="45.11152" lon="5.89122">
        <ele>1923.66</ele>
        <time>2020-09-28T09:32:24.000Z</time>
      </trkpt>
      <trkpt lat="45.11156" lon="5.89125">
        <ele>1929.07</ele>
        <time>2020-09-28T09:32:34.000Z</time>
      </trkpt>
      <trkpt lat="45.11165" lon="5.89131">
        <ele>1927.93</ele>
        <time>2020-09-28T09:32:44.000Z</time>
      </trkpt>
      <trkpt lat="45.11167" lon="5.89143">
        <ele>1930.41</ele>
        <time>2020-09-28T09:32:54.000Z</time>
      </trkpt>
      <trkpt lat="45.11176" lon="5.89146">
        <ele>1930.93</ele>
        <time>2020-09-28T09:33:04.000Z</time>
      </trkpt>
      <trkpt lat="45.11176" lon="5.89153">
        <ele>1930.08</ele>
        <time>2020-09-28T09:33:14.000Z</time>
      </trkpt>
      <trkpt lat="45.11176" lon="5.89164">
        <ele>1929.28</ele>
        <time>2020-09-28T09:33:24.000Z</time>
      </trkpt>
      <trkpt lat="45.11179" lon="5.89175">
        <ele>1929.55</ele>
        <time>2020-09-28T09:33:34.000Z</time>
      </trkpt>
      <trkpt lat="45.11187" lon="5.89186">
        <ele>1929.98</ele>
        <time>2020-09-28T09:33:44.000Z</time>
      </trkpt>
      <trkpt lat="45.11191" lon="5.89191">
        <ele>1931.93</ele>
        <time>2020-09-28T09:33:54.000Z</time>
      </trkpt>
      <trkpt lat="45.11192" lon="5.89194">
        <ele>1931.22</ele>
        <time>2020-09-28T09:34:04.000Z</time>
      </trkpt>
      <trkpt lat="45.11196" lon="5.89199">
        <ele>1933.4</ele>
        <time>2020-09-28T09:34:14.000Z</time>
      </trkpt>
      <trkpt lat="45.11197" lon="5.89203">
        <ele>1937.64</ele>
        <time>2020-09-28T09:34:24.000Z</time>
      </trkpt>
      <trkpt lat="45.11198" lon="5.89215">
        <ele>1940.46</ele>
        <time>2020-09-28T09:34:34.000Z</time>
      </trkpt>
      <trkpt lat="45.11198" lon="5.89222">
        <ele>1939.75</ele>
        <time>2020-09-28T09:34:44.000Z</time>
      </trkpt>
      <trkpt lat="45.11203" lon="5.89229">
        <ele>1937.65</ele>
        <time>2020-09-28T09:34:54.000Z</time>
      </trkpt>
      <trkpt lat="45.11203" lon="5.89233">
        <ele>1935.62</ele>
        <time>2020-09-28T09:35:04.000Z</time>
      </trkpt>
      <trkpt lat="45.11208" lon="5.8924">
        <ele>1936.39</ele>
        <time>2020-09-28T09:35:14.000Z</time>
      </trkpt>
      <trkpt lat="45.11207" lon="5.89244">
        <ele>1939.2</ele>
        <time>2020-09-28T09:35:24.000Z</time>
      </trkpt>
      <trkpt lat="45.11208" lon="5.89254">
        <ele>1945.08</ele>
        <time>2020-09-28T09:35:34.000Z</time>
      </trkpt>
      <trkpt lat="45.11209" lon="5.89257">
        <ele>1943.37</ele>
        <time>2020-09-28T09:35:44.000Z</time>
      </trkpt>
      <trkpt lat="45.11211" lon="5.89261">
        <ele>1941.81</ele>
        <time>2020-09-28T09:35:54.000Z</time>
      </trkpt>
      <trkpt lat="45.11211" lon="5.89264">
        <ele>1939.52</ele>
        <time>2020-09-28T09:36:04.000Z</time>
      </trkpt>
      <trkpt lat="45.11212" lon="5.8927">
        <ele>1936.52</ele>
        <time>2020-09-28T09:36:14.000Z</time>
      </trkpt>
      <trkpt lat="45.11209" lon="5.89278">
        <ele>1937.26</ele>
        <time>2020-09-28T09:36:24.000Z</time>
      </trkpt>
      <trkpt lat="45.11206" lon="5.89281">
        <ele>1936.65</ele>
        <time>2020-09-28T09:36:34.000Z</time>
      </trkpt>
      <trkpt lat="45.11203" lon="5.89279">
        <ele>1930.25</ele>
        <time>2020-09-28T09:36:44.000Z</time>
      </trkpt>
      <trkpt lat="45.11198" lon="5.89278">
        <ele>1933.47</ele>
        <time>2020-09-28T09:36:54.000Z</time>
      </trkpt>
      <trkpt lat="45.11195" lon="5.89277">
        <ele>1937.42</ele>
        <time>2020-09-28T09:37:04.000Z</time>
      </trkpt>
      <trkpt lat="45.11194" lon="5.89278">
        <ele>1938.31</ele>
        <time>2020-09-28T09:37:14.000Z</time>
      </trkpt>
      <trkpt lat="45.11193" lon="5.89278">
        <ele>1937.3</ele>
        <time>2020-09-28T09:37:25.000Z</time>
      </trkpt>
      <trkpt lat="45.11184" lon="5.89285">
        <ele>1934.14</ele>
        <time>2020-09-28T09:37:35.000Z</time>
      </trkpt>
      <trkpt lat="45.11184" lon="5.89293">
        <ele>1933.18</ele>
        <time>2020-09-28T09:37:45.000Z</time>
      </trkpt>
      <trkpt lat="45.11182" lon="5.89306">
        <ele>1931.57</ele>
        <time>2020-09-28T09:37:55.000Z</time>
      </trkpt>
      <trkpt lat="45.11177" lon="5.89313">
        <ele>1931.53</ele>
        <time>2020-09-28T09:38:05.000Z</time>
      </trkpt>
      <trkpt lat="45.11172" lon="5.89315">
        <ele>1934.29</ele>
        <time>2020-09-28T09:38:15.000Z</time>
      </trkpt>
      <trkpt lat="45.11169" lon="5.89319">
        <ele>1931.06</ele>
        <time>2020-09-28T09:38:25.000Z</time>
      </trkpt>
      <trkpt lat="45.11166" lon="5.89325">
        <ele>1926.22</ele>
        <time>2020-09-28T09:38:35.000Z</time>
      </trkpt>
      <trkpt lat="45.11162" lon="5.89333">
        <ele>1925.27</ele>
        <time>2020-09-28T09:38:45.000Z</time>
      </trkpt>
      <trkpt lat="45.11162" lon="5.89335">
        <ele>1923.87</ele>
        <time>2020-09-28T09:38:55.000Z</time>
      </trkpt>
      <trkpt lat="45.11161" lon="5.89336">
        <ele>1924.22</ele>
        <time>2020-09-28T09:39:05.000Z</time>
      </trkpt>
      <trkpt lat="45.1116" lon="5.89347">
        <ele>1926.84</ele>
        <time>2020-09-28T09:39:15.000Z</time>
      </trkpt>
      <trkpt lat="45.11164" lon="5.89358">
        <ele>1927.44</ele>
        <time>2020-09-28T09:39:25.000Z</time>
      </trkpt>
      <trkpt lat="45.11173" lon="5.89366">
        <ele>1929</ele>
        <time>2020-09-28T09:39:35.000Z</time>
      </trkpt>
      <trkpt lat="45.11166" lon="5.89376">
        <ele>1929.51</ele>
        <time>2020-09-28T09:39:45.000Z</time>
      </trkpt>
      <trkpt lat="45.1116" lon="5.89388">
        <ele>1930.48</ele>
        <time>2020-09-28T09:39:55.000Z</time>
      </trkpt>
      <trkpt lat="45.1116" lon="5.89395">
        <ele>1929.79</ele>
        <time>2020-09-28T09:40:05.000Z</time>
      </trkpt>
      <trkpt lat="45.11156" lon="5.89405">
        <ele>1931.91</ele>
        <time>2020-09-28T09:40:15.000Z</time>
      </trkpt>
      <trkpt lat="45.11151" lon="5.8941">
        <ele>1932.06</ele>
        <time>2020-09-28T09:40:25.000Z</time>
      </trkpt>
      <trkpt lat="45.11143" lon="5.8942">
        <ele>1932.57</ele>
        <time>2020-09-28T09:40:35.000Z</time>
      </trkpt>
      <trkpt lat="45.11143" lon="5.89431">
        <ele>1934.52</ele>
        <time>2020-09-28T09:40:45.000Z</time>
      </trkpt>
      <trkpt lat="45.11142" lon="5.89441">
        <ele>1934.12</ele>
        <time>2020-09-28T09:40:55.000Z</time>
      </trkpt>
      <trkpt lat="45.11143" lon="5.89453">
        <ele>1935.32</ele>
        <time>2020-09-28T09:41:05.000Z</time>
      </trkpt>
      <trkpt lat="45.11143" lon="5.89458">
        <ele>1936.41</ele>
        <time>2020-09-28T09:41:15.000Z</time>
      </trkpt>
      <trkpt lat="45.11142" lon="5.89463">
        <ele>1936.07</ele>
        <time>2020-09-28T09:41:25.000Z</time>
      </trkpt>
      <trkpt lat="45.11148" lon="5.89472">
        <ele>1934.13</ele>
        <time>2020-09-28T09:41:35.000Z</time>
      </trkpt>
      <trkpt lat="45.11151" lon="5.89483">
        <ele>1936.81</ele>
        <time>2020-09-28T09:41:45.000Z</time>
      </trkpt>
      <trkpt lat="45.11153" lon="5.89492">
        <ele>1939.63</ele>
        <time>2020-09-28T09:41:55.000Z</time>
      </trkpt>
      <trkpt lat="45.11157" lon="5.89501">
        <ele>1942.33</ele>
        <time>2020-09-28T09:42:05.000Z</time>
      </trkpt>
      <trkpt lat="45.11155" lon="5.89506">
        <ele>1939.24</ele>
        <time>2020-09-28T09:42:15.000Z</time>
      </trkpt>
      <trkpt lat="45.11155" lon="5.89514">
        <ele>1942.43</ele>
        <time>2020-09-28T09:42:25.000Z</time>
      </trkpt>
      <trkpt lat="45.11154" lon="5.89514">
        <ele>1943.41</ele>
        <time>2020-09-28T09:42:35.000Z</time>
      </trkpt>
      <trkpt lat="45.11149" lon="5.89518">
        <ele>1941.47</ele>
        <time>2020-09-28T09:42:45.000Z</time>
      </trkpt>
      <trkpt lat="45.11149" lon="5.89521">
        <ele>1940.81</ele>
        <time>2020-09-28T09:42:55.000Z</time>
      </trkpt>
      <trkpt lat="45.1115" lon="5.89539">
        <ele>1945.56</ele>
        <time>2020-09-28T09:43:05.000Z</time>
      </trkpt>
      <trkpt lat="45.11144" lon="5.89557">
        <ele>1944.73</ele>
        <time>2020-09-28T09:43:15.000Z</time>
      </trkpt>
      <trkpt lat="45.1114" lon="5.89567">
        <ele>1938.72</ele>
        <time>2020-09-28T09:43:25.000Z</time>
      </trkpt>
      <trkpt lat="45.11133" lon="5.89576">
        <ele>1941.46</ele>
        <time>2020-09-28T09:43:35.000Z</time>
      </trkpt>
      <trkpt lat="45.11128" lon="5.89584">
        <ele>1943.04</ele>
        <time>2020-09-28T09:43:45.000Z</time>
      </trkpt>
      <trkpt lat="45.11125" lon="5.89595">
        <ele>1941.75</ele>
        <time>2020-09-28T09:43:55.000Z</time>
      </trkpt>
      <trkpt lat="45.11121" lon="5.89603">
        <ele>1935.45</ele>
        <time>2020-09-28T09:44:05.000Z</time>
      </trkpt>
      <trkpt lat="45.11124" lon="5.8961">
        <ele>1933.81</ele>
        <time>2020-09-28T09:44:15.000Z</time>
      </trkpt>
      <trkpt lat="45.11131" lon="5.89616">
        <ele>1934.59</ele>
        <time>2020-09-28T09:44:25.000Z</time>
      </trkpt>
      <trkpt lat="45.11137" lon="5.89629">
        <ele>1937.28</ele>
        <time>2020-09-28T09:44:35.000Z</time>
      </trkpt>
      <trkpt lat="45.1114" lon="5.89637">
        <ele>1935.38</ele>
        <time>2020-09-28T09:44:45.000Z</time>
      </trkpt>
      <trkpt lat="45.11142" lon="5.8965">
        <ele>1931.06</ele>
        <time>2020-09-28T09:44:55.000Z</time>
      </trkpt>
      <trkpt lat="45.1114" lon="5.89662">
        <ele>1932.15</ele>
        <time>2020-09-28T09:45:05.000Z</time>
      </trkpt>
      <trkpt lat="45.11138" lon="5.89673">
        <ele>1936.71</ele>
        <time>2020-09-28T09:45:15.000Z</time>
      </trkpt>
      <trkpt lat="45.11136" lon="5.89684">
        <ele>1935.92</ele>
        <time>2020-09-28T09:45:25.000Z</time>
      </trkpt>
      <trkpt lat="45.11134" lon="5.89686">
        <ele>1934.96</ele>
        <time>2020-09-28T09:45:35.000Z</time>
      </trkpt>
      <trkpt lat="45.11134" lon="5.89693">
        <ele>1931.83</ele>
        <time>2020-09-28T09:45:45.000Z</time>
      </trkpt>
      <trkpt lat="45.11133" lon="5.89698">
        <ele>1930.13</ele>
        <time>2020-09-28T09:45:55.000Z</time>
      </trkpt>
      <trkpt lat="45.11131" lon="5.89707">
        <ele>1927.28</ele>
        <time>2020-09-28T09:46:05.000Z</time>
      </trkpt>
      <trkpt lat="45.1113" lon="5.89714">
        <ele>1927.44</ele>
        <time>2020-09-28T09:46:15.000Z</time>
      </trkpt>
      <trkpt lat="45.11127" lon="5.89723">
        <ele>1923.78</ele>
        <time>2020-09-28T09:46:25.000Z</time>
      </trkpt>
      <trkpt lat="45.11123" lon="5.89732">
        <ele>1925.1</ele>
        <time>2020-09-28T09:46:35.000Z</time>
      </trkpt>
      <trkpt lat="45.11124" lon="5.89744">
        <ele>1925.28</ele>
        <time>2020-09-28T09:46:45.000Z</time>
      </trkpt>
      <trkpt lat="45.11122" lon="5.8975">
        <ele>1926.38</ele>
        <time>2020-09-28T09:46:55.000Z</time>
      </trkpt>
      <trkpt lat="45.11124" lon="5.8975">
        <ele>1928.32</ele>
        <time>2020-09-28T09:47:05.000Z</time>
      </trkpt>
      <trkpt lat="45.1112" lon="5.89754">
        <ele>1928.25</ele>
        <time>2020-09-28T09:47:15.000Z</time>
      </trkpt>
      <trkpt lat="45.11118" lon="5.89761">
        <ele>1929.1</ele>
        <time>2020-09-28T09:47:25.000Z</time>
      </trkpt>
      <trkpt lat="45.11119" lon="5.89769">
        <ele>1926.85</ele>
        <time>2020-09-28T09:47:35.000Z</time>
      </trkpt>
      <trkpt lat="45.11118" lon="5.89773">
        <ele>1925.22</ele>
        <time>2020-09-28T09:47:45.000Z</time>
      </trkpt>
      <trkpt lat="45.11117" lon="5.89777">
        <ele>1924.63</ele>
        <time>2020-09-28T09:47:55.000Z</time>
      </trkpt>
      <trkpt lat="45.11112" lon="5.89789">
        <ele>1924.43</ele>
        <time>2020-09-28T09:48:05.000Z</time>
      </trkpt>
      <trkpt lat="45.11108" lon="5.89799">
        <ele>1926.62</ele>
        <time>2020-09-28T09:48:15.000Z</time>
      </trkpt>
      <trkpt lat="45.11108" lon="5.89809">
        <ele>1927.62</ele>
        <time>2020-09-28T09:48:25.000Z</time>
      </trkpt>
      <trkpt lat="45.11112" lon="5.89818">
        <ele>1925.82</ele>
        <time>2020-09-28T09:48:35.000Z</time>
      </trkpt>
      <trkpt lat="45.11111" lon="5.89835">
        <ele>1923.54</ele>
        <time>2020-09-28T09:48:45.000Z</time>
      </trkpt>
      <trkpt lat="45.11114" lon="5.89851">
        <ele>1921.34</ele>
        <time>2020-09-28T09:48:55.000Z</time>
      </trkpt>
      <trkpt lat="45.11116" lon="5.89858">
        <ele>1916.4</ele>
        <time>2020-09-28T09:49:05.000Z</time>
      </trkpt>
      <trkpt lat="45.11117" lon="5.89865">
        <ele>1915.29</ele>
        <time>2020-09-28T09:49:15.000Z</time>
      </trkpt>
      <trkpt lat="45.11112" lon="5.89876">
        <ele>1919.76</ele>
        <time>2020-09-28T09:49:25.000Z</time>
      </trkpt>
      <trkpt lat="45.11112" lon="5.8989">
        <ele>1920.81</ele>
        <time>2020-09-28T09:49:35.000Z</time>
      </trkpt>
      <trkpt lat="45.11114" lon="5.89906">
        <ele>1924.24</ele>
        <time>2020-09-28T09:49:45.000Z</time>
      </trkpt>
      <trkpt lat="45.11121" lon="5.89917">
        <ele>1924.33</ele>
        <time>2020-09-28T09:49:55.000Z</time>
      </trkpt>
      <trkpt lat="45.11126" lon="5.89924">
        <ele>1920.74</ele>
        <time>2020-09-28T09:50:05.000Z</time>
      </trkpt>
      <trkpt lat="45.11134" lon="5.89933">
        <ele>1923.17</ele>
        <time>2020-09-28T09:50:15.000Z</time>
      </trkpt>
      <trkpt lat="45.11138" lon="5.89943">
        <ele>1925.16</ele>
        <time>2020-09-28T09:50:25.000Z</time>
      </trkpt>
      <trkpt lat="45.11144" lon="5.89945">
        <ele>1923.9</ele>
        <time>2020-09-28T09:50:35.000Z</time>
      </trkpt>
      <trkpt lat="45.11148" lon="5.89941">
        <ele>1919.07</ele>
        <time>2020-09-28T09:50:45.000Z</time>
      </trkpt>
      <trkpt lat="45.11152" lon="5.89945">
        <ele>1917.35</ele>
        <time>2020-09-28T09:50:55.000Z</time>
      </trkpt>
      <trkpt lat="45.11153" lon="5.89945">
        <ele>1917.17</ele>
        <time>2020-09-28T09:51:05.000Z</time>
      </trkpt>
      <trkpt lat="45.11155" lon="5.89946">
        <ele>1917.25</ele>
        <time>2020-09-28T09:51:25.000Z</time>
      </trkpt>
      <trkpt lat="45.11167" lon="5.89959">
        <ele>1916.09</ele>
        <time>2020-09-28T09:51:35.000Z</time>
      </trkpt>
      <trkpt lat="45.11175" lon="5.89964">
        <ele>1917.21</ele>
        <time>2020-09-28T09:51:45.000Z</time>
      </trkpt>
      <trkpt lat="45.11179" lon="5.89974">
        <ele>1915.51</ele>
        <time>2020-09-28T09:51:55.000Z</time>
      </trkpt>
      <trkpt lat="45.11188" lon="5.89986">
        <ele>1914.49</ele>
        <time>2020-09-28T09:52:05.000Z</time>
      </trkpt>
      <trkpt lat="45.11191" lon="5.89992">
        <ele>1914.61</ele>
        <time>2020-09-28T09:52:15.000Z</time>
      </trkpt>
      <trkpt lat="45.11191" lon="5.89996">
        <ele>1914.32</ele>
        <time>2020-09-28T09:52:25.000Z</time>
      </trkpt>
      <trkpt lat="45.11197" lon="5.90005">
        <ele>1918.88</ele>
        <time>2020-09-28T09:52:35.000Z</time>
      </trkpt>
      <trkpt lat="45.11203" lon="5.90015">
        <ele>1917.38</ele>
        <time>2020-09-28T09:52:45.000Z</time>
      </trkpt>
      <trkpt lat="45.11208" lon="5.90012">
        <ele>1916.3</ele>
        <time>2020-09-28T09:52:55.000Z</time>
      </trkpt>
      <trkpt lat="45.11212" lon="5.90015">
        <ele>1916.76</ele>
        <time>2020-09-28T09:53:05.000Z</time>
      </trkpt>
      <trkpt lat="45.11223" lon="5.9002">
        <ele>1918.9</ele>
        <time>2020-09-28T09:53:15.000Z</time>
      </trkpt>
      <trkpt lat="45.11226" lon="5.90023">
        <ele>1919.35</ele>
        <time>2020-09-28T09:53:25.000Z</time>
      </trkpt>
      <trkpt lat="45.11232" lon="5.90028">
        <ele>1919.6</ele>
        <time>2020-09-28T09:53:35.000Z</time>
      </trkpt>
      <trkpt lat="45.11239" lon="5.90036">
        <ele>1922.04</ele>
        <time>2020-09-28T09:53:45.000Z</time>
      </trkpt>
      <trkpt lat="45.11244" lon="5.90046">
        <ele>1918.59</ele>
        <time>2020-09-28T09:53:55.000Z</time>
      </trkpt>
      <trkpt lat="45.1125" lon="5.90054">
        <ele>1921.63</ele>
        <time>2020-09-28T09:54:05.000Z</time>
      </trkpt>
      <trkpt lat="45.11254" lon="5.90059">
        <ele>1921.82</ele>
        <time>2020-09-28T09:54:15.000Z</time>
      </trkpt>
      <trkpt lat="45.1126" lon="5.90069">
        <ele>1920.48</ele>
        <time>2020-09-28T09:54:25.000Z</time>
      </trkpt>
      <trkpt lat="45.11264" lon="5.90077">
        <ele>1917.89</ele>
        <time>2020-09-28T09:54:35.000Z</time>
      </trkpt>
      <trkpt lat="45.11271" lon="5.90087">
        <ele>1918.39</ele>
        <time>2020-09-28T09:54:45.000Z</time>
      </trkpt>
      <trkpt lat="45.1127" lon="5.901">
        <ele>1919.2</ele>
        <time>2020-09-28T09:54:55.000Z</time>
      </trkpt>
      <trkpt lat="45.11275" lon="5.90107">
        <ele>1917.54</ele>
        <time>2020-09-28T09:55:05.000Z</time>
      </trkpt>
      <trkpt lat="45.11283" lon="5.90116">
        <ele>1914.94</ele>
        <time>2020-09-28T09:55:15.000Z</time>
      </trkpt>
      <trkpt lat="45.11289" lon="5.90126">
        <ele>1914.81</ele>
        <time>2020-09-28T09:55:25.000Z</time>
      </trkpt>
      <trkpt lat="45.11286" lon="5.90132">
        <ele>1915.78</ele>
        <time>2020-09-28T09:55:35.000Z</time>
      </trkpt>
      <trkpt lat="45.11283" lon="5.90136">
        <ele>1917.03</ele>
        <time>2020-09-28T09:55:45.000Z</time>
      </trkpt>
      <trkpt lat="45.11286" lon="5.90141">
        <ele>1919.16</ele>
        <time>2020-09-28T09:55:55.000Z</time>
      </trkpt>
      <trkpt lat="45.11287" lon="5.9014">
        <ele>1916.9</ele>
        <time>2020-09-28T09:56:05.000Z</time>
      </trkpt>
      <trkpt lat="45.11285" lon="5.90151">
        <ele>1917.26</ele>
        <time>2020-09-28T09:56:15.000Z</time>
      </trkpt>
      <trkpt lat="45.11288" lon="5.90162">
        <ele>1916.88</ele>
        <time>2020-09-28T09:56:25.000Z</time>
      </trkpt>
      <trkpt lat="45.11288" lon="5.90167">
        <ele>1919.93</ele>
        <time>2020-09-28T09:56:35.000Z</time>
      </trkpt>
      <trkpt lat="45.11288" lon="5.90164">
        <ele>1921.89</ele>
        <time>2020-09-28T09:56:45.000Z</time>
      </trkpt>
      <trkpt lat="45.1129" lon="5.90163">
        <ele>1919.31</ele>
        <time>2020-09-28T09:56:55.000Z</time>
      </trkpt>
      <trkpt lat="45.11293" lon="5.90164">
        <ele>1914.07</ele>
        <time>2020-09-28T09:57:05.000Z</time>
      </trkpt>
      <trkpt lat="45.11294" lon="5.90161">
        <ele>1913.21</ele>
        <time>2020-09-28T09:57:15.000Z</time>
      </trkpt>
      <trkpt lat="45.11292" lon="5.90162">
        <ele>1916.08</ele>
        <time>2020-09-28T09:57:25.000Z</time>
      </trkpt>
      <trkpt lat="45.11292" lon="5.90163">
        <ele>1918.51</ele>
        <time>2020-09-28T09:58:01.000Z</time>
      </trkpt>
      <trkpt lat="45.11291" lon="5.90164">
        <ele>1920.05</ele>
        <time>2020-09-28T09:58:11.000Z</time>
      </trkpt>
      <trkpt lat="45.11291" lon="5.90169">
        <ele>1918.62</ele>
        <time>2020-09-28T09:58:21.000Z</time>
      </trkpt>
      <trkpt lat="45.11291" lon="5.9018">
        <ele>1916.12</ele>
        <time>2020-09-28T09:58:31.000Z</time>
      </trkpt>
      <trkpt lat="45.11294" lon="5.90192">
        <ele>1916.25</ele>
        <time>2020-09-28T09:58:41.000Z</time>
      </trkpt>
      <trkpt lat="45.11298" lon="5.90202">
        <ele>1912.97</ele>
        <time>2020-09-28T09:58:51.000Z</time>
      </trkpt>
      <trkpt lat="45.113" lon="5.90213">
        <ele>1914.41</ele>
        <time>2020-09-28T09:59:01.000Z</time>
      </trkpt>
      <trkpt lat="45.11302" lon="5.90221">
        <ele>1913.09</ele>
        <time>2020-09-28T09:59:11.000Z</time>
      </trkpt>
      <trkpt lat="45.11303" lon="5.90223">
        <ele>1913.21</ele>
        <time>2020-09-28T09:59:21.000Z</time>
      </trkpt>
      <trkpt lat="45.11307" lon="5.90228">
        <ele>1915.73</ele>
        <time>2020-09-28T09:59:31.000Z</time>
      </trkpt>
      <trkpt lat="45.11313" lon="5.90236">
        <ele>1917.66</ele>
        <time>2020-09-28T09:59:41.000Z</time>
      </trkpt>
      <trkpt lat="45.11317" lon="5.90243">
        <ele>1917.49</ele>
        <time>2020-09-28T09:59:51.000Z</time>
      </trkpt>
      <trkpt lat="45.11322" lon="5.90245">
        <ele>1918.05</ele>
        <time>2020-09-28T10:00:01.000Z</time>
      </trkpt>
      <trkpt lat="45.11328" lon="5.9025">
        <ele>1914.57</ele>
        <time>2020-09-28T10:00:11.000Z</time>
      </trkpt>
      <trkpt lat="45.11334" lon="5.90254">
        <ele>1918.1</ele>
        <time>2020-09-28T10:00:21.000Z</time>
      </trkpt>
      <trkpt lat="45.11343" lon="5.90258">
        <ele>1920.52</ele>
        <time>2020-09-28T10:00:31.000Z</time>
      </trkpt>
      <trkpt lat="45.11346" lon="5.90261">
        <ele>1919.48</ele>
        <time>2020-09-28T10:00:41.000Z</time>
      </trkpt>
      <trkpt lat="45.11352" lon="5.90264">
        <ele>1922.38</ele>
        <time>2020-09-28T10:00:51.000Z</time>
      </trkpt>
      <trkpt lat="45.11357" lon="5.90265">
        <ele>1925</ele>
        <time>2020-09-28T10:01:01.000Z</time>
      </trkpt>
      <trkpt lat="45.1136" lon="5.90273">
        <ele>1928.04</ele>
        <time>2020-09-28T10:01:11.000Z</time>
      </trkpt>
      <trkpt lat="45.11364" lon="5.90275">
        <ele>1931.7</ele>
        <time>2020-09-28T10:01:21.000Z</time>
      </trkpt>
      <trkpt lat="45.11371" lon="5.90279">
        <ele>1929.49</ele>
        <time>2020-09-28T10:01:31.000Z</time>
      </trkpt>
      <trkpt lat="45.11372" lon="5.90278">
        <ele>1928.74</ele>
        <time>2020-09-28T10:01:42.000Z</time>
      </trkpt>
      <trkpt lat="45.11375" lon="5.90279">
        <ele>1931.21</ele>
        <time>2020-09-28T10:01:52.000Z</time>
      </trkpt>
      <trkpt lat="45.11381" lon="5.90285">
        <ele>1931.74</ele>
        <time>2020-09-28T10:02:02.000Z</time>
      </trkpt>
      <trkpt lat="45.11383" lon="5.90289">
        <ele>1933.45</ele>
        <time>2020-09-28T10:02:12.000Z</time>
      </trkpt>
      <trkpt lat="45.11389" lon="5.90297">
        <ele>1936.68</ele>
        <time>2020-09-28T10:02:22.000Z</time>
      </trkpt>
      <trkpt lat="45.11392" lon="5.90298">
        <ele>1934.84</ele>
        <time>2020-09-28T10:02:32.000Z</time>
      </trkpt>
      <trkpt lat="45.11392" lon="5.90296">
        <ele>1937.74</ele>
        <time>2020-09-28T10:02:42.000Z</time>
      </trkpt>
      <trkpt lat="45.11396" lon="5.90297">
        <ele>1937.86</ele>
        <time>2020-09-28T10:02:52.000Z</time>
      </trkpt>
      <trkpt lat="45.114" lon="5.90303">
        <ele>1939.41</ele>
        <time>2020-09-28T10:03:02.000Z</time>
      </trkpt>
      <trkpt lat="45.11402" lon="5.90307">
        <ele>1940.56</ele>
        <time>2020-09-28T10:03:12.000Z</time>
      </trkpt>
      <trkpt lat="45.11405" lon="5.90311">
        <ele>1938.44</ele>
        <time>2020-09-28T10:03:22.000Z</time>
      </trkpt>
      <trkpt lat="45.11408" lon="5.90317">
        <ele>1939.92</ele>
        <time>2020-09-28T10:03:32.000Z</time>
      </trkpt>
      <trkpt lat="45.11411" lon="5.90316">
        <ele>1940.19</ele>
        <time>2020-09-28T10:03:42.000Z</time>
      </trkpt>
      <trkpt lat="45.11413" lon="5.90311">
        <ele>1942.96</ele>
        <time>2020-09-28T10:03:52.000Z</time>
      </trkpt>
      <trkpt lat="45.11413" lon="5.9032">
        <ele>1940.7</ele>
        <time>2020-09-28T10:04:02.000Z</time>
      </trkpt>
      <trkpt lat="45.11415" lon="5.9032">
        <ele>1941.4</ele>
        <time>2020-09-28T10:04:18.000Z</time>
      </trkpt>
      <trkpt lat="45.11421" lon="5.90324">
        <ele>1950.43</ele>
        <time>2020-09-28T10:04:28.000Z</time>
      </trkpt>
      <trkpt lat="45.11429" lon="5.90327">
        <ele>1948.61</ele>
        <time>2020-09-28T10:04:38.000Z</time>
      </trkpt>
      <trkpt lat="45.11432" lon="5.90335">
        <ele>1943.58</ele>
        <time>2020-09-28T10:04:48.000Z</time>
      </trkpt>
      <trkpt lat="45.11432" lon="5.90344">
        <ele>1945.77</ele>
        <time>2020-09-28T10:04:58.000Z</time>
      </trkpt>
      <trkpt lat="45.11434" lon="5.90352">
        <ele>1942.88</ele>
        <time>2020-09-28T10:05:08.000Z</time>
      </trkpt>
      <trkpt lat="45.11437" lon="5.90368">
        <ele>1947.86</ele>
        <time>2020-09-28T10:05:18.000Z</time>
      </trkpt>
      <trkpt lat="45.11443" lon="5.90371">
        <ele>1949.91</ele>
        <time>2020-09-28T10:05:28.000Z</time>
      </trkpt>
      <trkpt lat="45.11451" lon="5.90369">
        <ele>1952.21</ele>
        <time>2020-09-28T10:05:38.000Z</time>
      </trkpt>
      <trkpt lat="45.11457" lon="5.90371">
        <ele>1954.99</ele>
        <time>2020-09-28T10:05:48.000Z</time>
      </trkpt>
      <trkpt lat="45.11459" lon="5.90373">
        <ele>1952.66</ele>
        <time>2020-09-28T10:05:58.000Z</time>
      </trkpt>
      <trkpt lat="45.11465" lon="5.90378">
        <ele>1949.14</ele>
        <time>2020-09-28T10:06:08.000Z</time>
      </trkpt>
      <trkpt lat="45.11468" lon="5.90383">
        <ele>1947.57</ele>
        <time>2020-09-28T10:06:18.000Z</time>
      </trkpt>
      <trkpt lat="45.11475" lon="5.90388">
        <ele>1947.66</ele>
        <time>2020-09-28T10:06:28.000Z</time>
      </trkpt>
      <trkpt lat="45.11483" lon="5.90392">
        <ele>1948.97</ele>
        <time>2020-09-28T10:06:38.000Z</time>
      </trkpt>
      <trkpt lat="45.11488" lon="5.90401">
        <ele>1952.53</ele>
        <time>2020-09-28T10:06:48.000Z</time>
      </trkpt>
      <trkpt lat="45.11495" lon="5.9041">
        <ele>1956.21</ele>
        <time>2020-09-28T10:06:58.000Z</time>
      </trkpt>
      <trkpt lat="45.11505" lon="5.90417">
        <ele>1957.97</ele>
        <time>2020-09-28T10:07:08.000Z</time>
      </trkpt>
      <trkpt lat="45.11508" lon="5.90424">
        <ele>1956.17</ele>
        <time>2020-09-28T10:07:18.000Z</time>
      </trkpt>
      <trkpt lat="45.11514" lon="5.90428">
        <ele>1960.29</ele>
        <time>2020-09-28T10:07:28.000Z</time>
      </trkpt>
      <trkpt lat="45.1152" lon="5.9043">
        <ele>1959.8</ele>
        <time>2020-09-28T10:07:38.000Z</time>
      </trkpt>
      <trkpt lat="45.11525" lon="5.90434">
        <ele>1956.7</ele>
        <time>2020-09-28T10:07:48.000Z</time>
      </trkpt>
      <trkpt lat="45.11529" lon="5.90435">
        <ele>1955.52</ele>
        <time>2020-09-28T10:07:58.000Z</time>
      </trkpt>
      <trkpt lat="45.1153" lon="5.9044">
        <ele>1957.77</ele>
        <time>2020-09-28T10:08:08.000Z</time>
      </trkpt>
      <trkpt lat="45.11534" lon="5.90443">
        <ele>1959.57</ele>
        <time>2020-09-28T10:08:18.000Z</time>
      </trkpt>
      <trkpt lat="45.11539" lon="5.90437">
        <ele>1960.14</ele>
        <time>2020-09-28T10:08:28.000Z</time>
      </trkpt>
      <trkpt lat="45.11547" lon="5.90442">
        <ele>1961.89</ele>
        <time>2020-09-28T10:08:38.000Z</time>
      </trkpt>
      <trkpt lat="45.11551" lon="5.90445">
        <ele>1965.8</ele>
        <time>2020-09-28T10:08:48.000Z</time>
      </trkpt>
      <trkpt lat="45.11557" lon="5.90447">
        <ele>1969.18</ele>
        <time>2020-09-28T10:08:58.000Z</time>
      </trkpt>
      <trkpt lat="45.11564" lon="5.90449">
        <ele>1970.12</ele>
        <time>2020-09-28T10:09:08.000Z</time>
      </trkpt>
      <trkpt lat="45.11567" lon="5.90452">
        <ele>1968.98</ele>
        <time>2020-09-28T10:09:18.000Z</time>
      </trkpt>
      <trkpt lat="45.11568" lon="5.90452">
        <ele>1969.35</ele>
        <time>2020-09-28T10:09:28.000Z</time>
      </trkpt>
      <trkpt lat="45.11577" lon="5.90451">
        <ele>1972.63</ele>
        <time>2020-09-28T10:09:38.000Z</time>
      </trkpt>
      <trkpt lat="45.11584" lon="5.90456">
        <ele>1974.09</ele>
        <time>2020-09-28T10:09:48.000Z</time>
      </trkpt>
      <trkpt lat="45.11591" lon="5.90456">
        <ele>1973.06</ele>
        <time>2020-09-28T10:09:58.000Z</time>
      </trkpt>
      <trkpt lat="45.116" lon="5.90453">
        <ele>1973.62</ele>
        <time>2020-09-28T10:10:08.000Z</time>
      </trkpt>
      <trkpt lat="45.11606" lon="5.9046">
        <ele>1972.42</ele>
        <time>2020-09-28T10:10:18.000Z</time>
      </trkpt>
      <trkpt lat="45.1161" lon="5.90463">
        <ele>1976.48</ele>
        <time>2020-09-28T10:10:28.000Z</time>
      </trkpt>
      <trkpt lat="45.11616" lon="5.90466">
        <ele>1975.27</ele>
        <time>2020-09-28T10:10:38.000Z</time>
      </trkpt>
      <trkpt lat="45.11619" lon="5.90468">
        <ele>1976.06</ele>
        <time>2020-09-28T10:10:48.000Z</time>
      </trkpt>
      <trkpt lat="45.11622" lon="5.90463">
        <ele>1976.94</ele>
        <time>2020-09-28T10:10:58.000Z</time>
      </trkpt>
      <trkpt lat="45.11625" lon="5.9046">
        <ele>1980.84</ele>
        <time>2020-09-28T10:11:08.000Z</time>
      </trkpt>
      <trkpt lat="45.11632" lon="5.90461">
        <ele>1981.45</ele>
        <time>2020-09-28T10:11:18.000Z</time>
      </trkpt>
      <trkpt lat="45.11634" lon="5.90462">
        <ele>1979.89</ele>
        <time>2020-09-28T10:11:28.000Z</time>
      </trkpt>
      <trkpt lat="45.11634" lon="5.90461">
        <ele>1980.51</ele>
        <time>2020-09-28T10:11:38.000Z</time>
      </trkpt>
      <trkpt lat="45.11634" lon="5.90463">
        <ele>1981.13</ele>
        <time>2020-09-28T10:11:48.000Z</time>
      </trkpt>
      <trkpt lat="45.11636" lon="5.90464">
        <ele>1981.31</ele>
        <time>2020-09-28T10:12:32.000Z</time>
      </trkpt>
      <trkpt lat="45.11644" lon="5.90468">
        <ele>1984.46</ele>
        <time>2020-09-28T10:12:42.000Z</time>
      </trkpt>
      <trkpt lat="45.1165" lon="5.90474">
        <ele>1987.61</ele>
        <time>2020-09-28T10:12:52.000Z</time>
      </trkpt>
      <trkpt lat="45.11654" lon="5.90477">
        <ele>1989.21</ele>
        <time>2020-09-28T10:13:02.000Z</time>
      </trkpt>
      <trkpt lat="45.11658" lon="5.90479">
        <ele>1992.37</ele>
        <time>2020-09-28T10:13:12.000Z</time>
      </trkpt>
      <trkpt lat="45.1166" lon="5.9048">
        <ele>1993.36</ele>
        <time>2020-09-28T10:13:22.000Z</time>
      </trkpt>
      <trkpt lat="45.11666" lon="5.90483">
        <ele>1996.73</ele>
        <time>2020-09-28T10:13:32.000Z</time>
      </trkpt>
      <trkpt lat="45.11667" lon="5.90484">
        <ele>1996.1</ele>
        <time>2020-09-28T10:13:59.000Z</time>
      </trkpt>
      <trkpt lat="45.11674" lon="5.90488">
        <ele>2000.13</ele>
        <time>2020-09-28T10:14:09.000Z</time>
      </trkpt>
      <trkpt lat="45.11677" lon="5.9049">
        <ele>2001.19</ele>
        <time>2020-09-28T10:14:19.000Z</time>
      </trkpt>
      <trkpt lat="45.11683" lon="5.90499">
        <ele>2000.01</ele>
        <time>2020-09-28T10:14:29.000Z</time>
      </trkpt>
      <trkpt lat="45.11692" lon="5.90502">
        <ele>2003.55</ele>
        <time>2020-09-28T10:14:39.000Z</time>
      </trkpt>
      <trkpt lat="45.11695" lon="5.90503">
        <ele>2000.77</ele>
        <time>2020-09-28T10:14:49.000Z</time>
      </trkpt>
      <trkpt lat="45.11704" lon="5.90508">
        <ele>2008.41</ele>
        <time>2020-09-28T10:14:59.000Z</time>
      </trkpt>
      <trkpt lat="45.11709" lon="5.90513">
        <ele>2008.2</ele>
        <time>2020-09-28T10:15:09.000Z</time>
      </trkpt>
      <trkpt lat="45.11714" lon="5.90518">
        <ele>2007.32</ele>
        <time>2020-09-28T10:15:19.000Z</time>
      </trkpt>
      <trkpt lat="45.11721" lon="5.90525">
        <ele>2010.05</ele>
        <time>2020-09-28T10:15:29.000Z</time>
      </trkpt>
      <trkpt lat="45.11725" lon="5.90529">
        <ele>2012.78</ele>
        <time>2020-09-28T10:15:39.000Z</time>
      </trkpt>
      <trkpt lat="45.11728" lon="5.90531">
        <ele>2012.64</ele>
        <time>2020-09-28T10:15:49.000Z</time>
      </trkpt>
      <trkpt lat="45.11732" lon="5.90533">
        <ele>2015.76</ele>
        <time>2020-09-28T10:15:59.000Z</time>
      </trkpt>
      <trkpt lat="45.11738" lon="5.90535">
        <ele>2015.36</ele>
        <time>2020-09-28T10:16:09.000Z</time>
      </trkpt>
      <trkpt lat="45.11743" lon="5.9054">
        <ele>2019.65</ele>
        <time>2020-09-28T10:16:19.000Z</time>
      </trkpt>
      <trkpt lat="45.11746" lon="5.90544">
        <ele>2019.03</ele>
        <time>2020-09-28T10:16:29.000Z</time>
      </trkpt>
      <trkpt lat="45.11751" lon="5.90547">
        <ele>2021.27</ele>
        <time>2020-09-28T10:16:39.000Z</time>
      </trkpt>
      <trkpt lat="45.11753" lon="5.90551">
        <ele>2022.8</ele>
        <time>2020-09-28T10:16:49.000Z</time>
      </trkpt>
      <trkpt lat="45.11755" lon="5.90553">
        <ele>2022.69</ele>
        <time>2020-09-28T10:16:59.000Z</time>
      </trkpt>
      <trkpt lat="45.11754" lon="5.90554">
        <ele>2022.21</ele>
        <time>2020-09-28T10:17:09.000Z</time>
      </trkpt>
      <trkpt lat="45.11761" lon="5.90558">
        <ele>2023.69</ele>
        <time>2020-09-28T10:17:19.000Z</time>
      </trkpt>
      <trkpt lat="45.11764" lon="5.90566">
        <ele>2022.81</ele>
        <time>2020-09-28T10:17:29.000Z</time>
      </trkpt>
      <trkpt lat="45.11765" lon="5.90565">
        <ele>2025.59</ele>
        <time>2020-09-28T10:17:39.000Z</time>
      </trkpt>
      <trkpt lat="45.11766" lon="5.90566">
        <ele>2025.76</ele>
        <time>2020-09-28T10:17:49.000Z</time>
      </trkpt>
      <trkpt lat="45.1177" lon="5.90567">
        <ele>2022.69</ele>
        <time>2020-09-28T10:17:59.000Z</time>
      </trkpt>
      <trkpt lat="45.11778" lon="5.90572">
        <ele>2024</ele>
        <time>2020-09-28T10:18:09.000Z</time>
      </trkpt>
      <trkpt lat="45.11784" lon="5.90577">
        <ele>2028.38</ele>
        <time>2020-09-28T10:18:19.000Z</time>
      </trkpt>
      <trkpt lat="45.11785" lon="5.90578">
        <ele>2029.29</ele>
        <time>2020-09-28T10:18:29.000Z</time>
      </trkpt>
      <trkpt lat="45.11784" lon="5.90579">
        <ele>2030.95</ele>
        <time>2020-09-28T10:20:47.000Z</time>
      </trkpt>
      <trkpt lat="45.11785" lon="5.90579">
        <ele>2029.6</ele>
        <time>2020-09-28T10:22:00.000Z</time>
      </trkpt>
      <trkpt lat="45.11786" lon="5.90579">
        <ele>2028.17</ele>
        <time>2020-09-28T10:22:10.000Z</time>
      </trkpt>
      <trkpt lat="45.11787" lon="5.9058">
        <ele>2029.07</ele>
        <time>2020-09-28T10:22:23.000Z</time>
      </trkpt>
      <trkpt lat="45.11788" lon="5.90581">
        <ele>2029.22</ele>
        <time>2020-09-28T10:22:43.000Z</time>
      </trkpt>
      <trkpt lat="45.11796" lon="5.90591">
        <ele>2023.19</ele>
        <time>2020-09-28T10:22:53.000Z</time>
      </trkpt>
      <trkpt lat="45.11801" lon="5.90602">
        <ele>2024.2</ele>
        <time>2020-09-28T10:23:03.000Z</time>
      </trkpt>
      <trkpt lat="45.11807" lon="5.90613">
        <ele>2021.44</ele>
        <time>2020-09-28T10:23:13.000Z</time>
      </trkpt>
      <trkpt lat="45.11815" lon="5.90624">
        <ele>2021.84</ele>
        <time>2020-09-28T10:23:23.000Z</time>
      </trkpt>
      <trkpt lat="45.11824" lon="5.9063">
        <ele>2026.24</ele>
        <time>2020-09-28T10:23:33.000Z</time>
      </trkpt>
      <trkpt lat="45.11834" lon="5.90633">
        <ele>2025.01</ele>
        <time>2020-09-28T10:23:43.000Z</time>
      </trkpt>
      <trkpt lat="45.11839" lon="5.9064">
        <ele>2024.17</ele>
        <time>2020-09-28T10:23:53.000Z</time>
      </trkpt>
      <trkpt lat="45.11846" lon="5.90644">
        <ele>2021.84</ele>
        <time>2020-09-28T10:24:03.000Z</time>
      </trkpt>
      <trkpt lat="45.11854" lon="5.90649">
        <ele>2023.18</ele>
        <time>2020-09-28T10:24:13.000Z</time>
      </trkpt>
      <trkpt lat="45.1186" lon="5.90657">
        <ele>2018.87</ele>
        <time>2020-09-28T10:24:23.000Z</time>
      </trkpt>
      <trkpt lat="45.11869" lon="5.90664">
        <ele>2018.71</ele>
        <time>2020-09-28T10:24:33.000Z</time>
      </trkpt>
      <trkpt lat="45.11867" lon="5.90673">
        <ele>2017.71</ele>
        <time>2020-09-28T10:24:43.000Z</time>
      </trkpt>
      <trkpt lat="45.11869" lon="5.90679">
        <ele>2020.36</ele>
        <time>2020-09-28T10:24:53.000Z</time>
      </trkpt>
      <trkpt lat="45.1187" lon="5.90683">
        <ele>2022.9</ele>
        <time>2020-09-28T10:25:03.000Z</time>
      </trkpt>
      <trkpt lat="45.11871" lon="5.90685">
        <ele>2024.07</ele>
        <time>2020-09-28T10:25:22.000Z</time>
      </trkpt>
      <trkpt lat="45.11874" lon="5.9069">
        <ele>2026.25</ele>
        <time>2020-09-28T10:25:32.000Z</time>
      </trkpt>
      <trkpt lat="45.11876" lon="5.90691">
        <ele>2027.24</ele>
        <time>2020-09-28T10:25:42.000Z</time>
      </trkpt>
      <trkpt lat="45.11878" lon="5.90692">
        <ele>2028.25</ele>
        <time>2020-09-28T10:25:52.000Z</time>
      </trkpt>
      <trkpt lat="45.11879" lon="5.90692">
        <ele>2028.33</ele>
        <time>2020-09-28T10:26:22.000Z</time>
      </trkpt>
      <trkpt lat="45.11883" lon="5.90691">
        <ele>2027.4</ele>
        <time>2020-09-28T10:26:32.000Z</time>
      </trkpt>
      <trkpt lat="45.11884" lon="5.9069">
        <ele>2026.25</ele>
        <time>2020-09-28T10:26:42.000Z</time>
      </trkpt>
      <trkpt lat="45.11887" lon="5.90692">
        <ele>2030.45</ele>
        <time>2020-09-28T10:26:52.000Z</time>
      </trkpt>
      <trkpt lat="45.11889" lon="5.90691">
        <ele>2030.97</ele>
        <time>2020-09-28T10:27:27.000Z</time>
      </trkpt>
      <trkpt lat="45.11891" lon="5.90691">
        <ele>2028.66</ele>
        <time>2020-09-28T10:27:37.000Z</time>
      </trkpt>
      <trkpt lat="45.11889" lon="5.9069">
        <ele>2026.98</ele>
        <time>2020-09-28T10:27:47.000Z</time>
      </trkpt>
      <trkpt lat="45.11895" lon="5.90693">
        <ele>2026.49</ele>
        <time>2020-09-28T10:27:57.000Z</time>
      </trkpt>
      <trkpt lat="45.11899" lon="5.90695">
        <ele>2029.24</ele>
        <time>2020-09-28T10:28:07.000Z</time>
      </trkpt>
      <trkpt lat="45.11902" lon="5.90705">
        <ele>2028.06</ele>
        <time>2020-09-28T10:28:17.000Z</time>
      </trkpt>
      <trkpt lat="45.11905" lon="5.90711">
        <ele>2027.89</ele>
        <time>2020-09-28T10:28:27.000Z</time>
      </trkpt>
      <trkpt lat="45.11906" lon="5.90714">
        <ele>2027.02</ele>
        <time>2020-09-28T10:28:37.000Z</time>
      </trkpt>
      <trkpt lat="45.11912" lon="5.90719">
        <ele>2028.19</ele>
        <time>2020-09-28T10:28:47.000Z</time>
      </trkpt>
      <trkpt lat="45.11915" lon="5.90721">
        <ele>2028.14</ele>
        <time>2020-09-28T10:28:57.000Z</time>
      </trkpt>
      <trkpt lat="45.11916" lon="5.90726">
        <ele>2026.18</ele>
        <time>2020-09-28T10:29:07.000Z</time>
      </trkpt>
      <trkpt lat="45.11918" lon="5.9073">
        <ele>2026.44</ele>
        <time>2020-09-28T10:29:17.000Z</time>
      </trkpt>
      <trkpt lat="45.11921" lon="5.90737">
        <ele>2029.53</ele>
        <time>2020-09-28T10:29:27.000Z</time>
      </trkpt>
      <trkpt lat="45.11921" lon="5.90739">
        <ele>2030.7</ele>
        <time>2020-09-28T10:29:43.000Z</time>
      </trkpt>
      <trkpt lat="45.11924" lon="5.90745">
        <ele>2034.33</ele>
        <time>2020-09-28T10:29:53.000Z</time>
      </trkpt>
      <trkpt lat="45.11925" lon="5.90743">
        <ele>2033.34</ele>
        <time>2020-09-28T10:30:03.000Z</time>
      </trkpt>
      <trkpt lat="45.11926" lon="5.90743">
        <ele>2033.15</ele>
        <time>2020-09-28T10:30:16.000Z</time>
      </trkpt>
      <trkpt lat="45.11927" lon="5.90742">
        <ele>2032.17</ele>
        <time>2020-09-28T10:30:29.000Z</time>
      </trkpt>
      <trkpt lat="45.11928" lon="5.90741">
        <ele>2032.73</ele>
        <time>2020-09-28T10:30:43.000Z</time>
      </trkpt>
      <trkpt lat="45.11929" lon="5.90742">
        <ele>2033.76</ele>
        <time>2020-09-28T10:30:53.000Z</time>
      </trkpt>
      <trkpt lat="45.1193" lon="5.90743">
        <ele>2032.26</ele>
        <time>2020-09-28T10:31:55.000Z</time>
      </trkpt>
      <trkpt lat="45.11941" lon="5.90745">
        <ele>2030.45</ele>
        <time>2020-09-28T10:32:05.000Z</time>
      </trkpt>
      <trkpt lat="45.11945" lon="5.90749">
        <ele>2034.25</ele>
        <time>2020-09-28T10:32:15.000Z</time>
      </trkpt>
      <trkpt lat="45.11942" lon="5.90759">
        <ele>2035.51</ele>
        <time>2020-09-28T10:32:25.000Z</time>
      </trkpt>
      <trkpt lat="45.11939" lon="5.90761">
        <ele>2035.02</ele>
        <time>2020-09-28T10:32:35.000Z</time>
      </trkpt>
      <trkpt lat="45.1194" lon="5.90761">
        <ele>2035.49</ele>
        <time>2020-09-28T10:33:09.000Z</time>
      </trkpt>
      <trkpt lat="45.11945" lon="5.90762">
        <ele>2035.5</ele>
        <time>2020-09-28T10:33:19.000Z</time>
      </trkpt>
      <trkpt lat="45.11949" lon="5.90765">
        <ele>2034.89</ele>
        <time>2020-09-28T10:33:29.000Z</time>
      </trkpt>
      <trkpt lat="45.11951" lon="5.90774">
        <ele>2035.45</ele>
        <time>2020-09-28T10:33:39.000Z</time>
      </trkpt>
      <trkpt lat="45.11952" lon="5.90774">
        <ele>2037.09</ele>
        <time>2020-09-28T10:33:49.000Z</time>
      </trkpt>
      <trkpt lat="45.11953" lon="5.90775">
        <ele>2038.06</ele>
        <time>2020-09-28T10:33:59.000Z</time>
      </trkpt>
      <trkpt lat="45.11954" lon="5.9078">
        <ele>2038.58</ele>
        <time>2020-09-28T10:34:09.000Z</time>
      </trkpt>
      <trkpt lat="45.11957" lon="5.90779">
        <ele>2037.91</ele>
        <time>2020-09-28T10:34:19.000Z</time>
      </trkpt>
      <trkpt lat="45.11958" lon="5.90779">
        <ele>2035.47</ele>
        <time>2020-09-28T10:34:34.000Z</time>
      </trkpt>
      <trkpt lat="45.11959" lon="5.90779">
        <ele>2033.75</ele>
        <time>2020-09-28T10:34:59.000Z</time>
      </trkpt>
      <trkpt lat="45.11966" lon="5.9078">
        <ele>2031</ele>
        <time>2020-09-28T10:35:09.000Z</time>
      </trkpt>
      <trkpt lat="45.11966" lon="5.90782">
        <ele>2033.2</ele>
        <time>2020-09-28T10:35:19.000Z</time>
      </trkpt>
      <trkpt lat="45.11967" lon="5.90787">
        <ele>2035.55</ele>
        <time>2020-09-28T10:35:29.000Z</time>
      </trkpt>
      <trkpt lat="45.11965" lon="5.9079">
        <ele>2035.48</ele>
        <time>2020-09-28T10:35:39.000Z</time>
      </trkpt>
      <trkpt lat="45.11966" lon="5.90795">
        <ele>2040.06</ele>
        <time>2020-09-28T10:35:49.000Z</time>
      </trkpt>
      <trkpt lat="45.11968" lon="5.90798">
        <ele>2037.68</ele>
        <time>2020-09-28T10:35:59.000Z</time>
      </trkpt>
      <trkpt lat="45.11969" lon="5.90798">
        <ele>2036.94</ele>
        <time>2020-09-28T10:36:11.000Z</time>
      </trkpt>
      <trkpt lat="45.11967" lon="5.908">
        <ele>2040.54</ele>
        <time>2020-09-28T10:36:32.000Z</time>
      </trkpt>
      <trkpt lat="45.11965" lon="5.90803">
        <ele>2042.72</ele>
        <time>2020-09-28T10:36:42.000Z</time>
      </trkpt>
      <trkpt lat="45.11966" lon="5.90805">
        <ele>2041.85</ele>
        <time>2020-09-28T10:36:53.000Z</time>
      </trkpt>
      <trkpt lat="45.1197" lon="5.90806">
        <ele>2038.73</ele>
        <time>2020-09-28T10:37:03.000Z</time>
      </trkpt>
      <trkpt lat="45.1197" lon="5.90808">
        <ele>2038.81</ele>
        <time>2020-09-28T10:37:13.000Z</time>
      </trkpt>
      <trkpt lat="45.11971" lon="5.9081">
        <ele>2036.95</ele>
        <time>2020-09-28T10:38:21.000Z</time>
      </trkpt>
      <trkpt lat="45.11978" lon="5.90819">
        <ele>2035.31</ele>
        <time>2020-09-28T10:38:31.000Z</time>
      </trkpt>
      <trkpt lat="45.11982" lon="5.90822">
        <ele>2036.43</ele>
        <time>2020-09-28T10:38:41.000Z</time>
      </trkpt>
      <trkpt lat="45.11982" lon="5.90824">
        <ele>2037.04</ele>
        <time>2020-09-28T10:38:51.000Z</time>
      </trkpt>
      <trkpt lat="45.11987" lon="5.9083">
        <ele>2038.18</ele>
        <time>2020-09-28T10:39:01.000Z</time>
      </trkpt>
      <trkpt lat="45.11994" lon="5.90837">
        <ele>2035.34</ele>
        <time>2020-09-28T10:39:11.000Z</time>
      </trkpt>
      <trkpt lat="45.11995" lon="5.90838">
        <ele>2037.1</ele>
        <time>2020-09-28T10:39:21.000Z</time>
      </trkpt>
      <trkpt lat="45.11996" lon="5.9084">
        <ele>2036.72</ele>
        <time>2020-09-28T10:39:40.000Z</time>
      </trkpt>
      <trkpt lat="45.11998" lon="5.90843">
        <ele>2036.26</ele>
        <time>2020-09-28T10:39:50.000Z</time>
      </trkpt>
      <trkpt lat="45.11998" lon="5.90846">
        <ele>2044.21</ele>
        <time>2020-09-28T10:40:00.000Z</time>
      </trkpt>
      <trkpt lat="45.11999" lon="5.90846">
        <ele>2046.07</ele>
        <time>2020-09-28T10:40:18.000Z</time>
      </trkpt>
      <trkpt lat="45.11998" lon="5.90844">
        <ele>2047.25</ele>
        <time>2020-09-28T10:40:28.000Z</time>
      </trkpt>
      <trkpt lat="45.12" lon="5.90845">
        <ele>2048.33</ele>
        <time>2020-09-28T10:40:38.000Z</time>
      </trkpt>
      <trkpt lat="45.12" lon="5.90844">
        <ele>2051.77</ele>
        <time>2020-09-28T10:41:08.000Z</time>
      </trkpt>
      <trkpt lat="45.12001" lon="5.90844">
        <ele>2052.01</ele>
        <time>2020-09-28T10:41:18.000Z</time>
      </trkpt>
      <trkpt lat="45.12002" lon="5.90845">
        <ele>2053.67</ele>
        <time>2020-09-28T10:41:29.000Z</time>
      </trkpt>
      <trkpt lat="45.12004" lon="5.90847">
        <ele>2058.07</ele>
        <time>2020-09-28T10:41:39.000Z</time>
      </trkpt>
      <trkpt lat="45.12011" lon="5.90852">
        <ele>2061.64</ele>
        <time>2020-09-28T10:41:49.000Z</time>
      </trkpt>
      <trkpt lat="45.12012" lon="5.90849">
        <ele>2065.89</ele>
        <time>2020-09-28T10:41:59.000Z</time>
      </trkpt>
      <trkpt lat="45.12013" lon="5.9085">
        <ele>2065.69</ele>
        <time>2020-09-28T10:42:14.000Z</time>
      </trkpt>
      <trkpt lat="45.12015" lon="5.90853">
        <ele>2063.57</ele>
        <time>2020-09-28T10:42:24.000Z</time>
      </trkpt>
      <trkpt lat="45.12016" lon="5.90859">
        <ele>2058.48</ele>
        <time>2020-09-28T10:42:34.000Z</time>
      </trkpt>
      <trkpt lat="45.12019" lon="5.90864">
        <ele>2062.12</ele>
        <time>2020-09-28T10:42:44.000Z</time>
      </trkpt>
      <trkpt lat="45.12021" lon="5.90863">
        <ele>2065.11</ele>
        <time>2020-09-28T10:42:54.000Z</time>
      </trkpt>
      <trkpt lat="45.1202" lon="5.90864">
        <ele>2064.27</ele>
        <time>2020-09-28T10:43:04.000Z</time>
      </trkpt>
      <trkpt lat="45.12021" lon="5.90865">
        <ele>2063.02</ele>
        <time>2020-09-28T10:43:14.000Z</time>
      </trkpt>
      <trkpt lat="45.12023" lon="5.90864">
        <ele>2064.97</ele>
        <time>2020-09-28T10:43:24.000Z</time>
      </trkpt>
      <trkpt lat="45.12024" lon="5.9086">
        <ele>2064.43</ele>
        <time>2020-09-28T10:43:34.000Z</time>
      </trkpt>
      <trkpt lat="45.12026" lon="5.90862">
        <ele>2062.92</ele>
        <time>2020-09-28T10:43:44.000Z</time>
      </trkpt>
      <trkpt lat="45.12027" lon="5.90863">
        <ele>2062.78</ele>
        <time>2020-09-28T10:43:59.000Z</time>
      </trkpt>
      <trkpt lat="45.12026" lon="5.90861">
        <ele>2062.99</ele>
        <time>2020-09-28T10:44:13.000Z</time>
      </trkpt>
      <trkpt lat="45.12031" lon="5.90854">
        <ele>2065.79</ele>
        <time>2020-09-28T10:44:23.000Z</time>
      </trkpt>
      <trkpt lat="45.12033" lon="5.90855">
        <ele>2067.18</ele>
        <time>2020-09-28T10:44:33.000Z</time>
      </trkpt>
      <trkpt lat="45.12034" lon="5.90854">
        <ele>2065.84</ele>
        <time>2020-09-28T10:44:44.000Z</time>
      </trkpt>
      <trkpt lat="45.12039" lon="5.90859">
        <ele>2067.93</ele>
        <time>2020-09-28T10:44:54.000Z</time>
      </trkpt>
      <trkpt lat="45.1204" lon="5.90859">
        <ele>2069.31</ele>
        <time>2020-09-28T10:45:04.000Z</time>
      </trkpt>
      <trkpt lat="45.12039" lon="5.9086">
        <ele>2070.32</ele>
        <time>2020-09-28T10:45:14.000Z</time>
      </trkpt>
      <trkpt lat="45.12038" lon="5.9086">
        <ele>2069.05</ele>
        <time>2020-09-28T10:45:24.000Z</time>
      </trkpt>
      <trkpt lat="45.1204" lon="5.9086">
        <ele>2068.47</ele>
        <time>2020-09-28T10:46:48.000Z</time>
      </trkpt>
      <trkpt lat="45.12047" lon="5.9086">
        <ele>2066.74</ele>
        <time>2020-09-28T10:46:58.000Z</time>
      </trkpt>
      <trkpt lat="45.12053" lon="5.9086">
        <ele>2063.57</ele>
        <time>2020-09-28T10:47:08.000Z</time>
      </trkpt>
      <trkpt lat="45.12058" lon="5.90861">
        <ele>2066.06</ele>
        <time>2020-09-28T10:47:18.000Z</time>
      </trkpt>
      <trkpt lat="45.12062" lon="5.90863">
        <ele>2066.41</ele>
        <time>2020-09-28T10:47:28.000Z</time>
      </trkpt>
      <trkpt lat="45.12065" lon="5.90865">
        <ele>2065.55</ele>
        <time>2020-09-28T10:47:38.000Z</time>
      </trkpt>
      <trkpt lat="45.12068" lon="5.9087">
        <ele>2065.37</ele>
        <time>2020-09-28T10:47:48.000Z</time>
      </trkpt>
      <trkpt lat="45.12069" lon="5.90871">
        <ele>2062.58</ele>
        <time>2020-09-28T10:47:58.000Z</time>
      </trkpt>
      <trkpt lat="45.12076" lon="5.90876">
        <ele>2065</ele>
        <time>2020-09-28T10:48:08.000Z</time>
      </trkpt>
      <trkpt lat="45.12078" lon="5.9088">
        <ele>2065.63</ele>
        <time>2020-09-28T10:48:18.000Z</time>
      </trkpt>
      <trkpt lat="45.1208" lon="5.9089">
        <ele>2063.01</ele>
        <time>2020-09-28T10:48:28.000Z</time>
      </trkpt>
      <trkpt lat="45.12079" lon="5.90894">
        <ele>2061.94</ele>
        <time>2020-09-28T10:48:38.000Z</time>
      </trkpt>
      <trkpt lat="45.12082" lon="5.90899">
        <ele>2064.27</ele>
        <time>2020-09-28T10:48:48.000Z</time>
      </trkpt>
      <trkpt lat="45.12085" lon="5.90902">
        <ele>2067.34</ele>
        <time>2020-09-28T10:48:58.000Z</time>
      </trkpt>
      <trkpt lat="45.12086" lon="5.90907">
        <ele>2061.65</ele>
        <time>2020-09-28T10:49:08.000Z</time>
      </trkpt>
      <trkpt lat="45.1209" lon="5.90907">
        <ele>2064.93</ele>
        <time>2020-09-28T10:49:18.000Z</time>
      </trkpt>
      <trkpt lat="45.12091" lon="5.90909">
        <ele>2066.82</ele>
        <time>2020-09-28T10:50:44.000Z</time>
      </trkpt>
      <trkpt lat="45.12094" lon="5.90913">
        <ele>2066.36</ele>
        <time>2020-09-28T10:50:54.000Z</time>
      </trkpt>
      <trkpt lat="45.12101" lon="5.90917">
        <ele>2063.23</ele>
        <time>2020-09-28T10:51:04.000Z</time>
      </trkpt>
      <trkpt lat="45.12103" lon="5.90918">
        <ele>2066.6</ele>
        <time>2020-09-28T10:51:14.000Z</time>
      </trkpt>
      <trkpt lat="45.12106" lon="5.9092">
        <ele>2067.9</ele>
        <time>2020-09-28T10:51:24.000Z</time>
      </trkpt>
      <trkpt lat="45.12108" lon="5.9092">
        <ele>2066.94</ele>
        <time>2020-09-28T10:51:34.000Z</time>
      </trkpt>
      <trkpt lat="45.1211" lon="5.90922">
        <ele>2067.48</ele>
        <time>2020-09-28T10:51:44.000Z</time>
      </trkpt>
      <trkpt lat="45.12111" lon="5.90922">
        <ele>2066.92</ele>
        <time>2020-09-28T10:52:08.000Z</time>
      </trkpt>
      <trkpt lat="45.12118" lon="5.90923">
        <ele>2065.76</ele>
        <time>2020-09-28T10:52:18.000Z</time>
      </trkpt>
      <trkpt lat="45.12119" lon="5.90921">
        <ele>2064.1</ele>
        <time>2020-09-28T10:52:28.000Z</time>
      </trkpt>
      <trkpt lat="45.12123" lon="5.90919">
        <ele>2062.66</ele>
        <time>2020-09-28T10:52:38.000Z</time>
      </trkpt>
      <trkpt lat="45.12131" lon="5.90917">
        <ele>2060.14</ele>
        <time>2020-09-28T10:52:48.000Z</time>
      </trkpt>
      <trkpt lat="45.12131" lon="5.90915">
        <ele>2059.48</ele>
        <time>2020-09-28T10:52:58.000Z</time>
      </trkpt>
      <trkpt lat="45.12135" lon="5.90922">
        <ele>2058.39</ele>
        <time>2020-09-28T10:53:08.000Z</time>
      </trkpt>
      <trkpt lat="45.12139" lon="5.9092">
        <ele>2062.24</ele>
        <time>2020-09-28T10:53:18.000Z</time>
      </trkpt>
      <trkpt lat="45.12147" lon="5.90923">
        <ele>2062.58</ele>
        <time>2020-09-28T10:53:28.000Z</time>
      </trkpt>
      <trkpt lat="45.12149" lon="5.90926">
        <ele>2061.04</ele>
        <time>2020-09-28T10:53:38.000Z</time>
      </trkpt>
      <trkpt lat="45.12155" lon="5.90932">
        <ele>2061.74</ele>
        <time>2020-09-28T10:53:48.000Z</time>
      </trkpt>
      <trkpt lat="45.12157" lon="5.90936">
        <ele>2058.67</ele>
        <time>2020-09-28T10:53:58.000Z</time>
      </trkpt>
      <trkpt lat="45.12158" lon="5.90936">
        <ele>2058.27</ele>
        <time>2020-09-28T10:54:17.000Z</time>
      </trkpt>
      <trkpt lat="45.12163" lon="5.90938">
        <ele>2055.69</ele>
        <time>2020-09-28T10:54:27.000Z</time>
      </trkpt>
      <trkpt lat="45.12163" lon="5.90939">
        <ele>2054.1</ele>
        <time>2020-09-28T10:54:40.000Z</time>
      </trkpt>
      <trkpt lat="45.1217" lon="5.90944">
        <ele>2054.54</ele>
        <time>2020-09-28T10:54:50.000Z</time>
      </trkpt>
      <trkpt lat="45.12179" lon="5.90952">
        <ele>2054.64</ele>
        <time>2020-09-28T10:55:00.000Z</time>
      </trkpt>
      <trkpt lat="45.12185" lon="5.90946">
        <ele>2055.68</ele>
        <time>2020-09-28T10:55:10.000Z</time>
      </trkpt>
      <trkpt lat="45.12187" lon="5.90951">
        <ele>2057.09</ele>
        <time>2020-09-28T10:55:20.000Z</time>
      </trkpt>
      <trkpt lat="45.12192" lon="5.90959">
        <ele>2055.5</ele>
        <time>2020-09-28T10:55:30.000Z</time>
      </trkpt>
      <trkpt lat="45.12198" lon="5.90959">
        <ele>2060.33</ele>
        <time>2020-09-28T10:55:40.000Z</time>
      </trkpt>
      <trkpt lat="45.12204" lon="5.90958">
        <ele>2063.05</ele>
        <time>2020-09-28T10:55:50.000Z</time>
      </trkpt>
      <trkpt lat="45.12206" lon="5.90958">
        <ele>2063.87</ele>
        <time>2020-09-28T10:56:00.000Z</time>
      </trkpt>
      <trkpt lat="45.12208" lon="5.90957">
        <ele>2066.09</ele>
        <time>2020-09-28T10:56:10.000Z</time>
      </trkpt>
      <trkpt lat="45.12212" lon="5.90951">
        <ele>2071.33</ele>
        <time>2020-09-28T10:56:20.000Z</time>
      </trkpt>
      <trkpt lat="45.12217" lon="5.90947">
        <ele>2069.81</ele>
        <time>2020-09-28T10:56:30.000Z</time>
      </trkpt>
      <trkpt lat="45.12218" lon="5.9095">
        <ele>2069.01</ele>
        <time>2020-09-28T10:56:40.000Z</time>
      </trkpt>
      <trkpt lat="45.12219" lon="5.90951">
        <ele>2068.91</ele>
        <time>2020-09-28T10:56:54.000Z</time>
      </trkpt>
      <trkpt lat="45.12227" lon="5.90958">
        <ele>2068.36</ele>
        <time>2020-09-28T10:57:04.000Z</time>
      </trkpt>
      <trkpt lat="45.12228" lon="5.90963">
        <ele>2068.7</ele>
        <time>2020-09-28T10:57:14.000Z</time>
      </trkpt>
      <trkpt lat="45.12227" lon="5.90968">
        <ele>2070.12</ele>
        <time>2020-09-28T10:57:24.000Z</time>
      </trkpt>
      <trkpt lat="45.12227" lon="5.90973">
        <ele>2071.04</ele>
        <time>2020-09-28T10:57:34.000Z</time>
      </trkpt>
      <trkpt lat="45.12225" lon="5.90973">
        <ele>2070.47</ele>
        <time>2020-09-28T10:57:44.000Z</time>
      </trkpt>
      <trkpt lat="45.12226" lon="5.90974">
        <ele>2071.28</ele>
        <time>2020-09-28T10:57:54.000Z</time>
      </trkpt>
      <trkpt lat="45.12225" lon="5.90972">
        <ele>2072.08</ele>
        <time>2020-09-28T10:58:04.000Z</time>
      </trkpt>
      <trkpt lat="45.12224" lon="5.90971">
        <ele>2074.64</ele>
        <time>2020-09-28T10:58:21.000Z</time>
      </trkpt>
      <trkpt lat="45.12226" lon="5.90979">
        <ele>2074.65</ele>
        <time>2020-09-28T10:58:31.000Z</time>
      </trkpt>
      <trkpt lat="45.12228" lon="5.90981">
        <ele>2074.45</ele>
        <time>2020-09-28T10:58:41.000Z</time>
      </trkpt>
      <trkpt lat="45.12227" lon="5.9098">
        <ele>2075.57</ele>
        <time>2020-09-28T10:58:51.000Z</time>
      </trkpt>
      <trkpt lat="45.1223" lon="5.90985">
        <ele>2074.77</ele>
        <time>2020-09-28T10:59:01.000Z</time>
      </trkpt>
      <trkpt lat="45.1223" lon="5.90981">
        <ele>2074.73</ele>
        <time>2020-09-28T10:59:11.000Z</time>
      </trkpt>
      <trkpt lat="45.12231" lon="5.90983">
        <ele>2072.62</ele>
        <time>2020-09-28T10:59:27.000Z</time>
      </trkpt>
      <trkpt lat="45.12233" lon="5.90996">
        <ele>2070.22</ele>
        <time>2020-09-28T10:59:37.000Z</time>
      </trkpt>
      <trkpt lat="45.12228" lon="5.90992">
        <ele>2072.39</ele>
        <time>2020-09-28T10:59:47.000Z</time>
      </trkpt>
      <trkpt lat="45.12229" lon="5.90986">
        <ele>2070.47</ele>
        <time>2020-09-28T10:59:57.000Z</time>
      </trkpt>
      <trkpt lat="45.12234" lon="5.90981">
        <ele>2068.65</ele>
        <time>2020-09-28T11:00:07.000Z</time>
      </trkpt>
      <trkpt lat="45.12243" lon="5.90978">
        <ele>2069.65</ele>
        <time>2020-09-28T11:00:17.000Z</time>
      </trkpt>
      <trkpt lat="45.12248" lon="5.90985">
        <ele>2067.55</ele>
        <time>2020-09-28T11:00:27.000Z</time>
      </trkpt>
      <trkpt lat="45.12249" lon="5.90985">
        <ele>2068.86</ele>
        <time>2020-09-28T11:00:37.000Z</time>
      </trkpt>
      <trkpt lat="45.12255" lon="5.90995">
        <ele>2068.18</ele>
        <time>2020-09-28T11:00:47.000Z</time>
      </trkpt>
      <trkpt lat="45.12259" lon="5.90999">
        <ele>2062.98</ele>
        <time>2020-09-28T11:00:57.000Z</time>
      </trkpt>
      <trkpt lat="45.12266" lon="5.91007">
        <ele>2068.02</ele>
        <time>2020-09-28T11:01:07.000Z</time>
      </trkpt>
      <trkpt lat="45.12268" lon="5.91015">
        <ele>2067.64</ele>
        <time>2020-09-28T11:01:17.000Z</time>
      </trkpt>
      <trkpt lat="45.12277" lon="5.91023">
        <ele>2072.27</ele>
        <time>2020-09-28T11:01:27.000Z</time>
      </trkpt>
      <trkpt lat="45.12277" lon="5.9103">
        <ele>2072.36</ele>
        <time>2020-09-28T11:01:37.000Z</time>
      </trkpt>
      <trkpt lat="45.12278" lon="5.9104">
        <ele>2073.39</ele>
        <time>2020-09-28T11:01:47.000Z</time>
      </trkpt>
      <trkpt lat="45.12278" lon="5.91045">
        <ele>2070.79</ele>
        <time>2020-09-28T11:01:57.000Z</time>
      </trkpt>
      <trkpt lat="45.12284" lon="5.91048">
        <ele>2073.64</ele>
        <time>2020-09-28T11:02:07.000Z</time>
      </trkpt>
      <trkpt lat="45.12292" lon="5.91052">
        <ele>2073.38</ele>
        <time>2020-09-28T11:02:17.000Z</time>
      </trkpt>
      <trkpt lat="45.12298" lon="5.91062">
        <ele>2065.83</ele>
        <time>2020-09-28T11:02:27.000Z</time>
      </trkpt>
      <trkpt lat="45.123" lon="5.91062">
        <ele>2068.2</ele>
        <time>2020-09-28T11:02:37.000Z</time>
      </trkpt>
      <trkpt lat="45.12307" lon="5.91055">
        <ele>2070.51</ele>
        <time>2020-09-28T11:02:47.000Z</time>
      </trkpt>
      <trkpt lat="45.12313" lon="5.9105">
        <ele>2070.32</ele>
        <time>2020-09-28T11:02:57.000Z</time>
      </trkpt>
      <trkpt lat="45.12315" lon="5.91048">
        <ele>2071.39</ele>
        <time>2020-09-28T11:03:07.000Z</time>
      </trkpt>
      <trkpt lat="45.12319" lon="5.91047">
        <ele>2074.39</ele>
        <time>2020-09-28T11:03:17.000Z</time>
      </trkpt>
      <trkpt lat="45.12322" lon="5.91049">
        <ele>2072.82</ele>
        <time>2020-09-28T11:03:27.000Z</time>
      </trkpt>
      <trkpt lat="45.12326" lon="5.91049">
        <ele>2074.48</ele>
        <time>2020-09-28T11:03:37.000Z</time>
      </trkpt>
      <trkpt lat="45.12328" lon="5.9105">
        <ele>2074.81</ele>
        <time>2020-09-28T11:03:47.000Z</time>
      </trkpt>
      <trkpt lat="45.12335" lon="5.91047">
        <ele>2081.11</ele>
        <time>2020-09-28T11:03:57.000Z</time>
      </trkpt>
      <trkpt lat="45.1234" lon="5.91046">
        <ele>2080.2</ele>
        <time>2020-09-28T11:04:07.000Z</time>
      </trkpt>
      <trkpt lat="45.12342" lon="5.91049">
        <ele>2078.38</ele>
        <time>2020-09-28T11:04:17.000Z</time>
      </trkpt>
      <trkpt lat="45.12348" lon="5.91049">
        <ele>2079.21</ele>
        <time>2020-09-28T11:04:27.000Z</time>
      </trkpt>
      <trkpt lat="45.12349" lon="5.91045">
        <ele>2078.58</ele>
        <time>2020-09-28T11:04:37.000Z</time>
      </trkpt>
      <trkpt lat="45.12354" lon="5.91048">
        <ele>2080.05</ele>
        <time>2020-09-28T11:04:47.000Z</time>
      </trkpt>
      <trkpt lat="45.12359" lon="5.91054">
        <ele>2079.56</ele>
        <time>2020-09-28T11:04:57.000Z</time>
      </trkpt>
      <trkpt lat="45.12363" lon="5.91054">
        <ele>2082.49</ele>
        <time>2020-09-28T11:05:07.000Z</time>
      </trkpt>
      <trkpt lat="45.12362" lon="5.91053">
        <ele>2080.99</ele>
        <time>2020-09-28T11:05:59.000Z</time>
      </trkpt>
      <trkpt lat="45.1236" lon="5.9105">
        <ele>2082.23</ele>
        <time>2020-09-28T11:06:09.000Z</time>
      </trkpt>
      <trkpt lat="45.12361" lon="5.91049">
        <ele>2086.67</ele>
        <time>2020-09-28T11:06:21.000Z</time>
      </trkpt>
      <trkpt lat="45.12362" lon="5.91053">
        <ele>2082.72</ele>
        <time>2020-09-28T11:06:31.000Z</time>
      </trkpt>
      <trkpt lat="45.12366" lon="5.91056">
        <ele>2081.13</ele>
        <time>2020-09-28T11:06:41.000Z</time>
      </trkpt>
      <trkpt lat="45.12364" lon="5.91056">
        <ele>2080</ele>
        <time>2020-09-28T11:06:51.000Z</time>
      </trkpt>
      <trkpt lat="45.12364" lon="5.91058">
        <ele>2078.29</ele>
        <time>2020-09-28T11:07:03.000Z</time>
      </trkpt>
      <trkpt lat="45.12366" lon="5.91059">
        <ele>2081.56</ele>
        <time>2020-09-28T11:07:13.000Z</time>
      </trkpt>
      <trkpt lat="45.12364" lon="5.91054">
        <ele>2079.67</ele>
        <time>2020-09-28T11:07:23.000Z</time>
      </trkpt>
      <trkpt lat="45.12365" lon="5.91052">
        <ele>2080.56</ele>
        <time>2020-09-28T11:07:40.000Z</time>
      </trkpt>
      <trkpt lat="45.12366" lon="5.91052">
        <ele>2079.06</ele>
        <time>2020-09-28T11:07:50.000Z</time>
      </trkpt>
      <trkpt lat="45.12374" lon="5.91048">
        <ele>2080.04</ele>
        <time>2020-09-28T11:08:00.000Z</time>
      </trkpt>
      <trkpt lat="45.12378" lon="5.91051">
        <ele>2079.13</ele>
        <time>2020-09-28T11:08:10.000Z</time>
      </trkpt>
      <trkpt lat="45.12382" lon="5.91048">
        <ele>2074.09</ele>
        <time>2020-09-28T11:08:20.000Z</time>
      </trkpt>
      <trkpt lat="45.12382" lon="5.91046">
        <ele>2075.54</ele>
        <time>2020-09-28T11:08:30.000Z</time>
      </trkpt>
      <trkpt lat="45.12384" lon="5.91048">
        <ele>2075.71</ele>
        <time>2020-09-28T11:08:40.000Z</time>
      </trkpt>
      <trkpt lat="45.12384" lon="5.91044">
        <ele>2079.46</ele>
        <time>2020-09-28T11:08:50.000Z</time>
      </trkpt>
      <trkpt lat="45.12385" lon="5.91043">
        <ele>2081.78</ele>
        <time>2020-09-28T11:09:00.000Z</time>
      </trkpt>
      <trkpt lat="45.12391" lon="5.91039">
        <ele>2085.03</ele>
        <time>2020-09-28T11:09:10.000Z</time>
      </trkpt>
      <trkpt lat="45.12406" lon="5.91044">
        <ele>2085.16</ele>
        <time>2020-09-28T11:09:20.000Z</time>
      </trkpt>
      <trkpt lat="45.12413" lon="5.91042">
        <ele>2082.18</ele>
        <time>2020-09-28T11:09:30.000Z</time>
      </trkpt>
      <trkpt lat="45.12419" lon="5.91042">
        <ele>2082.86</ele>
        <time>2020-09-28T11:09:40.000Z</time>
      </trkpt>
      <trkpt lat="45.12423" lon="5.91047">
        <ele>2080.15</ele>
        <time>2020-09-28T11:09:50.000Z</time>
      </trkpt>
      <trkpt lat="45.12423" lon="5.91045">
        <ele>2082.55</ele>
        <time>2020-09-28T11:10:00.000Z</time>
      </trkpt>
      <trkpt lat="45.12425" lon="5.91037">
        <ele>2081.48</ele>
        <time>2020-09-28T11:10:10.000Z</time>
      </trkpt>
      <trkpt lat="45.1243" lon="5.91033">
        <ele>2083.84</ele>
        <time>2020-09-28T11:10:20.000Z</time>
      </trkpt>
      <trkpt lat="45.12432" lon="5.9103">
        <ele>2086.89</ele>
        <time>2020-09-28T11:10:30.000Z</time>
      </trkpt>
      <trkpt lat="45.12433" lon="5.91019">
        <ele>2089.93</ele>
        <time>2020-09-28T11:10:40.000Z</time>
      </trkpt>
      <trkpt lat="45.12434" lon="5.91011">
        <ele>2091.06</ele>
        <time>2020-09-28T11:10:50.000Z</time>
      </trkpt>
      <trkpt lat="45.12436" lon="5.91012">
        <ele>2094.3</ele>
        <time>2020-09-28T11:11:00.000Z</time>
      </trkpt>
      <trkpt lat="45.12436" lon="5.91008">
        <ele>2095.06</ele>
        <time>2020-09-28T11:11:10.000Z</time>
      </trkpt>
      <trkpt lat="45.12438" lon="5.91001">
        <ele>2094.2</ele>
        <time>2020-09-28T11:11:20.000Z</time>
      </trkpt>
      <trkpt lat="45.12442" lon="5.91003">
        <ele>2093.76</ele>
        <time>2020-09-28T11:11:30.000Z</time>
      </trkpt>
      <trkpt lat="45.12443" lon="5.91004">
        <ele>2093.52</ele>
        <time>2020-09-28T11:11:40.000Z</time>
      </trkpt>
      <trkpt lat="45.12445" lon="5.91006">
        <ele>2093.03</ele>
        <time>2020-09-28T11:11:50.000Z</time>
      </trkpt>
      <trkpt lat="45.12447" lon="5.91009">
        <ele>2093.25</ele>
        <time>2020-09-28T11:12:00.000Z</time>
      </trkpt>
      <trkpt lat="45.12448" lon="5.91012">
        <ele>2096.71</ele>
        <time>2020-09-28T11:12:10.000Z</time>
      </trkpt>
      <trkpt lat="45.12449" lon="5.91016">
        <ele>2097.07</ele>
        <time>2020-09-28T11:12:20.000Z</time>
      </trkpt>
      <trkpt lat="45.1245" lon="5.91022">
        <ele>2101.49</ele>
        <time>2020-09-28T11:12:30.000Z</time>
      </trkpt>
      <trkpt lat="45.12449" lon="5.91023">
        <ele>2102.08</ele>
        <time>2020-09-28T11:12:40.000Z</time>
      </trkpt>
      <trkpt lat="45.12448" lon="5.91023">
        <ele>2099.85</ele>
        <time>2020-09-28T11:12:50.000Z</time>
      </trkpt>
      <trkpt lat="45.12453" lon="5.91025">
        <ele>2103.08</ele>
        <time>2020-09-28T11:13:00.000Z</time>
      </trkpt>
      <trkpt lat="45.12453" lon="5.91022">
        <ele>2103.62</ele>
        <time>2020-09-28T11:13:10.000Z</time>
      </trkpt>
      <trkpt lat="45.12452" lon="5.91015">
        <ele>2103.54</ele>
        <time>2020-09-28T11:13:20.000Z</time>
      </trkpt>
      <trkpt lat="45.12453" lon="5.91017">
        <ele>2103.03</ele>
        <time>2020-09-28T11:13:30.000Z</time>
      </trkpt>
      <trkpt lat="45.12455" lon="5.91009">
        <ele>2104.08</ele>
        <time>2020-09-28T11:13:40.000Z</time>
      </trkpt>
      <trkpt lat="45.12456" lon="5.91008">
        <ele>2103.05</ele>
        <time>2020-09-28T11:13:50.000Z</time>
      </trkpt>
      <trkpt lat="45.12459" lon="5.91012">
        <ele>2102.45</ele>
        <time>2020-09-28T11:14:00.000Z</time>
      </trkpt>
      <trkpt lat="45.1246" lon="5.91013">
        <ele>2105.86</ele>
        <time>2020-09-28T11:14:10.000Z</time>
      </trkpt>
      <trkpt lat="45.12461" lon="5.91013">
        <ele>2107.01</ele>
        <time>2020-09-28T11:14:20.000Z</time>
      </trkpt>
      <trkpt lat="45.12459" lon="5.91014">
        <ele>2106.46</ele>
        <time>2020-09-28T11:14:30.000Z</time>
      </trkpt>
      <trkpt lat="45.1246" lon="5.91017">
        <ele>2105.87</ele>
        <time>2020-09-28T11:14:40.000Z</time>
      </trkpt>
      <trkpt lat="45.12462" lon="5.91016">
        <ele>2109.7</ele>
        <time>2020-09-28T11:14:50.000Z</time>
      </trkpt>
      <trkpt lat="45.12464" lon="5.91014">
        <ele>2108.47</ele>
        <time>2020-09-28T11:15:00.000Z</time>
      </trkpt>
      <trkpt lat="45.12465" lon="5.91007">
        <ele>2111.3</ele>
        <time>2020-09-28T11:15:10.000Z</time>
      </trkpt>
      <trkpt lat="45.12467" lon="5.90999">
        <ele>2113.3</ele>
        <time>2020-09-28T11:15:20.000Z</time>
      </trkpt>
      <trkpt lat="45.12468" lon="5.90996">
        <ele>2114.61</ele>
        <time>2020-09-28T11:15:30.000Z</time>
      </trkpt>
      <trkpt lat="45.12469" lon="5.90996">
        <ele>2112.66</ele>
        <time>2020-09-28T11:15:40.000Z</time>
      </trkpt>
      <trkpt lat="45.1247" lon="5.90997">
        <ele>2111.67</ele>
        <time>2020-09-28T11:15:50.000Z</time>
      </trkpt>
      <trkpt lat="45.12471" lon="5.90999">
        <ele>2111.38</ele>
        <time>2020-09-28T11:16:11.000Z</time>
      </trkpt>
      <trkpt lat="45.12474" lon="5.91004">
        <ele>2114.19</ele>
        <time>2020-09-28T11:16:21.000Z</time>
      </trkpt>
      <trkpt lat="45.12475" lon="5.91009">
        <ele>2115.58</ele>
        <time>2020-09-28T11:16:31.000Z</time>
      </trkpt>
      <trkpt lat="45.12475" lon="5.91007">
        <ele>2116.57</ele>
        <time>2020-09-28T11:16:41.000Z</time>
      </trkpt>
      <trkpt lat="45.12476" lon="5.91003">
        <ele>2118.52</ele>
        <time>2020-09-28T11:16:51.000Z</time>
      </trkpt>
      <trkpt lat="45.12476" lon="5.91002">
        <ele>2119.78</ele>
        <time>2020-09-28T11:17:01.000Z</time>
      </trkpt>
      <trkpt lat="45.12478" lon="5.90998">
        <ele>2121.19</ele>
        <time>2020-09-28T11:17:11.000Z</time>
      </trkpt>
      <trkpt lat="45.12476" lon="5.90992">
        <ele>2122.95</ele>
        <time>2020-09-28T11:17:21.000Z</time>
      </trkpt>
      <trkpt lat="45.12481" lon="5.90987">
        <ele>2119.11</ele>
        <time>2020-09-28T11:17:31.000Z</time>
      </trkpt>
      <trkpt lat="45.12482" lon="5.90983">
        <ele>2118.2</ele>
        <time>2020-09-28T11:17:41.000Z</time>
      </trkpt>
      <trkpt lat="45.12486" lon="5.90985">
        <ele>2117.11</ele>
        <time>2020-09-28T11:17:51.000Z</time>
      </trkpt>
      <trkpt lat="45.12485" lon="5.9098">
        <ele>2117.8</ele>
        <time>2020-09-28T11:18:01.000Z</time>
      </trkpt>
      <trkpt lat="45.12487" lon="5.90975">
        <ele>2119.79</ele>
        <time>2020-09-28T11:18:11.000Z</time>
      </trkpt>
      <trkpt lat="45.12487" lon="5.90969">
        <ele>2119.51</ele>
        <time>2020-09-28T11:18:21.000Z</time>
      </trkpt>
      <trkpt lat="45.12486" lon="5.90963">
        <ele>2121.5</ele>
        <time>2020-09-28T11:18:31.000Z</time>
      </trkpt>
      <trkpt lat="45.12485" lon="5.90958">
        <ele>2124.57</ele>
        <time>2020-09-28T11:18:41.000Z</time>
      </trkpt>
      <trkpt lat="45.12485" lon="5.90955">
        <ele>2125.19</ele>
        <time>2020-09-28T11:18:57.000Z</time>
      </trkpt>
      <trkpt lat="45.12488" lon="5.90948">
        <ele>2130.4</ele>
        <time>2020-09-28T11:19:07.000Z</time>
      </trkpt>
      <trkpt lat="45.12487" lon="5.90947">
        <ele>2131.82</ele>
        <time>2020-09-28T11:19:17.000Z</time>
      </trkpt>
      <trkpt lat="45.12488" lon="5.90946">
        <ele>2132.02</ele>
        <time>2020-09-28T11:19:38.000Z</time>
      </trkpt>
      <trkpt lat="45.12494" lon="5.90948">
        <ele>2136.54</ele>
        <time>2020-09-28T11:19:48.000Z</time>
      </trkpt>
      <trkpt lat="45.12497" lon="5.9095">
        <ele>2140.12</ele>
        <time>2020-09-28T11:19:58.000Z</time>
      </trkpt>
      <trkpt lat="45.12498" lon="5.90952">
        <ele>2138.64</ele>
        <time>2020-09-28T11:20:08.000Z</time>
      </trkpt>
      <trkpt lat="45.125" lon="5.90951">
        <ele>2139.18</ele>
        <time>2020-09-28T11:20:18.000Z</time>
      </trkpt>
      <trkpt lat="45.12505" lon="5.90948">
        <ele>2137.31</ele>
        <time>2020-09-28T11:20:28.000Z</time>
      </trkpt>
      <trkpt lat="45.12509" lon="5.90952">
        <ele>2137.6</ele>
        <time>2020-09-28T11:20:38.000Z</time>
      </trkpt>
      <trkpt lat="45.12513" lon="5.90951">
        <ele>2138.96</ele>
        <time>2020-09-28T11:20:48.000Z</time>
      </trkpt>
      <trkpt lat="45.12515" lon="5.90951">
        <ele>2139.22</ele>
        <time>2020-09-28T11:20:58.000Z</time>
      </trkpt>
      <trkpt lat="45.12518" lon="5.90951">
        <ele>2140.6</ele>
        <time>2020-09-28T11:21:08.000Z</time>
      </trkpt>
      <trkpt lat="45.12518" lon="5.90949">
        <ele>2143.93</ele>
        <time>2020-09-28T11:21:18.000Z</time>
      </trkpt>
      <trkpt lat="45.12519" lon="5.90949">
        <ele>2144.01</ele>
        <time>2020-09-28T11:22:57.000Z</time>
      </trkpt>
      <trkpt lat="45.12525" lon="5.90949">
        <ele>2142.67</ele>
        <time>2020-09-28T11:23:07.000Z</time>
      </trkpt>
      <trkpt lat="45.12526" lon="5.90956">
        <ele>2143.76</ele>
        <time>2020-09-28T11:23:17.000Z</time>
      </trkpt>
      <trkpt lat="45.12527" lon="5.90957">
        <ele>2146.3</ele>
        <time>2020-09-28T11:23:27.000Z</time>
      </trkpt>
      <trkpt lat="45.12528" lon="5.90956">
        <ele>2147.08</ele>
        <time>2020-09-28T11:23:37.000Z</time>
      </trkpt>
      <trkpt lat="45.12533" lon="5.90958">
        <ele>2152.31</ele>
        <time>2020-09-28T11:23:47.000Z</time>
      </trkpt>
      <trkpt lat="45.12534" lon="5.90957">
        <ele>2154.18</ele>
        <time>2020-09-28T11:23:57.000Z</time>
      </trkpt>
      <trkpt lat="45.12535" lon="5.90956">
        <ele>2156.01</ele>
        <time>2020-09-28T11:24:31.000Z</time>
      </trkpt>
      <trkpt lat="45.12541" lon="5.90955">
        <ele>2158.68</ele>
        <time>2020-09-28T11:24:41.000Z</time>
      </trkpt>
      <trkpt lat="45.12545" lon="5.90956">
        <ele>2160.8</ele>
        <time>2020-09-28T11:24:51.000Z</time>
      </trkpt>
      <trkpt lat="45.12548" lon="5.90964">
        <ele>2155.56</ele>
        <time>2020-09-28T11:25:01.000Z</time>
      </trkpt>
      <trkpt lat="45.12549" lon="5.90964">
        <ele>2157.43</ele>
        <time>2020-09-28T11:25:11.000Z</time>
      </trkpt>
      <trkpt lat="45.1255" lon="5.90964">
        <ele>2158.91</ele>
        <time>2020-09-28T11:25:21.000Z</time>
      </trkpt>
      <trkpt lat="45.12555" lon="5.90964">
        <ele>2162.66</ele>
        <time>2020-09-28T11:25:31.000Z</time>
      </trkpt>
      <trkpt lat="45.12556" lon="5.90964">
        <ele>2163.72</ele>
        <time>2020-09-28T11:25:55.000Z</time>
      </trkpt>
      <trkpt lat="45.12558" lon="5.90968">
        <ele>2165.48</ele>
        <time>2020-09-28T11:26:05.000Z</time>
      </trkpt>
      <trkpt lat="45.1256" lon="5.9097">
        <ele>2167.33</ele>
        <time>2020-09-28T11:26:15.000Z</time>
      </trkpt>
      <trkpt lat="45.12563" lon="5.90972">
        <ele>2167.44</ele>
        <time>2020-09-28T11:26:25.000Z</time>
      </trkpt>
      <trkpt lat="45.1257" lon="5.90975">
        <ele>2165.02</ele>
        <time>2020-09-28T11:26:35.000Z</time>
      </trkpt>
      <trkpt lat="45.1258" lon="5.90981">
        <ele>2170.17</ele>
        <time>2020-09-28T11:26:45.000Z</time>
      </trkpt>
      <trkpt lat="45.12585" lon="5.90984">
        <ele>2171.39</ele>
        <time>2020-09-28T11:26:55.000Z</time>
      </trkpt>
      <trkpt lat="45.1259" lon="5.90974">
        <ele>2175.44</ele>
        <time>2020-09-28T11:27:05.000Z</time>
      </trkpt>
      <trkpt lat="45.12592" lon="5.90962">
        <ele>2177.38</ele>
        <time>2020-09-28T11:27:15.000Z</time>
      </trkpt>
      <trkpt lat="45.12594" lon="5.90951">
        <ele>2174.57</ele>
        <time>2020-09-28T11:27:25.000Z</time>
      </trkpt>
      <trkpt lat="45.12594" lon="5.90935">
        <ele>2172.74</ele>
        <time>2020-09-28T11:27:35.000Z</time>
      </trkpt>
      <trkpt lat="45.12594" lon="5.90921">
        <ele>2176.67</ele>
        <time>2020-09-28T11:27:45.000Z</time>
      </trkpt>
      <trkpt lat="45.12595" lon="5.90911">
        <ele>2176.69</ele>
        <time>2020-09-28T11:27:55.000Z</time>
      </trkpt>
      <trkpt lat="45.12597" lon="5.90901">
        <ele>2177.33</ele>
        <time>2020-09-28T11:28:05.000Z</time>
      </trkpt>
      <trkpt lat="45.12596" lon="5.9089">
        <ele>2174.08</ele>
        <time>2020-09-28T11:28:15.000Z</time>
      </trkpt>
      <trkpt lat="45.12595" lon="5.90878">
        <ele>2176.54</ele>
        <time>2020-09-28T11:28:25.000Z</time>
      </trkpt>
      <trkpt lat="45.12595" lon="5.90866">
        <ele>2181.62</ele>
        <time>2020-09-28T11:28:35.000Z</time>
      </trkpt>
      <trkpt lat="45.12595" lon="5.90855">
        <ele>2186.38</ele>
        <time>2020-09-28T11:28:45.000Z</time>
      </trkpt>
      <trkpt lat="45.12594" lon="5.9085">
        <ele>2186.27</ele>
        <time>2020-09-28T11:28:55.000Z</time>
      </trkpt>
      <trkpt lat="45.12589" lon="5.90846">
        <ele>2186.63</ele>
        <time>2020-09-28T11:29:05.000Z</time>
      </trkpt>
      <trkpt lat="45.1259" lon="5.90842">
        <ele>2187.36</ele>
        <time>2020-09-28T11:29:15.000Z</time>
      </trkpt>
      <trkpt lat="45.12591" lon="5.90836">
        <ele>2189.72</ele>
        <time>2020-09-28T11:29:25.000Z</time>
      </trkpt>
      <trkpt lat="45.12591" lon="5.90826">
        <ele>2193.91</ele>
        <time>2020-09-28T11:29:35.000Z</time>
      </trkpt>
      <trkpt lat="45.12591" lon="5.90817">
        <ele>2193.66</ele>
        <time>2020-09-28T11:29:45.000Z</time>
      </trkpt>
      <trkpt lat="45.12591" lon="5.90813">
        <ele>2197.53</ele>
        <time>2020-09-28T11:29:55.000Z</time>
      </trkpt>
      <trkpt lat="45.12591" lon="5.90808">
        <ele>2201.2</ele>
        <time>2020-09-28T11:30:05.000Z</time>
      </trkpt>
      <trkpt lat="45.12591" lon="5.90806">
        <ele>2200.33</ele>
        <time>2020-09-28T11:30:15.000Z</time>
      </trkpt>
      <trkpt lat="45.12591" lon="5.90805">
        <ele>2199.59</ele>
        <time>2020-09-28T11:30:25.000Z</time>
      </trkpt>
      <trkpt lat="45.1259" lon="5.90798">
        <ele>2197.61</ele>
        <time>2020-09-28T11:30:35.000Z</time>
      </trkpt>
      <trkpt lat="45.12591" lon="5.90794">
        <ele>2197.75</ele>
        <time>2020-09-28T11:30:45.000Z</time>
      </trkpt>
      <trkpt lat="45.12592" lon="5.90782">
        <ele>2204.74</ele>
        <time>2020-09-28T11:30:55.000Z</time>
      </trkpt>
      <trkpt lat="45.12594" lon="5.90774">
        <ele>2204.4</ele>
        <time>2020-09-28T11:31:05.000Z</time>
      </trkpt>
      <trkpt lat="45.12595" lon="5.90771">
        <ele>2204.61</ele>
        <time>2020-09-28T11:31:15.000Z</time>
      </trkpt>
      <trkpt lat="45.12593" lon="5.90767">
        <ele>2204.75</ele>
        <time>2020-09-28T11:31:25.000Z</time>
      </trkpt>
      <trkpt lat="45.12593" lon="5.9076">
        <ele>2200.94</ele>
        <time>2020-09-28T11:31:35.000Z</time>
      </trkpt>
      <trkpt lat="45.12594" lon="5.90752">
        <ele>2204.49</ele>
        <time>2020-09-28T11:31:45.000Z</time>
      </trkpt>
      <trkpt lat="45.12597" lon="5.9075">
        <ele>2205.38</ele>
        <time>2020-09-28T11:31:55.000Z</time>
      </trkpt>
      <trkpt lat="45.12596" lon="5.90748">
        <ele>2205.5</ele>
        <time>2020-09-28T11:32:05.000Z</time>
      </trkpt>
      <trkpt lat="45.12597" lon="5.90746">
        <ele>2205.94</ele>
        <time>2020-09-28T11:32:20.000Z</time>
      </trkpt>
      <trkpt lat="45.12596" lon="5.90738">
        <ele>2205.92</ele>
        <time>2020-09-28T11:32:30.000Z</time>
      </trkpt>
      <trkpt lat="45.12596" lon="5.90733">
        <ele>2206.94</ele>
        <time>2020-09-28T11:32:40.000Z</time>
      </trkpt>
      <trkpt lat="45.12596" lon="5.90728">
        <ele>2209.35</ele>
        <time>2020-09-28T11:32:50.000Z</time>
      </trkpt>
      <trkpt lat="45.12596" lon="5.90726">
        <ele>2209.42</ele>
        <time>2020-09-28T11:33:00.000Z</time>
      </trkpt>
      <trkpt lat="45.12595" lon="5.90722">
        <ele>2208.59</ele>
        <time>2020-09-28T11:33:10.000Z</time>
      </trkpt>
      <trkpt lat="45.12594" lon="5.90712">
        <ele>2211.23</ele>
        <time>2020-09-28T11:33:20.000Z</time>
      </trkpt>
      <trkpt lat="45.12595" lon="5.9071">
        <ele>2213.47</ele>
        <time>2020-09-28T11:33:30.000Z</time>
      </trkpt>
      <trkpt lat="45.12594" lon="5.90706">
        <ele>2215.02</ele>
        <time>2020-09-28T11:33:40.000Z</time>
      </trkpt>
      <trkpt lat="45.12594" lon="5.90703">
        <ele>2216.27</ele>
        <time>2020-09-28T11:33:50.000Z</time>
      </trkpt>
      <trkpt lat="45.12594" lon="5.90694">
        <ele>2217.7</ele>
        <time>2020-09-28T11:34:00.000Z</time>
      </trkpt>
      <trkpt lat="45.12593" lon="5.90692">
        <ele>2217.73</ele>
        <time>2020-09-28T11:34:10.000Z</time>
      </trkpt>
      <trkpt lat="45.12592" lon="5.9069">
        <ele>2219.13</ele>
        <time>2020-09-28T11:34:20.000Z</time>
      </trkpt>
      <trkpt lat="45.1259" lon="5.90683">
        <ele>2221.53</ele>
        <time>2020-09-28T11:34:30.000Z</time>
      </trkpt>
      <trkpt lat="45.12588" lon="5.90674">
        <ele>2217.74</ele>
        <time>2020-09-28T11:34:40.000Z</time>
      </trkpt>
      <trkpt lat="45.12587" lon="5.90661">
        <ele>2217.87</ele>
        <time>2020-09-28T11:34:50.000Z</time>
      </trkpt>
      <trkpt lat="45.12585" lon="5.90657">
        <ele>2218.79</ele>
        <time>2020-09-28T11:35:00.000Z</time>
      </trkpt>
      <trkpt lat="45.12584" lon="5.90658">
        <ele>2219.24</ele>
        <time>2020-09-28T11:35:16.000Z</time>
      </trkpt>
      <trkpt lat="45.12583" lon="5.90655">
        <ele>2221.38</ele>
        <time>2020-09-28T11:35:26.000Z</time>
      </trkpt>
      <trkpt lat="45.12583" lon="5.90653">
        <ele>2222.63</ele>
        <time>2020-09-28T11:35:36.000Z</time>
      </trkpt>
      <trkpt lat="45.12581" lon="5.90648">
        <ele>2223.75</ele>
        <time>2020-09-28T11:35:46.000Z</time>
      </trkpt>
      <trkpt lat="45.12581" lon="5.90644">
        <ele>2225.21</ele>
        <time>2020-09-28T11:35:56.000Z</time>
      </trkpt>
      <trkpt lat="45.12579" lon="5.90637">
        <ele>2229.74</ele>
        <time>2020-09-28T11:36:06.000Z</time>
      </trkpt>
      <trkpt lat="45.12577" lon="5.90635">
        <ele>2229.86</ele>
        <time>2020-09-28T11:36:16.000Z</time>
      </trkpt>
      <trkpt lat="45.12576" lon="5.90631">
        <ele>2232.59</ele>
        <time>2020-09-28T11:36:26.000Z</time>
      </trkpt>
      <trkpt lat="45.12574" lon="5.90625">
        <ele>2233.8</ele>
        <time>2020-09-28T11:36:36.000Z</time>
      </trkpt>
      <trkpt lat="45.12574" lon="5.9062">
        <ele>2232.37</ele>
        <time>2020-09-28T11:36:46.000Z</time>
      </trkpt>
      <trkpt lat="45.12574" lon="5.90615">
        <ele>2233.65</ele>
        <time>2020-09-28T11:36:56.000Z</time>
      </trkpt>
      <trkpt lat="45.12573" lon="5.90612">
        <ele>2231.7</ele>
        <time>2020-09-28T11:37:06.000Z</time>
      </trkpt>
      <trkpt lat="45.12571" lon="5.90606">
        <ele>2230.67</ele>
        <time>2020-09-28T11:37:16.000Z</time>
      </trkpt>
      <trkpt lat="45.12569" lon="5.90603">
        <ele>2230.71</ele>
        <time>2020-09-28T11:37:26.000Z</time>
      </trkpt>
      <trkpt lat="45.12569" lon="5.90599">
        <ele>2231.89</ele>
        <time>2020-09-28T11:37:36.000Z</time>
      </trkpt>
      <trkpt lat="45.12568" lon="5.90595">
        <ele>2231.61</ele>
        <time>2020-09-28T11:37:46.000Z</time>
      </trkpt>
      <trkpt lat="45.12567" lon="5.9059">
        <ele>2233.35</ele>
        <time>2020-09-28T11:37:56.000Z</time>
      </trkpt>
      <trkpt lat="45.12561" lon="5.90582">
        <ele>2239.68</ele>
        <time>2020-09-28T11:38:06.000Z</time>
      </trkpt>
      <trkpt lat="45.12554" lon="5.90576">
        <ele>2241.57</ele>
        <time>2020-09-28T11:38:16.000Z</time>
      </trkpt>
      <trkpt lat="45.12551" lon="5.90565">
        <ele>2242.49</ele>
        <time>2020-09-28T11:38:26.000Z</time>
      </trkpt>
      <trkpt lat="45.12549" lon="5.90554">
        <ele>2244.45</ele>
        <time>2020-09-28T11:38:36.000Z</time>
      </trkpt>
      <trkpt lat="45.12549" lon="5.90551">
        <ele>2242.9</ele>
        <time>2020-09-28T11:38:46.000Z</time>
      </trkpt>
      <trkpt lat="45.1255" lon="5.9055">
        <ele>2244.56</ele>
        <time>2020-09-28T11:39:39.000Z</time>
      </trkpt>
      <trkpt lat="45.12552" lon="5.9055">
        <ele>2246.18</ele>
        <time>2020-09-28T11:39:49.000Z</time>
      </trkpt>
      <trkpt lat="45.12552" lon="5.90548">
        <ele>2246.11</ele>
        <time>2020-09-28T11:40:02.000Z</time>
      </trkpt>
      <trkpt lat="45.12552" lon="5.90547">
        <ele>2244.95</ele>
        <time>2020-09-28T11:40:23.000Z</time>
      </trkpt>
      <trkpt lat="45.12556" lon="5.90545">
        <ele>2247.99</ele>
        <time>2020-09-28T11:40:33.000Z</time>
      </trkpt>
      <trkpt lat="45.12558" lon="5.90543">
        <ele>2246.21</ele>
        <time>2020-09-28T11:40:43.000Z</time>
      </trkpt>
      <trkpt lat="45.12558" lon="5.90545">
        <ele>2244.6</ele>
        <time>2020-09-28T11:40:53.000Z</time>
      </trkpt>
      <trkpt lat="45.12559" lon="5.90544">
        <ele>2241.86</ele>
        <time>2020-09-28T11:41:29.000Z</time>
      </trkpt>
      <trkpt lat="45.1256" lon="5.90545">
        <ele>2245.24</ele>
        <time>2020-09-28T11:41:39.000Z</time>
      </trkpt>
      <trkpt lat="45.12559" lon="5.90544">
        <ele>2247.53</ele>
        <time>2020-09-28T11:41:49.000Z</time>
      </trkpt>
      <trkpt lat="45.12558" lon="5.90543">
        <ele>2246.14</ele>
        <time>2020-09-28T11:41:59.000Z</time>
      </trkpt>
      <trkpt lat="45.12558" lon="5.90544">
        <ele>2247.3</ele>
        <time>2020-09-28T11:42:31.000Z</time>
      </trkpt>
      <trkpt lat="45.12563" lon="5.90543">
        <ele>2246.02</ele>
        <time>2020-09-28T11:42:41.000Z</time>
      </trkpt>
      <trkpt lat="45.12568" lon="5.90537">
        <ele>2247.63</ele>
        <time>2020-09-28T11:42:51.000Z</time>
      </trkpt>
      <trkpt lat="45.12568" lon="5.90539">
        <ele>2247.9</ele>
        <time>2020-09-28T11:43:01.000Z</time>
      </trkpt>
      <trkpt lat="45.12563" lon="5.90544">
        <ele>2246.93</ele>
        <time>2020-09-28T11:43:11.000Z</time>
      </trkpt>
      <trkpt lat="45.12558" lon="5.90541">
        <ele>2246.46</ele>
        <time>2020-09-28T11:43:21.000Z</time>
      </trkpt>
      <trkpt lat="45.12556" lon="5.90553">
        <ele>2246.25</ele>
        <time>2020-09-28T11:43:31.000Z</time>
      </trkpt>
      <trkpt lat="45.12558" lon="5.90554">
        <ele>2245.75</ele>
        <time>2020-09-28T11:43:41.000Z</time>
      </trkpt>
      <trkpt lat="45.12558" lon="5.90551">
        <ele>2247.31</ele>
        <time>2020-09-28T11:43:55.000Z</time>
      </trkpt>
      <trkpt lat="45.12556" lon="5.90545">
        <ele>2245.51</ele>
        <time>2020-09-28T11:44:05.000Z</time>
      </trkpt>
      <trkpt lat="45.12557" lon="5.90544">
        <ele>2244.49</ele>
        <time>2020-09-28T11:44:22.000Z</time>
      </trkpt>
      <trkpt lat="45.12558" lon="5.90543">
        <ele>2245.46</ele>
        <time>2020-09-28T11:44:44.000Z</time>
      </trkpt>
      <trkpt lat="45.12563" lon="5.90532">
        <ele>2244.05</ele>
        <time>2020-09-28T11:44:54.000Z</time>
      </trkpt>
      <trkpt lat="45.12561" lon="5.90538">
        <ele>2245</ele>
        <time>2020-09-28T11:45:04.000Z</time>
      </trkpt>
      <trkpt lat="45.1256" lon="5.90539">
        <ele>2244.47</ele>
        <time>2020-09-28T11:45:14.000Z</time>
      </trkpt>
      <trkpt lat="45.12559" lon="5.9054">
        <ele>2244.01</ele>
        <time>2020-09-28T11:47:13.000Z</time>
      </trkpt>
      <trkpt lat="45.12557" lon="5.90542">
        <ele>2247.76</ele>
        <time>2020-09-28T11:47:23.000Z</time>
      </trkpt>
      <trkpt lat="45.12559" lon="5.90543">
        <ele>2245.81</ele>
        <time>2020-09-28T11:47:33.000Z</time>
      </trkpt>
      <trkpt lat="45.12557" lon="5.90543">
        <ele>2247.73</ele>
        <time>2020-09-28T11:47:43.000Z</time>
      </trkpt>
      <trkpt lat="45.12559" lon="5.90546">
        <ele>2246.13</ele>
        <time>2020-09-28T11:47:53.000Z</time>
      </trkpt>
      <trkpt lat="45.12561" lon="5.90544">
        <ele>2241.91</ele>
        <time>2020-09-28T11:48:03.000Z</time>
      </trkpt>
      <trkpt lat="45.12559" lon="5.90544">
        <ele>2241.66</ele>
        <time>2020-09-28T11:48:13.000Z</time>
      </trkpt>
      <trkpt lat="45.12559" lon="5.90543">
        <ele>2243.03</ele>
        <time>2020-09-28T11:48:23.000Z</time>
      </trkpt>
      <trkpt lat="45.12558" lon="5.9054">
        <ele>2245.73</ele>
        <time>2020-09-28T11:49:17.000Z</time>
      </trkpt>
      <trkpt lat="45.12554" lon="5.90551">
        <ele>2243.47</ele>
        <time>2020-09-28T11:49:27.000Z</time>
      </trkpt>
      <trkpt lat="45.12556" lon="5.90548">
        <ele>2243.88</ele>
        <time>2020-09-28T11:49:37.000Z</time>
      </trkpt>
      <trkpt lat="45.1256" lon="5.90547">
        <ele>2241.15</ele>
        <time>2020-09-28T11:49:47.000Z</time>
      </trkpt>
      <trkpt lat="45.12557" lon="5.90548">
        <ele>2243.19</ele>
        <time>2020-09-28T11:49:57.000Z</time>
      </trkpt>
      <trkpt lat="45.12556" lon="5.90549">
        <ele>2244.68</ele>
        <time>2020-09-28T11:50:07.000Z</time>
      </trkpt>
      <trkpt lat="45.12555" lon="5.90548">
        <ele>2245.65</ele>
        <time>2020-09-28T11:50:48.000Z</time>
      </trkpt>
      <trkpt lat="45.12554" lon="5.90547">
        <ele>2246.28</ele>
        <time>2020-09-28T11:51:37.000Z</time>
      </trkpt>
      <trkpt lat="45.12553" lon="5.90549">
        <ele>2247.08</ele>
        <time>2020-09-28T11:51:47.000Z</time>
      </trkpt>
      <trkpt lat="45.12553" lon="5.90551">
        <ele>2246.03</ele>
        <time>2020-09-28T11:52:41.000Z</time>
      </trkpt>
      <trkpt lat="45.12557" lon="5.90545">
        <ele>2242.91</ele>
        <time>2020-09-28T11:52:51.000Z</time>
      </trkpt>
      <trkpt lat="45.12557" lon="5.90544">
        <ele>2241.97</ele>
        <time>2020-09-28T11:53:16.000Z</time>
      </trkpt>
      <trkpt lat="45.12558" lon="5.90546">
        <ele>2241.29</ele>
        <time>2020-09-28T11:53:26.000Z</time>
      </trkpt>
      <trkpt lat="45.12558" lon="5.90545">
        <ele>2242.31</ele>
        <time>2020-09-28T11:54:04.000Z</time>
      </trkpt>
      <trkpt lat="45.12556" lon="5.90545">
        <ele>2243.77</ele>
        <time>2020-09-28T11:54:14.000Z</time>
      </trkpt>
      <trkpt lat="45.12553" lon="5.90547">
        <ele>2239.29</ele>
        <time>2020-09-28T11:54:24.000Z</time>
      </trkpt>
      <trkpt lat="45.12546" lon="5.90551">
        <ele>2238.96</ele>
        <time>2020-09-28T11:54:34.000Z</time>
      </trkpt>
      <trkpt lat="45.12548" lon="5.90539">
        <ele>2245.61</ele>
        <time>2020-09-28T11:54:44.000Z</time>
      </trkpt>
      <trkpt lat="45.12548" lon="5.90531">
        <ele>2246.66</ele>
        <time>2020-09-28T11:54:54.000Z</time>
      </trkpt>
      <trkpt lat="45.12548" lon="5.90517">
        <ele>2246.95</ele>
        <time>2020-09-28T11:55:04.000Z</time>
      </trkpt>
      <trkpt lat="45.12548" lon="5.90514">
        <ele>2246.32</ele>
        <time>2020-09-28T11:55:14.000Z</time>
      </trkpt>
      <trkpt lat="45.12555" lon="5.90508">
        <ele>2243.04</ele>
        <time>2020-09-28T11:55:24.000Z</time>
      </trkpt>
      <trkpt lat="45.12561" lon="5.90504">
        <ele>2244.1</ele>
        <time>2020-09-28T11:55:34.000Z</time>
      </trkpt>
      <trkpt lat="45.1257" lon="5.90503">
        <ele>2245.58</ele>
        <time>2020-09-28T11:55:44.000Z</time>
      </trkpt>
      <trkpt lat="45.12569" lon="5.90501">
        <ele>2244.17</ele>
        <time>2020-09-28T11:55:54.000Z</time>
      </trkpt>
      <trkpt lat="45.12571" lon="5.905">
        <ele>2245.05</ele>
        <time>2020-09-28T11:56:04.000Z</time>
      </trkpt>
      <trkpt lat="45.1257" lon="5.90501">
        <ele>2244.79</ele>
        <time>2020-09-28T11:56:21.000Z</time>
      </trkpt>
      <trkpt lat="45.12564" lon="5.90498">
        <ele>2243.33</ele>
        <time>2020-09-28T11:56:31.000Z</time>
      </trkpt>
      <trkpt lat="45.12558" lon="5.90488">
        <ele>2239.43</ele>
        <time>2020-09-28T11:56:41.000Z</time>
      </trkpt>
      <trkpt lat="45.12554" lon="5.90483">
        <ele>2240.86</ele>
        <time>2020-09-28T11:56:51.000Z</time>
      </trkpt>
      <trkpt lat="45.12552" lon="5.90483">
        <ele>2241.57</ele>
        <time>2020-09-28T11:57:01.000Z</time>
      </trkpt>
      <trkpt lat="45.12549" lon="5.90479">
        <ele>2241.3</ele>
        <time>2020-09-28T11:57:11.000Z</time>
      </trkpt>
      <trkpt lat="45.12541" lon="5.90468">
        <ele>2243.17</ele>
        <time>2020-09-28T11:57:21.000Z</time>
      </trkpt>
      <trkpt lat="45.12537" lon="5.90453">
        <ele>2242.19</ele>
        <time>2020-09-28T11:57:31.000Z</time>
      </trkpt>
      <trkpt lat="45.12534" lon="5.9044">
        <ele>2241.86</ele>
        <time>2020-09-28T11:57:41.000Z</time>
      </trkpt>
      <trkpt lat="45.1253" lon="5.90428">
        <ele>2241.34</ele>
        <time>2020-09-28T11:57:51.000Z</time>
      </trkpt>
      <trkpt lat="45.12525" lon="5.90413">
        <ele>2237.69</ele>
        <time>2020-09-28T11:58:01.000Z</time>
      </trkpt>
      <trkpt lat="45.12523" lon="5.90399">
        <ele>2239.86</ele>
        <time>2020-09-28T11:58:11.000Z</time>
      </trkpt>
      <trkpt lat="45.12517" lon="5.90383">
        <ele>2241.73</ele>
        <time>2020-09-28T11:58:21.000Z</time>
      </trkpt>
      <trkpt lat="45.12512" lon="5.9037">
        <ele>2239.34</ele>
        <time>2020-09-28T11:58:31.000Z</time>
      </trkpt>
      <trkpt lat="45.1251" lon="5.90362">
        <ele>2238.69</ele>
        <time>2020-09-28T11:58:41.000Z</time>
      </trkpt>
      <trkpt lat="45.12507" lon="5.90354">
        <ele>2237.16</ele>
        <time>2020-09-28T11:58:51.000Z</time>
      </trkpt>
      <trkpt lat="45.12504" lon="5.90343">
        <ele>2234.95</ele>
        <time>2020-09-28T11:59:01.000Z</time>
      </trkpt>
      <trkpt lat="45.12504" lon="5.90328">
        <ele>2227.34</ele>
        <time>2020-09-28T11:59:11.000Z</time>
      </trkpt>
      <trkpt lat="45.12499" lon="5.90319">
        <ele>2226.6</ele>
        <time>2020-09-28T11:59:21.000Z</time>
      </trkpt>
      <trkpt lat="45.12495" lon="5.90305">
        <ele>2225.95</ele>
        <time>2020-09-28T11:59:31.000Z</time>
      </trkpt>
      <trkpt lat="45.12493" lon="5.90299">
        <ele>2223.07</ele>
        <time>2020-09-28T11:59:41.000Z</time>
      </trkpt>
      <trkpt lat="45.12488" lon="5.90292">
        <ele>2222.34</ele>
        <time>2020-09-28T11:59:51.000Z</time>
      </trkpt>
      <trkpt lat="45.12485" lon="5.90287">
        <ele>2220.53</ele>
        <time>2020-09-28T12:00:01.000Z</time>
      </trkpt>
      <trkpt lat="45.12485" lon="5.90285">
        <ele>2221.34</ele>
        <time>2020-09-28T12:00:11.000Z</time>
      </trkpt>
      <trkpt lat="45.12485" lon="5.90284">
        <ele>2223.29</ele>
        <time>2020-09-28T12:00:40.000Z</time>
      </trkpt>
      <trkpt lat="45.12484" lon="5.90282">
        <ele>2223.49</ele>
        <time>2020-09-28T12:03:50.000Z</time>
      </trkpt>
      <trkpt lat="45.12478" lon="5.9027">
        <ele>2224.41</ele>
        <time>2020-09-28T12:04:00.000Z</time>
      </trkpt>
      <trkpt lat="45.12474" lon="5.90264">
        <ele>2222.27</ele>
        <time>2020-09-28T12:04:10.000Z</time>
      </trkpt>
      <trkpt lat="45.12469" lon="5.90251">
        <ele>2222.92</ele>
        <time>2020-09-28T12:04:20.000Z</time>
      </trkpt>
      <trkpt lat="45.12464" lon="5.9024">
        <ele>2216.88</ele>
        <time>2020-09-28T12:04:30.000Z</time>
      </trkpt>
      <trkpt lat="45.12456" lon="5.90229">
        <ele>2217.27</ele>
        <time>2020-09-28T12:04:40.000Z</time>
      </trkpt>
      <trkpt lat="45.12452" lon="5.90214">
        <ele>2216.16</ele>
        <time>2020-09-28T12:04:50.000Z</time>
      </trkpt>
      <trkpt lat="45.12445" lon="5.90199">
        <ele>2211.44</ele>
        <time>2020-09-28T12:05:00.000Z</time>
      </trkpt>
      <trkpt lat="45.12437" lon="5.90188">
        <ele>2207.89</ele>
        <time>2020-09-28T12:05:10.000Z</time>
      </trkpt>
      <trkpt lat="45.12431" lon="5.90179">
        <ele>2206</ele>
        <time>2020-09-28T12:05:20.000Z</time>
      </trkpt>
      <trkpt lat="45.12423" lon="5.90173">
        <ele>2205.64</ele>
        <time>2020-09-28T12:05:30.000Z</time>
      </trkpt>
      <trkpt lat="45.12412" lon="5.90172">
        <ele>2203.79</ele>
        <time>2020-09-28T12:05:40.000Z</time>
      </trkpt>
      <trkpt lat="45.12403" lon="5.90171">
        <ele>2200.13</ele>
        <time>2020-09-28T12:05:50.000Z</time>
      </trkpt>
      <trkpt lat="45.12396" lon="5.90171">
        <ele>2199.88</ele>
        <time>2020-09-28T12:06:00.000Z</time>
      </trkpt>
      <trkpt lat="45.12389" lon="5.90169">
        <ele>2199.69</ele>
        <time>2020-09-28T12:06:10.000Z</time>
      </trkpt>
      <trkpt lat="45.12387" lon="5.90171">
        <ele>2200.55</ele>
        <time>2020-09-28T12:06:20.000Z</time>
      </trkpt>
      <trkpt lat="45.12386" lon="5.90171">
        <ele>2202.49</ele>
        <time>2020-09-28T12:07:23.000Z</time>
      </trkpt>
      <trkpt lat="45.12386" lon="5.90173">
        <ele>2202.85</ele>
        <time>2020-09-28T12:07:33.000Z</time>
      </trkpt>
      <trkpt lat="45.12387" lon="5.90173">
        <ele>2202.56</ele>
        <time>2020-09-28T12:07:47.000Z</time>
      </trkpt>
      <trkpt lat="45.12386" lon="5.90171">
        <ele>2203.01</ele>
        <time>2020-09-28T12:10:06.000Z</time>
      </trkpt>
      <trkpt lat="45.1238" lon="5.9016">
        <ele>2198.41</ele>
        <time>2020-09-28T12:10:16.000Z</time>
      </trkpt>
      <trkpt lat="45.12373" lon="5.90147">
        <ele>2200.05</ele>
        <time>2020-09-28T12:10:26.000Z</time>
      </trkpt>
      <trkpt lat="45.12364" lon="5.90134">
        <ele>2197.42</ele>
        <time>2020-09-28T12:10:36.000Z</time>
      </trkpt>
      <trkpt lat="45.12355" lon="5.90124">
        <ele>2197.79</ele>
        <time>2020-09-28T12:10:46.000Z</time>
      </trkpt>
      <trkpt lat="45.12347" lon="5.90114">
        <ele>2191.15</ele>
        <time>2020-09-28T12:10:56.000Z</time>
      </trkpt>
      <trkpt lat="45.12342" lon="5.90106">
        <ele>2182.69</ele>
        <time>2020-09-28T12:11:06.000Z</time>
      </trkpt>
      <trkpt lat="45.12333" lon="5.90098">
        <ele>2182.17</ele>
        <time>2020-09-28T12:11:16.000Z</time>
      </trkpt>
      <trkpt lat="45.12325" lon="5.90091">
        <ele>2180.15</ele>
        <time>2020-09-28T12:11:26.000Z</time>
      </trkpt>
      <trkpt lat="45.12317" lon="5.90081">
        <ele>2177.87</ele>
        <time>2020-09-28T12:11:36.000Z</time>
      </trkpt>
      <trkpt lat="45.12311" lon="5.90075">
        <ele>2180.66</ele>
        <time>2020-09-28T12:11:46.000Z</time>
      </trkpt>
      <trkpt lat="45.12304" lon="5.90067">
        <ele>2180.34</ele>
        <time>2020-09-28T12:11:56.000Z</time>
      </trkpt>
      <trkpt lat="45.12294" lon="5.90057">
        <ele>2183.79</ele>
        <time>2020-09-28T12:12:06.000Z</time>
      </trkpt>
      <trkpt lat="45.12284" lon="5.90051">
        <ele>2183.95</ele>
        <time>2020-09-28T12:12:16.000Z</time>
      </trkpt>
      <trkpt lat="45.12282" lon="5.90042">
        <ele>2182.35</ele>
        <time>2020-09-28T12:12:26.000Z</time>
      </trkpt>
      <trkpt lat="45.12275" lon="5.90034">
        <ele>2179.14</ele>
        <time>2020-09-28T12:12:36.000Z</time>
      </trkpt>
      <trkpt lat="45.12267" lon="5.90027">
        <ele>2176.89</ele>
        <time>2020-09-28T12:12:46.000Z</time>
      </trkpt>
      <trkpt lat="45.12254" lon="5.90025">
        <ele>2177.05</ele>
        <time>2020-09-28T12:12:56.000Z</time>
      </trkpt>
      <trkpt lat="45.12245" lon="5.90017">
        <ele>2170.78</ele>
        <time>2020-09-28T12:13:06.000Z</time>
      </trkpt>
      <trkpt lat="45.12237" lon="5.90008">
        <ele>2168.62</ele>
        <time>2020-09-28T12:13:16.000Z</time>
      </trkpt>
      <trkpt lat="45.12237" lon="5.89997">
        <ele>2166.51</ele>
        <time>2020-09-28T12:13:26.000Z</time>
      </trkpt>
      <trkpt lat="45.12227" lon="5.89994">
        <ele>2162.98</ele>
        <time>2020-09-28T12:13:36.000Z</time>
      </trkpt>
      <trkpt lat="45.1222" lon="5.89989">
        <ele>2161.51</ele>
        <time>2020-09-28T12:13:46.000Z</time>
      </trkpt>
      <trkpt lat="45.12215" lon="5.89978">
        <ele>2161.93</ele>
        <time>2020-09-28T12:13:56.000Z</time>
      </trkpt>
      <trkpt lat="45.12207" lon="5.89975">
        <ele>2160.94</ele>
        <time>2020-09-28T12:14:06.000Z</time>
      </trkpt>
      <trkpt lat="45.12197" lon="5.89973">
        <ele>2160.5</ele>
        <time>2020-09-28T12:14:16.000Z</time>
      </trkpt>
      <trkpt lat="45.12187" lon="5.89972">
        <ele>2156.18</ele>
        <time>2020-09-28T12:14:26.000Z</time>
      </trkpt>
      <trkpt lat="45.12177" lon="5.89971">
        <ele>2154.96</ele>
        <time>2020-09-28T12:14:36.000Z</time>
      </trkpt>
      <trkpt lat="45.12166" lon="5.89971">
        <ele>2152.4</ele>
        <time>2020-09-28T12:14:46.000Z</time>
      </trkpt>
      <trkpt lat="45.12158" lon="5.8997">
        <ele>2149.3</ele>
        <time>2020-09-28T12:14:56.000Z</time>
      </trkpt>
      <trkpt lat="45.12153" lon="5.89971">
        <ele>2148.85</ele>
        <time>2020-09-28T12:15:06.000Z</time>
      </trkpt>
      <trkpt lat="45.12144" lon="5.89969">
        <ele>2150.89</ele>
        <time>2020-09-28T12:15:16.000Z</time>
      </trkpt>
      <trkpt lat="45.12138" lon="5.89968">
        <ele>2145.07</ele>
        <time>2020-09-28T12:15:26.000Z</time>
      </trkpt>
      <trkpt lat="45.12137" lon="5.89969">
        <ele>2145.55</ele>
        <time>2020-09-28T12:15:36.000Z</time>
      </trkpt>
      <trkpt lat="45.12131" lon="5.89968">
        <ele>2146.65</ele>
        <time>2020-09-28T12:15:46.000Z</time>
      </trkpt>
      <trkpt lat="45.12121" lon="5.89966">
        <ele>2147.77</ele>
        <time>2020-09-28T12:15:56.000Z</time>
      </trkpt>
      <trkpt lat="45.12112" lon="5.89963">
        <ele>2148.89</ele>
        <time>2020-09-28T12:16:06.000Z</time>
      </trkpt>
      <trkpt lat="45.12103" lon="5.89959">
        <ele>2146.59</ele>
        <time>2020-09-28T12:16:16.000Z</time>
      </trkpt>
      <trkpt lat="45.12097" lon="5.89958">
        <ele>2146.36</ele>
        <time>2020-09-28T12:16:26.000Z</time>
      </trkpt>
      <trkpt lat="45.12098" lon="5.89958">
        <ele>2146.29</ele>
        <time>2020-09-28T12:17:09.000Z</time>
      </trkpt>
      <trkpt lat="45.12098" lon="5.89961">
        <ele>2144.93</ele>
        <time>2020-09-28T12:17:19.000Z</time>
      </trkpt>
      <trkpt lat="45.12096" lon="5.89961">
        <ele>2143.93</ele>
        <time>2020-09-28T12:17:29.000Z</time>
      </trkpt>
      <trkpt lat="45.12096" lon="5.89962">
        <ele>2143.25</ele>
        <time>2020-09-28T12:17:52.000Z</time>
      </trkpt>
      <trkpt lat="45.12095" lon="5.8996">
        <ele>2145.19</ele>
        <time>2020-09-28T12:18:02.000Z</time>
      </trkpt>
      <trkpt lat="45.12096" lon="5.89958">
        <ele>2144.92</ele>
        <time>2020-09-28T12:18:18.000Z</time>
      </trkpt>
      <trkpt lat="45.12098" lon="5.89958">
        <ele>2142.8</ele>
        <time>2020-09-28T12:18:28.000Z</time>
      </trkpt>
      <trkpt lat="45.12095" lon="5.89956">
        <ele>2144.07</ele>
        <time>2020-09-28T12:18:38.000Z</time>
      </trkpt>
      <trkpt lat="45.12083" lon="5.8995">
        <ele>2141.94</ele>
        <time>2020-09-28T12:18:48.000Z</time>
      </trkpt>
      <trkpt lat="45.12073" lon="5.89949">
        <ele>2134.66</ele>
        <time>2020-09-28T12:18:58.000Z</time>
      </trkpt>
      <trkpt lat="45.12067" lon="5.89944">
        <ele>2137.54</ele>
        <time>2020-09-28T12:19:08.000Z</time>
      </trkpt>
      <trkpt lat="45.12059" lon="5.89939">
        <ele>2138.27</ele>
        <time>2020-09-28T12:19:18.000Z</time>
      </trkpt>
      <trkpt lat="45.12056" lon="5.89938">
        <ele>2141.84</ele>
        <time>2020-09-28T12:19:28.000Z</time>
      </trkpt>
      <trkpt lat="45.12054" lon="5.89936">
        <ele>2142.67</ele>
        <time>2020-09-28T12:19:38.000Z</time>
      </trkpt>
      <trkpt lat="45.12053" lon="5.89935">
        <ele>2142.97</ele>
        <time>2020-09-28T12:19:48.000Z</time>
      </trkpt>
      <trkpt lat="45.12052" lon="5.89933">
        <ele>2142.4</ele>
        <time>2020-09-28T12:19:58.000Z</time>
      </trkpt>
      <trkpt lat="45.12048" lon="5.89923">
        <ele>2136.83</ele>
        <time>2020-09-28T12:20:08.000Z</time>
      </trkpt>
      <trkpt lat="45.1204" lon="5.89914">
        <ele>2138.29</ele>
        <time>2020-09-28T12:20:18.000Z</time>
      </trkpt>
      <trkpt lat="45.12031" lon="5.89906">
        <ele>2139.58</ele>
        <time>2020-09-28T12:20:28.000Z</time>
      </trkpt>
      <trkpt lat="45.12023" lon="5.89898">
        <ele>2138.84</ele>
        <time>2020-09-28T12:20:38.000Z</time>
      </trkpt>
      <trkpt lat="45.12019" lon="5.89896">
        <ele>2139.46</ele>
        <time>2020-09-28T12:20:48.000Z</time>
      </trkpt>
      <trkpt lat="45.12012" lon="5.89885">
        <ele>2140</ele>
        <time>2020-09-28T12:20:58.000Z</time>
      </trkpt>
      <trkpt lat="45.12004" lon="5.89873">
        <ele>2137.57</ele>
        <time>2020-09-28T12:21:08.000Z</time>
      </trkpt>
      <trkpt lat="45.11997" lon="5.89864">
        <ele>2136.38</ele>
        <time>2020-09-28T12:21:18.000Z</time>
      </trkpt>
      <trkpt lat="45.11988" lon="5.89855">
        <ele>2136.61</ele>
        <time>2020-09-28T12:21:28.000Z</time>
      </trkpt>
      <trkpt lat="45.11979" lon="5.8985">
        <ele>2136.73</ele>
        <time>2020-09-28T12:21:38.000Z</time>
      </trkpt>
      <trkpt lat="45.1197" lon="5.89844">
        <ele>2136.69</ele>
        <time>2020-09-28T12:21:48.000Z</time>
      </trkpt>
      <trkpt lat="45.11961" lon="5.89841">
        <ele>2133.96</ele>
        <time>2020-09-28T12:21:58.000Z</time>
      </trkpt>
      <trkpt lat="45.11953" lon="5.89837">
        <ele>2133.74</ele>
        <time>2020-09-28T12:22:08.000Z</time>
      </trkpt>
      <trkpt lat="45.11946" lon="5.89828">
        <ele>2136.34</ele>
        <time>2020-09-28T12:22:18.000Z</time>
      </trkpt>
      <trkpt lat="45.11942" lon="5.89821">
        <ele>2136.31</ele>
        <time>2020-09-28T12:22:28.000Z</time>
      </trkpt>
      <trkpt lat="45.11939" lon="5.89819">
        <ele>2134.53</ele>
        <time>2020-09-28T12:22:38.000Z</time>
      </trkpt>
      <trkpt lat="45.11935" lon="5.89812">
        <ele>2132.71</ele>
        <time>2020-09-28T12:22:48.000Z</time>
      </trkpt>
      <trkpt lat="45.11937" lon="5.89805">
        <ele>2131.11</ele>
        <time>2020-09-28T12:22:58.000Z</time>
      </trkpt>
      <trkpt lat="45.1194" lon="5.89796">
        <ele>2128.04</ele>
        <time>2020-09-28T12:23:08.000Z</time>
      </trkpt>
      <trkpt lat="45.11939" lon="5.89786">
        <ele>2127.32</ele>
        <time>2020-09-28T12:23:18.000Z</time>
      </trkpt>
      <trkpt lat="45.11938" lon="5.89777">
        <ele>2128.61</ele>
        <time>2020-09-28T12:23:28.000Z</time>
      </trkpt>
      <trkpt lat="45.11939" lon="5.89766">
        <ele>2126.99</ele>
        <time>2020-09-28T12:23:38.000Z</time>
      </trkpt>
      <trkpt lat="45.11933" lon="5.89758">
        <ele>2127.56</ele>
        <time>2020-09-28T12:23:48.000Z</time>
      </trkpt>
      <trkpt lat="45.11932" lon="5.89757">
        <ele>2127.65</ele>
        <time>2020-09-28T12:23:58.000Z</time>
      </trkpt>
      <trkpt lat="45.11932" lon="5.89757">
        <ele>2127.08</ele>
        <time>2020-09-28T12:24:24.000Z</time>
      </trkpt>
      <trkpt lat="45.11931" lon="5.89756">
        <ele>2125.47</ele>
        <time>2020-09-28T12:24:55.000Z</time>
      </trkpt>
      <trkpt lat="45.11926" lon="5.89752">
        <ele>2122.99</ele>
        <time>2020-09-28T12:25:05.000Z</time>
      </trkpt>
      <trkpt lat="45.11924" lon="5.89749">
        <ele>2122.88</ele>
        <time>2020-09-28T12:25:15.000Z</time>
      </trkpt>
      <trkpt lat="45.11923" lon="5.89749">
        <ele>2122.1</ele>
        <time>2020-09-28T12:25:55.000Z</time>
      </trkpt>
      <trkpt lat="45.1192" lon="5.89741">
        <ele>2119.77</ele>
        <time>2020-09-28T12:26:05.000Z</time>
      </trkpt>
      <trkpt lat="45.11912" lon="5.89732">
        <ele>2120.35</ele>
        <time>2020-09-28T12:26:15.000Z</time>
      </trkpt>
      <trkpt lat="45.11905" lon="5.89722">
        <ele>2116.8</ele>
        <time>2020-09-28T12:26:25.000Z</time>
      </trkpt>
      <trkpt lat="45.11898" lon="5.89713">
        <ele>2115.29</ele>
        <time>2020-09-28T12:26:35.000Z</time>
      </trkpt>
      <trkpt lat="45.11892" lon="5.89701">
        <ele>2111.8</ele>
        <time>2020-09-28T12:26:45.000Z</time>
      </trkpt>
      <trkpt lat="45.11889" lon="5.89698">
        <ele>2109.06</ele>
        <time>2020-09-28T12:26:55.000Z</time>
      </trkpt>
      <trkpt lat="45.11882" lon="5.89688">
        <ele>2108.85</ele>
        <time>2020-09-28T12:27:05.000Z</time>
      </trkpt>
      <trkpt lat="45.11876" lon="5.89675">
        <ele>2107.28</ele>
        <time>2020-09-28T12:27:15.000Z</time>
      </trkpt>
      <trkpt lat="45.11869" lon="5.89665">
        <ele>2104.8</ele>
        <time>2020-09-28T12:27:25.000Z</time>
      </trkpt>
      <trkpt lat="45.11857" lon="5.89654">
        <ele>2103.88</ele>
        <time>2020-09-28T12:27:35.000Z</time>
      </trkpt>
      <trkpt lat="45.11848" lon="5.89645">
        <ele>2102.68</ele>
        <time>2020-09-28T12:27:45.000Z</time>
      </trkpt>
      <trkpt lat="45.11843" lon="5.89636">
        <ele>2102.21</ele>
        <time>2020-09-28T12:27:55.000Z</time>
      </trkpt>
      <trkpt lat="45.11839" lon="5.89626">
        <ele>2098.83</ele>
        <time>2020-09-28T12:28:05.000Z</time>
      </trkpt>
      <trkpt lat="45.11836" lon="5.89615">
        <ele>2099.09</ele>
        <time>2020-09-28T12:28:15.000Z</time>
      </trkpt>
      <trkpt lat="45.11834" lon="5.89604">
        <ele>2094.98</ele>
        <time>2020-09-28T12:28:25.000Z</time>
      </trkpt>
      <trkpt lat="45.11828" lon="5.89596">
        <ele>2098.46</ele>
        <time>2020-09-28T12:28:35.000Z</time>
      </trkpt>
      <trkpt lat="45.11819" lon="5.89588">
        <ele>2100.73</ele>
        <time>2020-09-28T12:28:45.000Z</time>
      </trkpt>
      <trkpt lat="45.11813" lon="5.89576">
        <ele>2096.67</ele>
        <time>2020-09-28T12:28:55.000Z</time>
      </trkpt>
      <trkpt lat="45.11808" lon="5.89564">
        <ele>2095.45</ele>
        <time>2020-09-28T12:29:05.000Z</time>
      </trkpt>
      <trkpt lat="45.11804" lon="5.89554">
        <ele>2096.81</ele>
        <time>2020-09-28T12:29:15.000Z</time>
      </trkpt>
      <trkpt lat="45.11801" lon="5.89547">
        <ele>2095.52</ele>
        <time>2020-09-28T12:29:25.000Z</time>
      </trkpt>
      <trkpt lat="45.11795" lon="5.89531">
        <ele>2092.07</ele>
        <time>2020-09-28T12:29:35.000Z</time>
      </trkpt>
      <trkpt lat="45.11792" lon="5.89522">
        <ele>2088.63</ele>
        <time>2020-09-28T12:29:45.000Z</time>
      </trkpt>
      <trkpt lat="45.11785" lon="5.89509">
        <ele>2084.98</ele>
        <time>2020-09-28T12:29:55.000Z</time>
      </trkpt>
      <trkpt lat="45.11782" lon="5.89495">
        <ele>2085.23</ele>
        <time>2020-09-28T12:30:05.000Z</time>
      </trkpt>
      <trkpt lat="45.1178" lon="5.89487">
        <ele>2083.55</ele>
        <time>2020-09-28T12:30:15.000Z</time>
      </trkpt>
      <trkpt lat="45.11778" lon="5.89474">
        <ele>2081.55</ele>
        <time>2020-09-28T12:30:25.000Z</time>
      </trkpt>
      <trkpt lat="45.11775" lon="5.89461">
        <ele>2080.6</ele>
        <time>2020-09-28T12:30:35.000Z</time>
      </trkpt>
      <trkpt lat="45.11772" lon="5.89452">
        <ele>2074.96</ele>
        <time>2020-09-28T12:30:45.000Z</time>
      </trkpt>
      <trkpt lat="45.11768" lon="5.8944">
        <ele>2071.08</ele>
        <time>2020-09-28T12:30:55.000Z</time>
      </trkpt>
      <trkpt lat="45.11763" lon="5.89428">
        <ele>2066.08</ele>
        <time>2020-09-28T12:31:05.000Z</time>
      </trkpt>
      <trkpt lat="45.11758" lon="5.89415">
        <ele>2065.6</ele>
        <time>2020-09-28T12:31:15.000Z</time>
      </trkpt>
      <trkpt lat="45.11753" lon="5.89402">
        <ele>2062.03</ele>
        <time>2020-09-28T12:31:25.000Z</time>
      </trkpt>
      <trkpt lat="45.11748" lon="5.89389">
        <ele>2059.23</ele>
        <time>2020-09-28T12:31:35.000Z</time>
      </trkpt>
      <trkpt lat="45.11741" lon="5.89376">
        <ele>2057.66</ele>
        <time>2020-09-28T12:31:45.000Z</time>
      </trkpt>
      <trkpt lat="45.11735" lon="5.89366">
        <ele>2053.16</ele>
        <time>2020-09-28T12:31:55.000Z</time>
      </trkpt>
      <trkpt lat="45.11729" lon="5.89354">
        <ele>2049.35</ele>
        <time>2020-09-28T12:32:05.000Z</time>
      </trkpt>
      <trkpt lat="45.11724" lon="5.89341">
        <ele>2048.38</ele>
        <time>2020-09-28T12:32:15.000Z</time>
      </trkpt>
      <trkpt lat="45.11718" lon="5.89329">
        <ele>2049.4</ele>
        <time>2020-09-28T12:32:25.000Z</time>
      </trkpt>
      <trkpt lat="45.11717" lon="5.8932">
        <ele>2049.62</ele>
        <time>2020-09-28T12:32:35.000Z</time>
      </trkpt>
      <trkpt lat="45.11711" lon="5.8931">
        <ele>2045.2</ele>
        <time>2020-09-28T12:32:45.000Z</time>
      </trkpt>
      <trkpt lat="45.11707" lon="5.89299">
        <ele>2042.38</ele>
        <time>2020-09-28T12:32:55.000Z</time>
      </trkpt>
      <trkpt lat="45.11702" lon="5.89287">
        <ele>2035.97</ele>
        <time>2020-09-28T12:33:05.000Z</time>
      </trkpt>
      <trkpt lat="45.11696" lon="5.8928">
        <ele>2035.37</ele>
        <time>2020-09-28T12:33:15.000Z</time>
      </trkpt>
      <trkpt lat="45.11691" lon="5.89271">
        <ele>2034.05</ele>
        <time>2020-09-28T12:33:25.000Z</time>
      </trkpt>
      <trkpt lat="45.11686" lon="5.89262">
        <ele>2027.12</ele>
        <time>2020-09-28T12:33:35.000Z</time>
      </trkpt>
      <trkpt lat="45.11678" lon="5.89257">
        <ele>2026.54</ele>
        <time>2020-09-28T12:33:45.000Z</time>
      </trkpt>
      <trkpt lat="45.11672" lon="5.89249">
        <ele>2025.86</ele>
        <time>2020-09-28T12:33:55.000Z</time>
      </trkpt>
      <trkpt lat="45.11666" lon="5.89241">
        <ele>2024.99</ele>
        <time>2020-09-28T12:34:05.000Z</time>
      </trkpt>
      <trkpt lat="45.1166" lon="5.89236">
        <ele>2025.12</ele>
        <time>2020-09-28T12:34:15.000Z</time>
      </trkpt>
      <trkpt lat="45.11653" lon="5.8923">
        <ele>2023.14</ele>
        <time>2020-09-28T12:34:25.000Z</time>
      </trkpt>
      <trkpt lat="45.11647" lon="5.89223">
        <ele>2018.87</ele>
        <time>2020-09-28T12:34:35.000Z</time>
      </trkpt>
      <trkpt lat="45.1164" lon="5.89218">
        <ele>2015.86</ele>
        <time>2020-09-28T12:34:45.000Z</time>
      </trkpt>
      <trkpt lat="45.11629" lon="5.89214">
        <ele>2015.45</ele>
        <time>2020-09-28T12:34:55.000Z</time>
      </trkpt>
      <trkpt lat="45.11621" lon="5.89211">
        <ele>2018.35</ele>
        <time>2020-09-28T12:35:05.000Z</time>
      </trkpt>
      <trkpt lat="45.11611" lon="5.89207">
        <ele>2014.84</ele>
        <time>2020-09-28T12:35:15.000Z</time>
      </trkpt>
      <trkpt lat="45.11602" lon="5.89202">
        <ele>2012.06</ele>
        <time>2020-09-28T12:35:25.000Z</time>
      </trkpt>
      <trkpt lat="45.11598" lon="5.89199">
        <ele>2010.07</ele>
        <time>2020-09-28T12:35:35.000Z</time>
      </trkpt>
      <trkpt lat="45.1159" lon="5.89197">
        <ele>2008.67</ele>
        <time>2020-09-28T12:35:45.000Z</time>
      </trkpt>
      <trkpt lat="45.11583" lon="5.89193">
        <ele>2006.49</ele>
        <time>2020-09-28T12:35:55.000Z</time>
      </trkpt>
      <trkpt lat="45.11574" lon="5.89189">
        <ele>2006.84</ele>
        <time>2020-09-28T12:36:05.000Z</time>
      </trkpt>
      <trkpt lat="45.11565" lon="5.89184">
        <ele>2005.78</ele>
        <time>2020-09-28T12:36:15.000Z</time>
      </trkpt>
      <trkpt lat="45.11557" lon="5.89178">
        <ele>2008.73</ele>
        <time>2020-09-28T12:36:25.000Z</time>
      </trkpt>
      <trkpt lat="45.1155" lon="5.89175">
        <ele>2008.32</ele>
        <time>2020-09-28T12:36:35.000Z</time>
      </trkpt>
      <trkpt lat="45.11541" lon="5.89169">
        <ele>2002.06</ele>
        <time>2020-09-28T12:36:45.000Z</time>
      </trkpt>
      <trkpt lat="45.11534" lon="5.89163">
        <ele>2003.1</ele>
        <time>2020-09-28T12:36:55.000Z</time>
      </trkpt>
      <trkpt lat="45.11526" lon="5.89157">
        <ele>2001.81</ele>
        <time>2020-09-28T12:37:05.000Z</time>
      </trkpt>
      <trkpt lat="45.11517" lon="5.89151">
        <ele>2004.01</ele>
        <time>2020-09-28T12:37:15.000Z</time>
      </trkpt>
      <trkpt lat="45.11514" lon="5.89147">
        <ele>2001.07</ele>
        <time>2020-09-28T12:37:25.000Z</time>
      </trkpt>
      <trkpt lat="45.11508" lon="5.89144">
        <ele>2001.37</ele>
        <time>2020-09-28T12:37:35.000Z</time>
      </trkpt>
      <trkpt lat="45.11505" lon="5.8914">
        <ele>1998.87</ele>
        <time>2020-09-28T12:37:45.000Z</time>
      </trkpt>
      <trkpt lat="45.11501" lon="5.89137">
        <ele>1998.35</ele>
        <time>2020-09-28T12:37:55.000Z</time>
      </trkpt>
      <trkpt lat="45.11492" lon="5.89128">
        <ele>1994.56</ele>
        <time>2020-09-28T12:38:05.000Z</time>
      </trkpt>
      <trkpt lat="45.11488" lon="5.8912">
        <ele>1994.55</ele>
        <time>2020-09-28T12:38:15.000Z</time>
      </trkpt>
      <trkpt lat="45.11481" lon="5.89115">
        <ele>1995.25</ele>
        <time>2020-09-28T12:38:25.000Z</time>
      </trkpt>
      <trkpt lat="45.11473" lon="5.89107">
        <ele>1994.32</ele>
        <time>2020-09-28T12:38:35.000Z</time>
      </trkpt>
      <trkpt lat="45.11462" lon="5.891">
        <ele>1991.67</ele>
        <time>2020-09-28T12:38:45.000Z</time>
      </trkpt>
      <trkpt lat="45.11456" lon="5.89094">
        <ele>1987.42</ele>
        <time>2020-09-28T12:38:55.000Z</time>
      </trkpt>
      <trkpt lat="45.1145" lon="5.89089">
        <ele>1986.83</ele>
        <time>2020-09-28T12:39:05.000Z</time>
      </trkpt>
      <trkpt lat="45.11445" lon="5.89083">
        <ele>1986.29</ele>
        <time>2020-09-28T12:39:15.000Z</time>
      </trkpt>
      <trkpt lat="45.11438" lon="5.89076">
        <ele>1983.82</ele>
        <time>2020-09-28T12:39:25.000Z</time>
      </trkpt>
      <trkpt lat="45.11431" lon="5.89065">
        <ele>1981.06</ele>
        <time>2020-09-28T12:39:35.000Z</time>
      </trkpt>
      <trkpt lat="45.11428" lon="5.89058">
        <ele>1979.02</ele>
        <time>2020-09-28T12:39:45.000Z</time>
      </trkpt>
      <trkpt lat="45.11421" lon="5.89047">
        <ele>1976.49</ele>
        <time>2020-09-28T12:39:55.000Z</time>
      </trkpt>
      <trkpt lat="45.11416" lon="5.8904">
        <ele>1975.31</ele>
        <time>2020-09-28T12:40:05.000Z</time>
      </trkpt>
      <trkpt lat="45.11414" lon="5.89036">
        <ele>1969.1</ele>
        <time>2020-09-28T12:40:15.000Z</time>
      </trkpt>
      <trkpt lat="45.11409" lon="5.89027">
        <ele>1977.29</ele>
        <time>2020-09-28T12:40:25.000Z</time>
      </trkpt>
      <trkpt lat="45.11404" lon="5.89018">
        <ele>1971.65</ele>
        <time>2020-09-28T12:40:35.000Z</time>
      </trkpt>
      <trkpt lat="45.11399" lon="5.89012">
        <ele>1966.36</ele>
        <time>2020-09-28T12:40:45.000Z</time>
      </trkpt>
      <trkpt lat="45.11397" lon="5.8901">
        <ele>1966.58</ele>
        <time>2020-09-28T12:40:55.000Z</time>
      </trkpt>
      <trkpt lat="45.11396" lon="5.89009">
        <ele>1966.11</ele>
        <time>2020-09-28T12:41:08.000Z</time>
      </trkpt>
      <trkpt lat="45.11391" lon="5.89002">
        <ele>1965.99</ele>
        <time>2020-09-28T12:41:18.000Z</time>
      </trkpt>
      <trkpt lat="45.11393" lon="5.88994">
        <ele>1966.49</ele>
        <time>2020-09-28T12:41:28.000Z</time>
      </trkpt>
      <trkpt lat="45.11391" lon="5.88989">
        <ele>1970.36</ele>
        <time>2020-09-28T12:41:38.000Z</time>
      </trkpt>
      <trkpt lat="45.11393" lon="5.88988">
        <ele>1971.32</ele>
        <time>2020-09-28T12:41:48.000Z</time>
      </trkpt>
      <trkpt lat="45.11397" lon="5.8899">
        <ele>1973.41</ele>
        <time>2020-09-28T12:41:58.000Z</time>
      </trkpt>
      <trkpt lat="45.11398" lon="5.8899">
        <ele>1973.77</ele>
        <time>2020-09-28T12:42:19.000Z</time>
      </trkpt>
      <trkpt lat="45.11399" lon="5.88991">
        <ele>1974.92</ele>
        <time>2020-09-28T12:42:50.000Z</time>
      </trkpt>
      <trkpt lat="45.114" lon="5.88991">
        <ele>1976.51</ele>
        <time>2020-09-28T12:43:02.000Z</time>
      </trkpt>
      <trkpt lat="45.11398" lon="5.88991">
        <ele>1975.01</ele>
        <time>2020-09-28T12:43:12.000Z</time>
      </trkpt>
      <trkpt lat="45.11398" lon="5.88989">
        <ele>1976.14</ele>
        <time>2020-09-28T12:43:22.000Z</time>
      </trkpt>
      <trkpt lat="45.11399" lon="5.88989">
        <ele>1976.87</ele>
        <time>2020-09-28T12:43:32.000Z</time>
      </trkpt>
      <trkpt lat="45.11398" lon="5.88989">
        <ele>1979.22</ele>
        <time>2020-09-28T12:44:22.000Z</time>
      </trkpt>
      <trkpt lat="45.11396" lon="5.88989">
        <ele>1978.45</ele>
        <time>2020-09-28T12:44:32.000Z</time>
      </trkpt>
      <trkpt lat="45.11396" lon="5.88988">
        <ele>1977.87</ele>
        <time>2020-09-28T12:45:44.000Z</time>
      </trkpt>
      <trkpt lat="45.11396" lon="5.88986">
        <ele>1973.38</ele>
        <time>2020-09-28T12:45:55.000Z</time>
      </trkpt>
      <trkpt lat="45.11395" lon="5.88985">
        <ele>1972.1</ele>
        <time>2020-09-28T12:46:05.000Z</time>
      </trkpt>
      <trkpt lat="45.11396" lon="5.88986">
        <ele>1968.9</ele>
        <time>2020-09-28T12:46:15.000Z</time>
      </trkpt>
      <trkpt lat="45.11397" lon="5.88987">
        <ele>1967.16</ele>
        <time>2020-09-28T12:46:30.000Z</time>
      </trkpt>
      <trkpt lat="45.11396" lon="5.88989">
        <ele>1965.28</ele>
        <time>2020-09-28T12:46:40.000Z</time>
      </trkpt>
      <trkpt lat="45.11389" lon="5.88989">
        <ele>1964.49</ele>
        <time>2020-09-28T12:46:50.000Z</time>
      </trkpt>
      <trkpt lat="45.1138" lon="5.88987">
        <ele>1963.28</ele>
        <time>2020-09-28T12:47:00.000Z</time>
      </trkpt>
      <trkpt lat="45.11374" lon="5.88982">
        <ele>1961.28</ele>
        <time>2020-09-28T12:47:10.000Z</time>
      </trkpt>
      <trkpt lat="45.11368" lon="5.88977">
        <ele>1958.28</ele>
        <time>2020-09-28T12:47:20.000Z</time>
      </trkpt>
      <trkpt lat="45.11361" lon="5.88971">
        <ele>1957.62</ele>
        <time>2020-09-28T12:47:30.000Z</time>
      </trkpt>
      <trkpt lat="45.1135" lon="5.88967">
        <ele>1955.09</ele>
        <time>2020-09-28T12:47:40.000Z</time>
      </trkpt>
      <trkpt lat="45.1134" lon="5.88964">
        <ele>1953.01</ele>
        <time>2020-09-28T12:47:50.000Z</time>
      </trkpt>
      <trkpt lat="45.11334" lon="5.88958">
        <ele>1952.25</ele>
        <time>2020-09-28T12:48:00.000Z</time>
      </trkpt>
      <trkpt lat="45.11327" lon="5.88954">
        <ele>1952.96</ele>
        <time>2020-09-28T12:48:10.000Z</time>
      </trkpt>
      <trkpt lat="45.11327" lon="5.88953">
        <ele>1956.27</ele>
        <time>2020-09-28T12:50:02.000Z</time>
      </trkpt>
      <trkpt lat="45.11326" lon="5.88952">
        <ele>1957.34</ele>
        <time>2020-09-28T12:50:15.000Z</time>
      </trkpt>
      <trkpt lat="45.11327" lon="5.88953">
        <ele>1952.1</ele>
        <time>2020-09-28T12:50:25.000Z</time>
      </trkpt>
      <trkpt lat="45.11327" lon="5.88952">
        <ele>1954.07</ele>
        <time>2020-09-28T12:50:49.000Z</time>
      </trkpt>
      <trkpt lat="45.11328" lon="5.8895">
        <ele>1950.77</ele>
        <time>2020-09-28T12:50:59.000Z</time>
      </trkpt>
      <trkpt lat="45.11327" lon="5.8895">
        <ele>1951.25</ele>
        <time>2020-09-28T12:51:12.000Z</time>
      </trkpt>
      <trkpt lat="45.11327" lon="5.88951">
        <ele>1947.12</ele>
        <time>2020-09-28T12:51:30.000Z</time>
      </trkpt>
      <trkpt lat="45.11324" lon="5.88952">
        <ele>1941.01</ele>
        <time>2020-09-28T12:51:40.000Z</time>
      </trkpt>
      <trkpt lat="45.11318" lon="5.88947">
        <ele>1940.32</ele>
        <time>2020-09-28T12:51:50.000Z</time>
      </trkpt>
      <trkpt lat="45.11311" lon="5.88936">
        <ele>1938.66</ele>
        <time>2020-09-28T12:52:00.000Z</time>
      </trkpt>
      <trkpt lat="45.11308" lon="5.88928">
        <ele>1938.1</ele>
        <time>2020-09-28T12:52:10.000Z</time>
      </trkpt>
      <trkpt lat="45.11304" lon="5.8892">
        <ele>1936.82</ele>
        <time>2020-09-28T12:52:20.000Z</time>
      </trkpt>
      <trkpt lat="45.11299" lon="5.88911">
        <ele>1936.51</ele>
        <time>2020-09-28T12:52:30.000Z</time>
      </trkpt>
      <trkpt lat="45.11298" lon="5.88899">
        <ele>1933.65</ele>
        <time>2020-09-28T12:52:40.000Z</time>
      </trkpt>
      <trkpt lat="45.11295" lon="5.88888">
        <ele>1931.51</ele>
        <time>2020-09-28T12:52:50.000Z</time>
      </trkpt>
      <trkpt lat="45.11292" lon="5.88878">
        <ele>1933.2</ele>
        <time>2020-09-28T12:53:00.000Z</time>
      </trkpt>
      <trkpt lat="45.11286" lon="5.88867">
        <ele>1932.26</ele>
        <time>2020-09-28T12:53:10.000Z</time>
      </trkpt>
      <trkpt lat="45.11284" lon="5.88853">
        <ele>1934.04</ele>
        <time>2020-09-28T12:53:20.000Z</time>
      </trkpt>
      <trkpt lat="45.1128" lon="5.88842">
        <ele>1935.25</ele>
        <time>2020-09-28T12:53:30.000Z</time>
      </trkpt>
      <trkpt lat="45.11279" lon="5.88834">
        <ele>1936.62</ele>
        <time>2020-09-28T12:53:40.000Z</time>
      </trkpt>
      <trkpt lat="45.11281" lon="5.8883">
        <ele>1929.74</ele>
        <time>2020-09-28T12:53:50.000Z</time>
      </trkpt>
      <trkpt lat="45.11284" lon="5.8882">
        <ele>1923.42</ele>
        <time>2020-09-28T12:54:00.000Z</time>
      </trkpt>
      <trkpt lat="45.11283" lon="5.88807">
        <ele>1924.67</ele>
        <time>2020-09-28T12:54:10.000Z</time>
      </trkpt>
      <trkpt lat="45.11282" lon="5.88796">
        <ele>1923.75</ele>
        <time>2020-09-28T12:54:20.000Z</time>
      </trkpt>
      <trkpt lat="45.11282" lon="5.88789">
        <ele>1923.5</ele>
        <time>2020-09-28T12:54:30.000Z</time>
      </trkpt>
      <trkpt lat="45.11282" lon="5.88783">
        <ele>1921.48</ele>
        <time>2020-09-28T12:54:40.000Z</time>
      </trkpt>
      <trkpt lat="45.11282" lon="5.8877">
        <ele>1919.77</ele>
        <time>2020-09-28T12:54:50.000Z</time>
      </trkpt>
      <trkpt lat="45.11278" lon="5.88762">
        <ele>1914.74</ele>
        <time>2020-09-28T12:55:00.000Z</time>
      </trkpt>
      <trkpt lat="45.11276" lon="5.88753">
        <ele>1911.56</ele>
        <time>2020-09-28T12:55:10.000Z</time>
      </trkpt>
      <trkpt lat="45.11273" lon="5.88738">
        <ele>1909.97</ele>
        <time>2020-09-28T12:55:20.000Z</time>
      </trkpt>
      <trkpt lat="45.11269" lon="5.88724">
        <ele>1908.81</ele>
        <time>2020-09-28T12:55:30.000Z</time>
      </trkpt>
      <trkpt lat="45.11267" lon="5.88708">
        <ele>1906.67</ele>
        <time>2020-09-28T12:55:40.000Z</time>
      </trkpt>
      <trkpt lat="45.11268" lon="5.88695">
        <ele>1903.32</ele>
        <time>2020-09-28T12:55:50.000Z</time>
      </trkpt>
      <trkpt lat="45.11269" lon="5.88686">
        <ele>1903.4</ele>
        <time>2020-09-28T12:56:00.000Z</time>
      </trkpt>
      <trkpt lat="45.11271" lon="5.88674">
        <ele>1902.42</ele>
        <time>2020-09-28T12:56:10.000Z</time>
      </trkpt>
      <trkpt lat="45.11273" lon="5.8866">
        <ele>1895.34</ele>
        <time>2020-09-28T12:56:20.000Z</time>
      </trkpt>
      <trkpt lat="45.11273" lon="5.8865">
        <ele>1893.34</ele>
        <time>2020-09-28T12:56:30.000Z</time>
      </trkpt>
      <trkpt lat="45.11276" lon="5.88638">
        <ele>1891.19</ele>
        <time>2020-09-28T12:56:40.000Z</time>
      </trkpt>
      <trkpt lat="45.11279" lon="5.88622">
        <ele>1889.69</ele>
        <time>2020-09-28T12:56:50.000Z</time>
      </trkpt>
      <trkpt lat="45.11281" lon="5.88612">
        <ele>1891.4</ele>
        <time>2020-09-28T12:57:00.000Z</time>
      </trkpt>
      <trkpt lat="45.11284" lon="5.88599">
        <ele>1889.49</ele>
        <time>2020-09-28T12:57:10.000Z</time>
      </trkpt>
      <trkpt lat="45.11288" lon="5.88587">
        <ele>1887.85</ele>
        <time>2020-09-28T12:57:20.000Z</time>
      </trkpt>
      <trkpt lat="45.1129" lon="5.88579">
        <ele>1887.57</ele>
        <time>2020-09-28T12:57:30.000Z</time>
      </trkpt>
      <trkpt lat="45.1129" lon="5.88566">
        <ele>1885.45</ele>
        <time>2020-09-28T12:57:40.000Z</time>
      </trkpt>
      <trkpt lat="45.11291" lon="5.8855">
        <ele>1880.98</ele>
        <time>2020-09-28T12:57:50.000Z</time>
      </trkpt>
      <trkpt lat="45.1129" lon="5.88537">
        <ele>1880.4</ele>
        <time>2020-09-28T12:58:00.000Z</time>
      </trkpt>
      <trkpt lat="45.1129" lon="5.8853">
        <ele>1881.31</ele>
        <time>2020-09-28T12:58:10.000Z</time>
      </trkpt>
      <trkpt lat="45.1129" lon="5.88527">
        <ele>1884.76</ele>
        <time>2020-09-28T12:58:20.000Z</time>
      </trkpt>
      <trkpt lat="45.11287" lon="5.88516">
        <ele>1885.45</ele>
        <time>2020-09-28T12:58:30.000Z</time>
      </trkpt>
      <trkpt lat="45.1129" lon="5.88511">
        <ele>1886.54</ele>
        <time>2020-09-28T12:58:40.000Z</time>
      </trkpt>
      <trkpt lat="45.11298" lon="5.88506">
        <ele>1889.43</ele>
        <time>2020-09-28T12:58:50.000Z</time>
      </trkpt>
      <trkpt lat="45.11304" lon="5.88504">
        <ele>1887.18</ele>
        <time>2020-09-28T12:59:00.000Z</time>
      </trkpt>
      <trkpt lat="45.11312" lon="5.88504">
        <ele>1888.07</ele>
        <time>2020-09-28T12:59:10.000Z</time>
      </trkpt>
      <trkpt lat="45.11321" lon="5.88506">
        <ele>1883.28</ele>
        <time>2020-09-28T12:59:20.000Z</time>
      </trkpt>
      <trkpt lat="45.11329" lon="5.88508">
        <ele>1878.77</ele>
        <time>2020-09-28T12:59:30.000Z</time>
      </trkpt>
      <trkpt lat="45.11335" lon="5.88507">
        <ele>1884.74</ele>
        <time>2020-09-28T12:59:40.000Z</time>
      </trkpt>
      <trkpt lat="45.11339" lon="5.88501">
        <ele>1885.01</ele>
        <time>2020-09-28T12:59:50.000Z</time>
      </trkpt>
      <trkpt lat="45.1134" lon="5.88493">
        <ele>1887.82</ele>
        <time>2020-09-28T13:00:00.000Z</time>
      </trkpt>
      <trkpt lat="45.11346" lon="5.88484">
        <ele>1878.53</ele>
        <time>2020-09-28T13:00:10.000Z</time>
      </trkpt>
      <trkpt lat="45.11346" lon="5.88472">
        <ele>1880.95</ele>
        <time>2020-09-28T13:00:20.000Z</time>
      </trkpt>
      <trkpt lat="45.11346" lon="5.8847">
        <ele>1877.95</ele>
        <time>2020-09-28T13:00:30.000Z</time>
      </trkpt>
      <trkpt lat="45.11347" lon="5.88468">
        <ele>1876.01</ele>
        <time>2020-09-28T13:00:40.000Z</time>
      </trkpt>
      <trkpt lat="45.11347" lon="5.88466">
        <ele>1878.55</ele>
        <time>2020-09-28T13:01:11.000Z</time>
      </trkpt>
      <trkpt lat="45.11342" lon="5.88454">
        <ele>1883.9</ele>
        <time>2020-09-28T13:01:21.000Z</time>
      </trkpt>
      <trkpt lat="45.11338" lon="5.88446">
        <ele>1884.35</ele>
        <time>2020-09-28T13:01:31.000Z</time>
      </trkpt>
      <trkpt lat="45.11337" lon="5.88441">
        <ele>1884.02</ele>
        <time>2020-09-28T13:01:41.000Z</time>
      </trkpt>
      <trkpt lat="45.11336" lon="5.88432">
        <ele>1880.87</ele>
        <time>2020-09-28T13:01:51.000Z</time>
      </trkpt>
      <trkpt lat="45.11336" lon="5.88416">
        <ele>1877.93</ele>
        <time>2020-09-28T13:02:01.000Z</time>
      </trkpt>
      <trkpt lat="45.11338" lon="5.88404">
        <ele>1879.81</ele>
        <time>2020-09-28T13:02:11.000Z</time>
      </trkpt>
      <trkpt lat="45.11341" lon="5.88396">
        <ele>1877.43</ele>
        <time>2020-09-28T13:02:21.000Z</time>
      </trkpt>
      <trkpt lat="45.11345" lon="5.88387">
        <ele>1877.25</ele>
        <time>2020-09-28T13:02:31.000Z</time>
      </trkpt>
      <trkpt lat="45.1135" lon="5.88381">
        <ele>1872.89</ele>
        <time>2020-09-28T13:02:41.000Z</time>
      </trkpt>
      <trkpt lat="45.11347" lon="5.88371">
        <ele>1872.01</ele>
        <time>2020-09-28T13:02:51.000Z</time>
      </trkpt>
      <trkpt lat="45.11349" lon="5.8836">
        <ele>1872.11</ele>
        <time>2020-09-28T13:03:01.000Z</time>
      </trkpt>
      <trkpt lat="45.11351" lon="5.88348">
        <ele>1863.2</ele>
        <time>2020-09-28T13:03:11.000Z</time>
      </trkpt>
      <trkpt lat="45.11351" lon="5.88336">
        <ele>1857.46</ele>
        <time>2020-09-28T13:03:21.000Z</time>
      </trkpt>
      <trkpt lat="45.1135" lon="5.88326">
        <ele>1855.73</ele>
        <time>2020-09-28T13:03:31.000Z</time>
      </trkpt>
      <trkpt lat="45.11347" lon="5.88314">
        <ele>1858.98</ele>
        <time>2020-09-28T13:03:41.000Z</time>
      </trkpt>
      <trkpt lat="45.11344" lon="5.88303">
        <ele>1855.46</ele>
        <time>2020-09-28T13:03:51.000Z</time>
      </trkpt>
      <trkpt lat="45.11342" lon="5.8829">
        <ele>1854.2</ele>
        <time>2020-09-28T13:04:01.000Z</time>
      </trkpt>
      <trkpt lat="45.11339" lon="5.88284">
        <ele>1849.61</ele>
        <time>2020-09-28T13:04:11.000Z</time>
      </trkpt>
      <trkpt lat="45.11338" lon="5.88275">
        <ele>1846.84</ele>
        <time>2020-09-28T13:04:21.000Z</time>
      </trkpt>
      <trkpt lat="45.11338" lon="5.88263">
        <ele>1845.9</ele>
        <time>2020-09-28T13:04:31.000Z</time>
      </trkpt>
      <trkpt lat="45.11339" lon="5.88257">
        <ele>1838.17</ele>
        <time>2020-09-28T13:04:41.000Z</time>
      </trkpt>
      <trkpt lat="45.11339" lon="5.88254">
        <ele>1839.43</ele>
        <time>2020-09-28T13:05:00.000Z</time>
      </trkpt>
      <trkpt lat="45.11337" lon="5.88237">
        <ele>1839.38</ele>
        <time>2020-09-28T13:05:10.000Z</time>
      </trkpt>
      <trkpt lat="45.11333" lon="5.88224">
        <ele>1838.54</ele>
        <time>2020-09-28T13:05:20.000Z</time>
      </trkpt>
      <trkpt lat="45.11331" lon="5.88211">
        <ele>1834.47</ele>
        <time>2020-09-28T13:05:30.000Z</time>
      </trkpt>
      <trkpt lat="45.11332" lon="5.88198">
        <ele>1827</ele>
        <time>2020-09-28T13:05:40.000Z</time>
      </trkpt>
      <trkpt lat="45.11328" lon="5.88182">
        <ele>1826.84</ele>
        <time>2020-09-28T13:05:50.000Z</time>
      </trkpt>
      <trkpt lat="45.11328" lon="5.88173">
        <ele>1823.15</ele>
        <time>2020-09-28T13:06:00.000Z</time>
      </trkpt>
      <trkpt lat="45.11329" lon="5.88162">
        <ele>1821.6</ele>
        <time>2020-09-28T13:06:10.000Z</time>
      </trkpt>
      <trkpt lat="45.1133" lon="5.88151">
        <ele>1819.42</ele>
        <time>2020-09-28T13:06:20.000Z</time>
      </trkpt>
      <trkpt lat="45.1133" lon="5.8814">
        <ele>1816.26</ele>
        <time>2020-09-28T13:06:30.000Z</time>
      </trkpt>
      <trkpt lat="45.1133" lon="5.8813">
        <ele>1812.95</ele>
        <time>2020-09-28T13:06:40.000Z</time>
      </trkpt>
      <trkpt lat="45.1133" lon="5.88125">
        <ele>1810.11</ele>
        <time>2020-09-28T13:06:50.000Z</time>
      </trkpt>
      <trkpt lat="45.11331" lon="5.88113">
        <ele>1811.53</ele>
        <time>2020-09-28T13:07:00.000Z</time>
      </trkpt>
      <trkpt lat="45.11327" lon="5.88101">
        <ele>1810.41</ele>
        <time>2020-09-28T13:07:10.000Z</time>
      </trkpt>
      <trkpt lat="45.11324" lon="5.88088">
        <ele>1809.55</ele>
        <time>2020-09-28T13:07:20.000Z</time>
      </trkpt>
      <trkpt lat="45.11319" lon="5.88076">
        <ele>1810.68</ele>
        <time>2020-09-28T13:07:30.000Z</time>
      </trkpt>
      <trkpt lat="45.11317" lon="5.88063">
        <ele>1809.27</ele>
        <time>2020-09-28T13:07:40.000Z</time>
      </trkpt>
      <trkpt lat="45.11316" lon="5.88051">
        <ele>1808.31</ele>
        <time>2020-09-28T13:07:50.000Z</time>
      </trkpt>
      <trkpt lat="45.11313" lon="5.88034">
        <ele>1804.28</ele>
        <time>2020-09-28T13:08:00.000Z</time>
      </trkpt>
      <trkpt lat="45.11309" lon="5.88024">
        <ele>1801.54</ele>
        <time>2020-09-28T13:08:10.000Z</time>
      </trkpt>
      <trkpt lat="45.11303" lon="5.88015">
        <ele>1798.9</ele>
        <time>2020-09-28T13:08:20.000Z</time>
      </trkpt>
      <trkpt lat="45.113" lon="5.88003">
        <ele>1796.65</ele>
        <time>2020-09-28T13:08:30.000Z</time>
      </trkpt>
      <trkpt lat="45.11295" lon="5.87993">
        <ele>1798.59</ele>
        <time>2020-09-28T13:08:40.000Z</time>
      </trkpt>
      <trkpt lat="45.11289" lon="5.87984">
        <ele>1793.79</ele>
        <time>2020-09-28T13:08:50.000Z</time>
      </trkpt>
      <trkpt lat="45.11286" lon="5.87973">
        <ele>1792.71</ele>
        <time>2020-09-28T13:09:00.000Z</time>
      </trkpt>
      <trkpt lat="45.11283" lon="5.87967">
        <ele>1793.42</ele>
        <time>2020-09-28T13:09:10.000Z</time>
      </trkpt>
      <trkpt lat="45.11272" lon="5.87957">
        <ele>1798.49</ele>
        <time>2020-09-28T13:09:20.000Z</time>
      </trkpt>
      <trkpt lat="45.11264" lon="5.87955">
        <ele>1793.29</ele>
        <time>2020-09-28T13:09:30.000Z</time>
      </trkpt>
      <trkpt lat="45.11257" lon="5.87951">
        <ele>1790.62</ele>
        <time>2020-09-28T13:09:40.000Z</time>
      </trkpt>
      <trkpt lat="45.11251" lon="5.87948">
        <ele>1788.3</ele>
        <time>2020-09-28T13:09:50.000Z</time>
      </trkpt>
      <trkpt lat="45.11246" lon="5.8794">
        <ele>1786.51</ele>
        <time>2020-09-28T13:10:00.000Z</time>
      </trkpt>
      <trkpt lat="45.11243" lon="5.87926">
        <ele>1785.86</ele>
        <time>2020-09-28T13:10:10.000Z</time>
      </trkpt>
      <trkpt lat="45.11241" lon="5.87917">
        <ele>1787.56</ele>
        <time>2020-09-28T13:10:20.000Z</time>
      </trkpt>
      <trkpt lat="45.1123" lon="5.87906">
        <ele>1787.65</ele>
        <time>2020-09-28T13:10:30.000Z</time>
      </trkpt>
      <trkpt lat="45.11224" lon="5.87896">
        <ele>1784.98</ele>
        <time>2020-09-28T13:10:40.000Z</time>
      </trkpt>
      <trkpt lat="45.11224" lon="5.87882">
        <ele>1785.77</ele>
        <time>2020-09-28T13:10:50.000Z</time>
      </trkpt>
      <trkpt lat="45.11223" lon="5.8787">
        <ele>1781.72</ele>
        <time>2020-09-28T13:11:00.000Z</time>
      </trkpt>
      <trkpt lat="45.11214" lon="5.87868">
        <ele>1781.65</ele>
        <time>2020-09-28T13:11:10.000Z</time>
      </trkpt>
      <trkpt lat="45.11204" lon="5.87871">
        <ele>1782.1</ele>
        <time>2020-09-28T13:11:20.000Z</time>
      </trkpt>
      <trkpt lat="45.11197" lon="5.87875">
        <ele>1779.52</ele>
        <time>2020-09-28T13:11:30.000Z</time>
      </trkpt>
      <trkpt lat="45.1119" lon="5.87882">
        <ele>1773.56</ele>
        <time>2020-09-28T13:11:40.000Z</time>
      </trkpt>
      <trkpt lat="45.1118" lon="5.87885">
        <ele>1771.35</ele>
        <time>2020-09-28T13:11:50.000Z</time>
      </trkpt>
      <trkpt lat="45.11168" lon="5.87884">
        <ele>1772.39</ele>
        <time>2020-09-28T13:12:00.000Z</time>
      </trkpt>
      <trkpt lat="45.11157" lon="5.87884">
        <ele>1772.38</ele>
        <time>2020-09-28T13:12:10.000Z</time>
      </trkpt>
      <trkpt lat="45.1115" lon="5.87879">
        <ele>1768.2</ele>
        <time>2020-09-28T13:12:20.000Z</time>
      </trkpt>
      <trkpt lat="45.11143" lon="5.87872">
        <ele>1772.6</ele>
        <time>2020-09-28T13:12:30.000Z</time>
      </trkpt>
      <trkpt lat="45.11134" lon="5.87864">
        <ele>1774.58</ele>
        <time>2020-09-28T13:12:40.000Z</time>
      </trkpt>
      <trkpt lat="45.11126" lon="5.87853">
        <ele>1776.9</ele>
        <time>2020-09-28T13:12:50.000Z</time>
      </trkpt>
      <trkpt lat="45.11117" lon="5.87842">
        <ele>1777.61</ele>
        <time>2020-09-28T13:13:00.000Z</time>
      </trkpt>
      <trkpt lat="45.1111" lon="5.87834">
        <ele>1775.77</ele>
        <time>2020-09-28T13:13:10.000Z</time>
      </trkpt>
      <trkpt lat="45.11105" lon="5.87826">
        <ele>1772.52</ele>
        <time>2020-09-28T13:13:20.000Z</time>
      </trkpt>
      <trkpt lat="45.11103" lon="5.87823">
        <ele>1770.68</ele>
        <time>2020-09-28T13:13:30.000Z</time>
      </trkpt>
      <trkpt lat="45.11088" lon="5.87818">
        <ele>1773.66</ele>
        <time>2020-09-28T13:13:40.000Z</time>
      </trkpt>
      <trkpt lat="45.11079" lon="5.87809">
        <ele>1776.14</ele>
        <time>2020-09-28T13:13:50.000Z</time>
      </trkpt>
      <trkpt lat="45.11074" lon="5.878">
        <ele>1771.24</ele>
        <time>2020-09-28T13:14:00.000Z</time>
      </trkpt>
      <trkpt lat="45.1107" lon="5.87791">
        <ele>1767.41</ele>
        <time>2020-09-28T13:14:10.000Z</time>
      </trkpt>
      <trkpt lat="45.11063" lon="5.87782">
        <ele>1768.74</ele>
        <time>2020-09-28T13:14:20.000Z</time>
      </trkpt>
      <trkpt lat="45.11053" lon="5.87778">
        <ele>1765.48</ele>
        <time>2020-09-28T13:14:30.000Z</time>
      </trkpt>
      <trkpt lat="45.11045" lon="5.87773">
        <ele>1763.3</ele>
        <time>2020-09-28T13:14:40.000Z</time>
      </trkpt>
      <trkpt lat="45.11036" lon="5.87773">
        <ele>1763</ele>
        <time>2020-09-28T13:14:50.000Z</time>
      </trkpt>
      <trkpt lat="45.1103" lon="5.87772">
        <ele>1762.32</ele>
        <time>2020-09-28T13:15:00.000Z</time>
      </trkpt>
      <trkpt lat="45.11015" lon="5.87763">
        <ele>1760.68</ele>
        <time>2020-09-28T13:15:10.000Z</time>
      </trkpt>
      <trkpt lat="45.1101" lon="5.87751">
        <ele>1763.05</ele>
        <time>2020-09-28T13:15:20.000Z</time>
      </trkpt>
      <trkpt lat="45.11" lon="5.87742">
        <ele>1765.38</ele>
        <time>2020-09-28T13:15:30.000Z</time>
      </trkpt>
      <trkpt lat="45.10995" lon="5.87729">
        <ele>1766.6</ele>
        <time>2020-09-28T13:15:40.000Z</time>
      </trkpt>
      <trkpt lat="45.10989" lon="5.8772">
        <ele>1765.65</ele>
        <time>2020-09-28T13:15:50.000Z</time>
      </trkpt>
      <trkpt lat="45.10982" lon="5.8771">
        <ele>1763.82</ele>
        <time>2020-09-28T13:16:00.000Z</time>
      </trkpt>
      <trkpt lat="45.10974" lon="5.87702">
        <ele>1759.34</ele>
        <time>2020-09-28T13:16:10.000Z</time>
      </trkpt>
      <trkpt lat="45.10967" lon="5.87691">
        <ele>1754.02</ele>
        <time>2020-09-28T13:16:20.000Z</time>
      </trkpt>
      <trkpt lat="45.10966" lon="5.87679">
        <ele>1751.11</ele>
        <time>2020-09-28T13:16:30.000Z</time>
      </trkpt>
      <trkpt lat="45.1096" lon="5.87667">
        <ele>1751.65</ele>
        <time>2020-09-28T13:16:40.000Z</time>
      </trkpt>
      <trkpt lat="45.10954" lon="5.8766">
        <ele>1748.73</ele>
        <time>2020-09-28T13:16:50.000Z</time>
      </trkpt>
      <trkpt lat="45.10947" lon="5.87655">
        <ele>1750.41</ele>
        <time>2020-09-28T13:17:00.000Z</time>
      </trkpt>
      <trkpt lat="45.1094" lon="5.87649">
        <ele>1750.17</ele>
        <time>2020-09-28T13:17:10.000Z</time>
      </trkpt>
      <trkpt lat="45.10932" lon="5.87648">
        <ele>1750.05</ele>
        <time>2020-09-28T13:17:20.000Z</time>
      </trkpt>
      <trkpt lat="45.10929" lon="5.87645">
        <ele>1752.28</ele>
        <time>2020-09-28T13:17:30.000Z</time>
      </trkpt>
      <trkpt lat="45.10919" lon="5.87644">
        <ele>1752.94</ele>
        <time>2020-09-28T13:17:40.000Z</time>
      </trkpt>
      <trkpt lat="45.10914" lon="5.87646">
        <ele>1753.11</ele>
        <time>2020-09-28T13:17:50.000Z</time>
      </trkpt>
      <trkpt lat="45.10902" lon="5.87641">
        <ele>1750.25</ele>
        <time>2020-09-28T13:18:00.000Z</time>
      </trkpt>
      <trkpt lat="45.10904" lon="5.87631">
        <ele>1752.08</ele>
        <time>2020-09-28T13:18:10.000Z</time>
      </trkpt>
      <trkpt lat="45.10906" lon="5.87627">
        <ele>1752.62</ele>
        <time>2020-09-28T13:18:20.000Z</time>
      </trkpt>
      <trkpt lat="45.10889" lon="5.87603">
        <ele>1751.8</ele>
        <time>2020-09-28T13:18:30.000Z</time>
      </trkpt>
      <trkpt lat="45.10904" lon="5.87614">
        <ele>1749.64</ele>
        <time>2020-09-28T13:18:41.000Z</time>
      </trkpt>
      <trkpt lat="45.109" lon="5.87609">
        <ele>1747.54</ele>
        <time>2020-09-28T13:18:51.000Z</time>
      </trkpt>
      <trkpt lat="45.10899" lon="5.87602">
        <ele>1747.16</ele>
        <time>2020-09-28T13:19:01.000Z</time>
      </trkpt>
      <trkpt lat="45.109" lon="5.87596">
        <ele>1750.37</ele>
        <time>2020-09-28T13:19:11.000Z</time>
      </trkpt>
      <trkpt lat="45.10911" lon="5.87589">
        <ele>1751.46</ele>
        <time>2020-09-28T13:19:21.000Z</time>
      </trkpt>
      <trkpt lat="45.1092" lon="5.87585">
        <ele>1755.23</ele>
        <time>2020-09-28T13:19:31.000Z</time>
      </trkpt>
      <trkpt lat="45.10921" lon="5.87584">
        <ele>1752.25</ele>
        <time>2020-09-28T13:19:41.000Z</time>
      </trkpt>
      <trkpt lat="45.1092" lon="5.87582">
        <ele>1752.12</ele>
        <time>2020-09-28T13:19:51.000Z</time>
      </trkpt>
      <trkpt lat="45.1092" lon="5.8758">
        <ele>1753.33</ele>
        <time>2020-09-28T13:21:08.000Z</time>
      </trkpt>
      <trkpt lat="45.10917" lon="5.87578">
        <ele>1751.51</ele>
        <time>2020-09-28T13:21:17.000Z</time>
      </trkpt>
    </trkseg>
  </trk>
</gpx>